Darstellungsparameter: Aktuell verwendete Einstellungen:
Skalierung der Graphiken ... ?
xyx+y,   Skalierungsfaktor:      Skalierung: Modus: x, Faktor: 1
Darstellungszeitraum ... ?
Vom - - bis: - -   Zeitraum: 22.08.2008 - 21.11.2008
Min/Max/Avg-Anzeige ... ?
Zeige MMA aktuell
Zeige MMA Monat
Zeige MMA alles
Zeige --A aktuell
Zeige --A Monat
Zeige --A alles
Keine MMA-Anzeige
MMA:
Average (ber die Originaldaten)
MMA-Basis: 17.04.2019 - 19.05.2019
Quicknavigation für Darstellung... ?
Tage:      1T, 2T, 3T, 5T -1T -2T -3T -5T +1T +2T +3T +5T
Wochen: 1W, 2W, 3W -1W -2W -3W +1W +2W +3W
Monate: 1M, 3M, 6M -1M -3M -6M +1M +3M +6M
Jahre:    1J, 3J, 5J, 10J -1J -3J -5J -10J +1J +3J +5J +10J
Nutze für die Darstellung ... ?
Originaldaten oder Mittelwerte auf ...
Stundenbasis Tagesbasis Wochenbasis
Monatsbasis Jahresbasis      Datenbasis: Original-Daten
Darstellen als:
Statistik (Auto) Statistik J:M      Darstellung:
Zur Graphik,    zurück zur Übersicht aller Sensoren.
 
Tabellarische Datenbersicht: ?
 
Sensor: Nr:Datum:Temp:Abs-Feuchte:Windchill:Wind:
Aussen-T/F 1 22-08-2008 00:04:04 20.1 C 9.21 g/m*3 20.1 C 0 km/h
2 22-08-2008 00:16:04 20 C 9.33 g/m*3 20 C 0 km/h
3 22-08-2008 00:28:04 20.1 C 9.21 g/m*3 20.1 C 0 km/h
4 22-08-2008 00:40:04 20 C 9.33 g/m*3 20 C 0 km/h
5 22-08-2008 00:52:04 19.9 C 9.28 g/m*3 19.9 C 0 km/h
6 22-08-2008 01:04:04 20 C 9.33 g/m*3 20 C 0 km/h
7 22-08-2008 01:16:04 20.3 C 9.67 g/m*3 20.3 C 0 km/h
8 22-08-2008 01:28:04 19.6 C 9.62 g/m*3 19.6 C 0 km/h
9 22-08-2008 01:40:04 19.5 C 9.57 g/m*3 19.5 C 0 km/h
10 22-08-2008 01:52:04 19.3 C 9.45 g/m*3 19.3 C 0 km/h
11 22-08-2008 02:04:04 19.1 C 9.51 g/m*3 19.1 C 0 km/h
12 22-08-2008 02:16:04 18.9 C 9.56 g/m*3 18.9 C 0 km/h
13 22-08-2008 02:28:04 18.7 C 9.45 g/m*3 18.7 C 0 km/h
14 22-08-2008 02:40:04 18.5 C 9.33 g/m*3 18.5 C 0 km/h
15 22-08-2008 02:52:04 18.4 C 9.44 g/m*3 18.4 C 0 km/h
16 22-08-2008 03:04:05 18.5 C 9.33 g/m*3 18.5 C 0 km/h
17 22-08-2008 03:16:05 18.5 C 9.49 g/m*3 18.5 C 0 km/h
18 22-08-2008 03:28:05 18.4 C 9.44 g/m*3 18.4 C 0 km/h
19 22-08-2008 03:40:05 18.5 C 9.49 g/m*3 18.5 C 0 km/h
20 22-08-2008 03:52:05 18.5 C 9.49 g/m*3 18.5 C 0 km/h
21 22-08-2008 04:04:05 18.5 C 9.49 g/m*3 18.5 C 0 km/h
22 22-08-2008 04:16:05 18.4 C 9.44 g/m*3 18.4 C 0 km/h
23 22-08-2008 04:28:05 18.4 C 9.59 g/m*3 18.4 C 0 km/h
24 22-08-2008 04:40:05 18.3 C 9.54 g/m*3 18.3 C 0 km/h
25 22-08-2008 04:52:05 18.2 C 9.64 g/m*3 18.2 C 0 km/h
Sensor: Nr:Datum:Temp:Abs-Feuchte:Windchill:Wind:
Aussen-T/F 26 22-08-2008 05:04:05 18.2 C 9.64 g/m*3 18.2 C 0 km/h
27 22-08-2008 05:16:05 18.1 C 9.58 g/m*3 18.1 C 0 km/h
28 22-08-2008 05:28:05 18.2 C 9.64 g/m*3 18.2 C 0 km/h
29 22-08-2008 05:40:05 18.1 C 9.73 g/m*3 18.1 C 0 km/h
30 22-08-2008 05:52:05 18 C 9.68 g/m*3 18 C 0 km/h
31 22-08-2008 06:04:05 17.9 C 9.77 g/m*3 17.9 C 0 km/h
32 22-08-2008 06:16:05 17.5 C 9.69 g/m*3 17.5 C 0 km/h
33 22-08-2008 06:28:05 17.3 C 9.72 g/m*3 17.3 C 0 km/h
34 22-08-2008 06:40:05 17 C 9.69 g/m*3 17 C 0 km/h
35 22-08-2008 06:52:06 16.8 C 9.87 g/m*3 16.8 C 0 km/h
36 22-08-2008 07:04:06 16.9 C 9.92 g/m*3 16.9 C 0 km/h
37 22-08-2008 07:16:02 16.8 C 10.01 g/m*3 16.8 C 0 km/h
38 22-08-2008 07:28:02 17 C 10.13 g/m*3 17 C 0 km/h
39 22-08-2008 07:40:03 17.2 C 10.1 g/m*3 17.2 C 0 km/h
40 22-08-2008 07:52:01 17.6 C 10.35 g/m*3 17.6 C 0 km/h
41 22-08-2008 08:04:01 17.7 C 10.26 g/m*3 17.7 C 0 km/h
42 22-08-2008 08:16:01 17.8 C 10.32 g/m*3 17.8 C 0 km/h
43 22-08-2008 08:28:01 18 C 9.98 g/m*3 18 C 0 km/h
44 22-08-2008 08:40:01 17.9 C 9.92 g/m*3 17.9 C 0 km/h
45 22-08-2008 08:52:02 17.7 C 9.96 g/m*3 17.7 C 0 km/h
46 22-08-2008 09:04:02 17.8 C 10.02 g/m*3 17.8 C 0 km/h
47 22-08-2008 09:16:02 18.1 C 9.89 g/m*3 18.1 C 0 km/h
48 22-08-2008 09:28:02 18.7 C 10.09 g/m*3 18.7 C 0 km/h
49 22-08-2008 09:40:02 19.3 C 10.12 g/m*3 19.3 C 0 km/h
50 22-08-2008 09:52:02 20 C 10.02 g/m*3 20 C 0 km/h
Sensor: Nr:Datum:Temp:Abs-Feuchte:Windchill:Wind:
Aussen-T/F 51 22-08-2008 10:04:02 20.6 C 10.02 g/m*3 20.6 C 0 km/h
52 22-08-2008 10:16:02 21.2 C 9.82 g/m*3 21.2 C 0 km/h
53 22-08-2008 10:28:02 22.2 C 9.82 g/m*3 22.2 C 0 km/h
54 22-08-2008 10:40:02 22.9 C 9.61 g/m*3 22.9 C 0 km/h
55 22-08-2008 10:52:02 23.3 C 9.41 g/m*3 23.3 C 0 km/h
56 22-08-2008 11:04:02 23.6 C 9.36 g/m*3 23.6 C 0 km/h
57 22-08-2008 11:16:02 24.4 C 9.12 g/m*3 24.4 C 0 km/h
58 22-08-2008 11:28:02 24.9 C 8.93 g/m*3 24.9 C 0 km/h
59 22-08-2008 11:40:02 24.5 C 9.4 g/m*3 24.5 C 0 km/h
60 22-08-2008 11:52:02 24.9 C 9.16 g/m*3 24.9 C 0 km/h
61 22-08-2008 12:04:02 24.8 C 8.88 g/m*3 24.8 C 0 km/h
62 22-08-2008 12:16:02 24.8 C 9.1 g/m*3 24.8 C 0 km/h
63 22-08-2008 12:28:02 24.8 C 8.88 g/m*3 24.8 C 0 km/h
64 22-08-2008 12:40:02 24.5 C 8.95 g/m*3 24.5 C 0 km/h
65 22-08-2008 12:52:02 24.5 C 9.18 g/m*3 24.5 C 0 km/h
66 22-08-2008 13:04:02 24.3 C 9.07 g/m*3 24.3 C 0 km/h
67 22-08-2008 13:16:02 24.2 C 9.24 g/m*3 24.2 C 0 km/h
68 22-08-2008 13:28:02 23.4 C 9.88 g/m*3 23.4 C 0 km/h
69 22-08-2008 13:40:02 22.9 C 10.22 g/m*3 22.9 C 0 km/h
70 22-08-2008 13:52:02 21.5 C 10.94 g/m*3 21.5 C 0 km/h
71 22-08-2008 14:04:01 19.1 C 11.31 g/m*3 19.1 C 0 km/h
72 22-08-2008 14:16:02 18.1 C 12.05 g/m*3 18.1 C 0 km/h
73 22-08-2008 14:28:02 17.9 C 12.67 g/m*3 17.9 C 0 km/h
74 22-08-2008 14:40:01 18.2 C 12.9 g/m*3 18.2 C 0 km/h
75 22-08-2008 14:52:02 18.1 C 12.82 g/m*3 18.1 C 0 km/h
Sensor: Nr:Datum:Temp:Abs-Feuchte:Windchill:Wind:
Aussen-T/F 76 22-08-2008 15:04:01 18.4 C 13.21 g/m*3 18.4 C 0 km/h
77 22-08-2008 15:16:02 18.5 C 13.29 g/m*3 18.5 C 0 km/h
78 22-08-2008 15:28:02 18 C 13.21 g/m*3 18 C 0 km/h
79 22-08-2008 15:40:01 17.9 C 13.44 g/m*3 17.9 C 0 km/h
80 22-08-2008 15:52:03 18.3 C 13.76 g/m*3 18.3 C 0 km/h
81 22-08-2008 16:04:02 18.5 C 13.92 g/m*3 18.5 C 0 km/h
82 22-08-2008 16:16:03 18.3 C 13.76 g/m*3 18.3 C 0 km/h
83 22-08-2008 16:28:03 18.5 C 13.92 g/m*3 18.5 C 0 km/h
84 22-08-2008 16:40:03 18.2 C 13.68 g/m*3 18.2 C 0 km/h
85 22-08-2008 16:52:02 17.9 C 13.59 g/m*3 17.9 C 0 km/h
86 22-08-2008 17:04:02 17.8 C 13.36 g/m*3 17.8 C 0 km/h
87 22-08-2008 17:16:01 17.8 C 13.36 g/m*3 17.8 C 0 km/h
88 22-08-2008 17:28:01 17.7 C 13.28 g/m*3 17.7 C 0 km/h
89 22-08-2008 17:40:02 17.5 C 13.12 g/m*3 17.5 C 0 km/h
90 22-08-2008 17:52:02 17.5 C 13.12 g/m*3 17.5 C 0 km/h
91 22-08-2008 18:04:02 17.5 C 13.12 g/m*3 17.5 C 0 km/h
92 22-08-2008 18:16:02 16.1 C 11.79 g/m*3 16.1 C 0 km/h
93 22-08-2008 18:28:02 15.7 C 11.51 g/m*3 15.7 C 0 km/h
94 22-08-2008 18:40:02 15.5 C 11.5 g/m*3 15.5 C 0 km/h
95 22-08-2008 18:52:02 15.6 C 11.84 g/m*3 15.6 C 0 km/h
96 22-08-2008 19:04:02 15.4 C 11.69 g/m*3 15.4 C 0 km/h
97 22-08-2008 19:16:02 15.2 C 11.68 g/m*3 15.2 C 0 km/h
98 22-08-2008 19:28:02 15.2 C 11.81 g/m*3 15.2 C 0 km/h
99 22-08-2008 19:40:02 15.4 C 11.96 g/m*3 15.4 C 0 km/h
100 22-08-2008 19:52:02 15.4 C 12.09 g/m*3 15.4 C 0 km/h
Sensor: Nr:Datum:Temp:Abs-Feuchte:Windchill:Wind:
Aussen-T/F 101 22-08-2008 20:04:01 15.4 C 12.09 g/m*3 15.4 C 0 km/h
102 22-08-2008 20:16:02 15.3 C 12.01 g/m*3 15.3 C 0 km/h
103 22-08-2008 20:28:02 15.3 C 12.01 g/m*3 15.3 C 0 km/h
104 22-08-2008 20:40:01 15.4 C 12.22 g/m*3 15.4 C 0 km/h
105 22-08-2008 20:52:02 15.4 C 12.22 g/m*3 15.4 C 0 km/h
106 22-08-2008 21:04:01 15.4 C 12.22 g/m*3 15.4 C 0 km/h
107 22-08-2008 21:16:02 15.5 C 12.29 g/m*3 15.5 C 0 km/h
108 22-08-2008 21:28:02 15.3 C 12.14 g/m*3 15.3 C 0 km/h
109 22-08-2008 21:40:01 15.1 C 12 g/m*3 15.1 C 0 km/h
110 22-08-2008 21:52:03 14.9 C 11.98 g/m*3 14.9 C 0 km/h
111 22-08-2008 22:04:02 14.8 C 11.91 g/m*3 14.8 C 0 km/h
112 22-08-2008 22:16:03 14.8 C 11.91 g/m*3 14.8 C 0 km/h
113 22-08-2008 22:28:03 14.8 C 11.91 g/m*3 14.8 C 0 km/h
114 22-08-2008 22:40:02 15 C 12.05 g/m*3 15 C 0 km/h
115 22-08-2008 22:52:01 15 C 12.05 g/m*3 15 C 0 km/h
116 22-08-2008 23:05:02 14.7 C 11.83 g/m*3 14.7 C 0 km/h
117 22-08-2008 23:17:02 14.6 C 11.76 g/m*3 14.6 C 0 km/h
118 22-08-2008 23:29:02 14.7 C 11.83 g/m*3 14.7 C 0 km/h
119 22-08-2008 23:41:02 14.8 C 12.03 g/m*3 14.8 C 0 km/h
120 22-08-2008 23:53:02 14.6 C 11.76 g/m*3 14.6 C 0 km/h
121 23-08-2008 00:05:02 14.5 C 11.69 g/m*3 14.5 C 0 km/h
122 23-08-2008 00:17:02 14.3 C 11.55 g/m*3 14.3 C 0 km/h
123 23-08-2008 00:29:02 14.1 C 11.53 g/m*3 14.1 C 0 km/h
124 23-08-2008 00:41:02 14 C 11.34 g/m*3 14 C 0 km/h
125 23-08-2008 00:53:02 14 C 11.34 g/m*3 14 C 0 km/h
Sensor: Nr:Datum:Temp:Abs-Feuchte:Windchill:Wind:
Aussen-T/F 126 23-08-2008 01:05:02 14 C 11.34 g/m*3 14 C 0 km/h
127 23-08-2008 01:17:02 13.8 C 11.32 g/m*3 13.8 C 0 km/h
128 23-08-2008 01:29:02 13.8 C 11.32 g/m*3 13.8 C 0 km/h
129 23-08-2008 01:41:03 13.7 C 11.13 g/m*3 13.7 C 0 km/h
130 23-08-2008 01:53:03 13.8 C 11.2 g/m*3 13.8 C 0 km/h
131 23-08-2008 02:05:03 13.8 C 11.2 g/m*3 13.8 C 0 km/h
132 23-08-2008 02:17:03 13.7 C 11.13 g/m*3 13.7 C 0 km/h
133 23-08-2008 02:29:03 13.7 C 11.01 g/m*3 13.7 C 0 km/h
134 23-08-2008 02:41:03 13.7 C 11.01 g/m*3 13.7 C 0 km/h
135 23-08-2008 02:53:03 13.6 C 10.95 g/m*3 13.6 C 0 km/h
136 23-08-2008 03:05:03 13.6 C 10.95 g/m*3 13.6 C 0 km/h
137 23-08-2008 03:17:03 13.3 C 10.4 g/m*3 13.3 C 0 km/h
138 23-08-2008 03:29:03 13 C 9.75 g/m*3 13 C 0 km/h
139 23-08-2008 03:41:03 12.6 C 9.4 g/m*3 12.6 C 0 km/h
140 23-08-2008 03:53:03 12.2 C 9.28 g/m*3 12.2 C 0 km/h
141 23-08-2008 04:05:03 11.9 C 9.32 g/m*3 11.9 C 0 km/h
142 23-08-2008 04:17:03 11.7 C 9.31 g/m*3 11.7 C 0 km/h
143 23-08-2008 04:29:03 11.5 C 9.3 g/m*3 11.5 C 0 km/h
144 23-08-2008 04:41:03 11.4 C 9.34 g/m*3 11.4 C 0 km/h
145 23-08-2008 04:53:03 11.2 C 9.22 g/m*3 11.2 C 0 km/h
146 23-08-2008 05:05:03 11.1 C 9.17 g/m*3 11.1 C 0 km/h
147 23-08-2008 05:17:03 10.9 C 9.15 g/m*3 10.9 C 0 km/h
148 23-08-2008 05:29:04 10.8 C 9.09 g/m*3 10.8 C 0 km/h
149 23-08-2008 05:41:04 10.8 C 9.09 g/m*3 10.8 C 0 km/h
150 23-08-2008 05:53:04 11 C 9.21 g/m*3 11 C 0 km/h
Sensor: Nr:Datum:Temp:Abs-Feuchte:Windchill:Wind:
Aussen-T/F 151 23-08-2008 06:05:04 11.2 C 9.43 g/m*3 11.2 C 0 km/h
152 23-08-2008 06:17:04 11 C 9.21 g/m*3 11 C 0 km/h
153 23-08-2008 06:29:04 10.9 C 9.25 g/m*3 10.9 C 0 km/h
154 23-08-2008 06:41:04 10.8 C 9.19 g/m*3 10.8 C 0 km/h
155 23-08-2008 06:53:04 10.7 C 9.13 g/m*3 10.7 C 0 km/h
156 23-08-2008 07:05:04 10.7 C 9.13 g/m*3 10.7 C 0 km/h
157 23-08-2008 07:17:04 10.7 C 9.13 g/m*3 10.7 C 0 km/h
158 23-08-2008 07:29:04 10.8 C 9.19 g/m*3 10.8 C 0 km/h
159 23-08-2008 07:41:04 11.1 C 9.27 g/m*3 11.1 C 0 km/h
160 23-08-2008 07:53:01 11.6 C 9.56 g/m*3 11.6 C 0 km/h
161 23-08-2008 08:05:02 12 C 9.7 g/m*3 12 C 0 km/h
162 23-08-2008 08:17:02 12.1 C 9.65 g/m*3 12.1 C 0 km/h
163 23-08-2008 08:29:02 12.7 C 9.8 g/m*3 12.7 C 0 km/h
164 23-08-2008 08:41:01 12.5 C 9.24 g/m*3 12.5 C 0 km/h
165 23-08-2008 08:53:01 12.6 C 9.07 g/m*3 12.6 C 0 km/h
166 23-08-2008 09:05:02 12.8 C 8.96 g/m*3 12.8 C 0 km/h
167 23-08-2008 09:17:01 13.2 C 8.96 g/m*3 13.2 C 0 km/h
168 23-08-2008 09:29:01 13.3 C 8.78 g/m*3 13.3 C 0 km/h
169 23-08-2008 09:41:01 13.4 C 9.07 g/m*3 13.4 C 0 km/h
170 23-08-2008 09:53:02 14.5 C 9.58 g/m*3 14.5 C 0 km/h
171 23-08-2008 10:05:01 14.4 C 8.78 g/m*3 14.4 C 0 km/h
172 23-08-2008 10:17:02 14.8 C 8.99 g/m*3 14.8 C 0 km/h
173 23-08-2008 10:29:02 15.1 C 8.9 g/m*3 15.1 C 0 km/h
174 23-08-2008 10:41:01 15.7 C 8.7 g/m*3 15.7 C 0 km/h
175 23-08-2008 10:53:02 16 C 8.72 g/m*3 16 C 0 km/h
Sensor: Nr:Datum:Temp:Abs-Feuchte:Windchill:Wind:
Aussen-T/F 176 23-08-2008 11:05:02 16.3 C 8.6 g/m*3 16.3 C 0 km/h
177 23-08-2008 11:17:03 16.6 C 8.62 g/m*3 16.6 C 0 km/h
178 23-08-2008 11:29:03 17.1 C 8.44 g/m*3 17.1 C 0 km/h
179 23-08-2008 11:41:02 17.4 C 8.3 g/m*3 17.4 C 0 km/h
180 23-08-2008 11:53:01 17.7 C 8.3 g/m*3 17.7 C 0 km/h
181 23-08-2008 12:05:02 17.9 C 8.4 g/m*3 17.9 C 0 km/h
182 23-08-2008 12:17:01 18.5 C 7.59 g/m*3 18.5 C 0 km/h
183 23-08-2008 12:29:01 17.5 C 7.6 g/m*3 17.5 C 0 km/h
184 23-08-2008 12:41:02 17.5 C 7.6 g/m*3 17.5 C 0 km/h
185 23-08-2008 12:53:02 17.7 C 7.85 g/m*3 17.7 C 0 km/h
186 23-08-2008 13:05:02 18.2 C 7.62 g/m*3 18.2 C 0 km/h
187 23-08-2008 13:17:02 18 C 7.68 g/m*3 18 C 0 km/h
188 23-08-2008 13:29:02 17.5 C 7.6 g/m*3 17.5 C 0 km/h
189 23-08-2008 13:41:02 17.5 C 7.6 g/m*3 17.5 C 0 km/h
190 23-08-2008 13:53:02 18.4 C 7.24 g/m*3 18.4 C 0 km/h
191 23-08-2008 14:05:03 17.9 C 7.79 g/m*3 17.9 C 0 km/h
192 23-08-2008 14:17:02 17.7 C 6.49 g/m*3 17.7 C 0 km/h
193 23-08-2008 14:29:02 17.9 C 6.11 g/m*3 17.9 C 0 km/h
194 23-08-2008 14:41:03 17.7 C 5.88 g/m*3 17.7 C 0 km/h
195 23-08-2008 14:53:02 17.5 C 6.11 g/m*3 17.5 C 0 km/h
196 23-08-2008 15:05:02 17.2 C 6.15 g/m*3 17.2 C 0 km/h
197 23-08-2008 15:17:02 17.1 C 6.26 g/m*3 17.1 C 0 km/h
198 23-08-2008 15:29:02 17.1 C 6.4 g/m*3 17.1 C 0 km/h
199 23-08-2008 15:41:02 17 C 6.8 g/m*3 17 C 0 km/h
200 23-08-2008 15:53:01 17.3 C 6.78 g/m*3 17.3 C 0 km/h
Sensor: Nr:Datum:Temp:Abs-Feuchte:Windchill:Wind:
Aussen-T/F 201 23-08-2008 16:05:02 16.6 C 7.2 g/m*3 16.6 C 0 km/h
202 23-08-2008 16:17:02 17.4 C 7.41 g/m*3 17.4 C 0 km/h
203 23-08-2008 16:29:02 18.6 C 7.16 g/m*3 18.6 C 0 km/h
204 23-08-2008 16:41:02 18.1 C 7.26 g/m*3 18.1 C 0 km/h
205 23-08-2008 16:53:02 18.5 C 7.91 g/m*3 18.5 C 0 km/h
206 23-08-2008 17:05:02 19.7 C 7.64 g/m*3 19.7 C 0 km/h
207 23-08-2008 17:17:02 19.6 C 7.6 g/m*3 19.6 C 0 km/h
208 23-08-2008 17:29:02 19.7 C 7.64 g/m*3 19.7 C 0 km/h
209 23-08-2008 17:41:02 19.1 C 7.21 g/m*3 19.1 C 0 km/h
210 23-08-2008 17:53:02 19.5 C 7.55 g/m*3 19.5 C 0 km/h
211 23-08-2008 18:05:03 18.9 C 6.97 g/m*3 18.9 C 0 km/h
212 23-08-2008 18:17:02 18.8 C 7.09 g/m*3 18.8 C 0 km/h
213 23-08-2008 18:29:02 18.7 C 6.88 g/m*3 18.7 C 0 km/h
214 23-08-2008 18:41:03 18.6 C 6.84 g/m*3 18.6 C 0 km/h
215 23-08-2008 18:53:02 18.4 C 6.92 g/m*3 18.4 C 0 km/h
216 23-08-2008 19:05:02 18.2 C 7.15 g/m*3 18.2 C 0 km/h
217 23-08-2008 19:17:02 17 C 8.39 g/m*3 17 C 0 km/h
218 23-08-2008 19:29:03 16.8 C 9.29 g/m*3 16.8 C 0 km/h
219 23-08-2008 19:41:02 16 C 9.4 g/m*3 16 C 0 km/h
220 23-08-2008 19:53:02 15.9 C 9.89 g/m*3 15.9 C 0 km/h
221 23-08-2008 20:05:02 15.8 C 9.69 g/m*3 15.8 C 0 km/h
222 23-08-2008 20:17:02 16 C 8.58 g/m*3 16 C 0 km/h
223 23-08-2008 20:29:02 16.3 C 8.19 g/m*3 16.3 C 0 km/h
224 23-08-2008 20:41:02 15.8 C 8.48 g/m*3 15.8 C 0 km/h
225 23-08-2008 20:53:01 14.9 C 9.18 g/m*3 14.9 C 0 km/h
Sensor: Nr:Datum:Temp:Abs-Feuchte:Windchill:Wind:
Aussen-T/F 226 23-08-2008 21:05:02 14.5 C 9.58 g/m*3 14.5 C 0 km/h
227 23-08-2008 21:17:02 14.2 C 9.89 g/m*3 14.2 C 0 km/h
228 23-08-2008 21:29:02 14 C 10.01 g/m*3 14 C 0 km/h
229 23-08-2008 21:41:02 14.2 C 10.14 g/m*3 14.2 C 0 km/h
230 23-08-2008 21:53:02 14.1 C 9.95 g/m*3 14.1 C 0 km/h
231 23-08-2008 22:06:01 14.3 C 9.95 g/m*3 14.3 C 0 km/h
232 23-08-2008 22:18:01 14.4 C 9.77 g/m*3 14.4 C 0 km/h
233 23-08-2008 22:30:01 14.6 C 9.76 g/m*3 14.6 C 0 km/h
234 23-08-2008 22:42:01 14.4 C 9.52 g/m*3 14.4 C 0 km/h
235 23-08-2008 22:54:01 14.1 C 9.47 g/m*3 14.1 C 0 km/h
236 23-08-2008 23:06:01 14 C 9.41 g/m*3 14 C 0 km/h
237 23-08-2008 23:18:01 13.9 C 9.47 g/m*3 13.9 C 0 km/h
238 23-08-2008 23:30:01 13.9 C 9.35 g/m*3 13.9 C 0 km/h
239 23-08-2008 23:42:01 14.1 C 9.1 g/m*3 14.1 C 0 km/h
240 23-08-2008 23:54:02 14.2 C 9.16 g/m*3 14.2 C 0 km/h
241 24-08-2008 00:06:02 13.9 C 9.11 g/m*3 13.9 C 0 km/h
242 24-08-2008 00:18:02 13.8 C 9.17 g/m*3 13.8 C 0 km/h
243 24-08-2008 00:30:02 13.6 C 9.06 g/m*3 13.6 C 0 km/h
244 24-08-2008 00:42:02 13.6 C 9.06 g/m*3 13.6 C 0 km/h
245 24-08-2008 00:54:02 13.5 C 9.01 g/m*3 13.5 C 0 km/h
246 24-08-2008 01:06:02 13.5 C 9.01 g/m*3 13.5 C 0 km/h
247 24-08-2008 01:18:02 13.4 C 8.95 g/m*3 13.4 C 0 km/h
248 24-08-2008 01:30:02 13.5 C 8.89 g/m*3 13.5 C 0 km/h
249 24-08-2008 01:42:02 13.2 C 8.84 g/m*3 13.2 C 0 km/h
250 24-08-2008 01:54:02 12.9 C 8.9 g/m*3 12.9 C 0 km/h
Sensor: Nr:Datum:Temp:Abs-Feuchte:Windchill:Wind:
Aussen-T/F 251 24-08-2008 02:06:02 13 C 8.96 g/m*3 13 C 0 km/h
252 24-08-2008 02:18:02 13.1 C 8.9 g/m*3 13.1 C 0 km/h
253 24-08-2008 02:30:02 12.8 C 8.85 g/m*3 12.8 C 0 km/h
254 24-08-2008 02:42:02 12.6 C 8.96 g/m*3 12.6 C 0 km/h
255 24-08-2008 02:54:02 12.5 C 8.91 g/m*3 12.5 C 0 km/h
256 24-08-2008 03:06:02 12.3 C 8.9 g/m*3 12.3 C 0 km/h
257 24-08-2008 03:18:02 12.4 C 8.96 g/m*3 12.4 C 0 km/h
258 24-08-2008 03:30:02 12.5 C 8.91 g/m*3 12.5 C 0 km/h
259 24-08-2008 03:42:03 12.4 C 8.85 g/m*3 12.4 C 0 km/h
260 24-08-2008 03:54:03 12.1 C 8.9 g/m*3 12.1 C 0 km/h
261 24-08-2008 04:06:03 12.1 C 8.79 g/m*3 12.1 C 0 km/h
262 24-08-2008 04:18:03 12 C 8.85 g/m*3 12 C 0 km/h
263 24-08-2008 04:30:03 12 C 8.85 g/m*3 12 C 0 km/h
264 24-08-2008 04:42:03 11.8 C 8.84 g/m*3 11.8 C 0 km/h
265 24-08-2008 04:54:03 11.7 C 8.79 g/m*3 11.7 C 0 km/h
266 24-08-2008 05:06:03 11.4 C 8.72 g/m*3 11.4 C 0 km/h
267 24-08-2008 05:18:03 11.2 C 8.72 g/m*3 11.2 C 0 km/h
268 24-08-2008 05:30:03 11.2 C 8.82 g/m*3 11.2 C 0 km/h
269 24-08-2008 05:42:03 11.1 C 8.76 g/m*3 11.1 C 0 km/h
270 24-08-2008 05:54:03 11.2 C 8.82 g/m*3 11.2 C 0 km/h
271 24-08-2008 06:06:03 11.2 C 8.82 g/m*3 11.2 C 0 km/h
272 24-08-2008 06:18:03 11.5 C 8.99 g/m*3 11.5 C 0 km/h
273 24-08-2008 06:30:03 11.7 C 8.99 g/m*3 11.7 C 0 km/h
274 24-08-2008 06:42:03 11.8 C 8.95 g/m*3 11.8 C 0 km/h
275 24-08-2008 06:54:03 11.7 C 8.89 g/m*3 11.7 C 0 km/h
Sensor: Nr:Datum:Temp:Abs-Feuchte:Windchill:Wind:
Aussen-T/F 276 24-08-2008 07:06:03 11.8 C 8.95 g/m*3 11.8 C 0 km/h
277 24-08-2008 07:18:03 11.8 C 8.95 g/m*3 11.8 C 0 km/h
278 24-08-2008 07:30:03 11.6 C 8.83 g/m*3 11.6 C 0 km/h
279 24-08-2008 07:42:04 11.6 C 8.83 g/m*3 11.6 C 0 km/h
280 24-08-2008 07:54:04 11.7 C 8.89 g/m*3 11.7 C 0 km/h
281 24-08-2008 08:06:04 11.6 C 8.94 g/m*3 11.6 C 0 km/h
282 24-08-2008 08:18:04 11.8 C 9.05 g/m*3 11.8 C 0 km/h
283 24-08-2008 08:30:04 11.9 C 9 g/m*3 11.9 C 0 km/h
284 24-08-2008 08:42:04 12.1 C 9.01 g/m*3 12.1 C 0 km/h
285 24-08-2008 08:54:04 12.3 C 9.12 g/m*3 12.3 C 0 km/h
286 24-08-2008 09:06:02 12.5 C 9.24 g/m*3 12.5 C 0 km/h
287 24-08-2008 09:18:02 12.8 C 9.3 g/m*3 12.8 C 0 km/h
288 24-08-2008 09:30:02 13.5 C 9.36 g/m*3 13.5 C 0 km/h
289 24-08-2008 09:42:02 14 C 9.17 g/m*3 14 C 0 km/h
290 24-08-2008 09:54:02 14.2 C 9.28 g/m*3 14.2 C 0 km/h
291 24-08-2008 10:06:02 15.2 C 9.48 g/m*3 15.2 C 0 km/h
292 24-08-2008 10:18:02 15.5 C 9.25 g/m*3 15.5 C 0 km/h
293 24-08-2008 10:30:03 15.8 C 9.29 g/m*3 15.8 C 0 km/h
294 24-08-2008 10:42:02 16.2 C 8.96 g/m*3 16.2 C 0 km/h
295 24-08-2008 10:54:02 16.4 C 8.93 g/m*3 16.4 C 0 km/h
296 24-08-2008 11:06:02 16.6 C 8.9 g/m*3 16.6 C 0 km/h
297 24-08-2008 11:18:02 17 C 8.68 g/m*3 17 C 0 km/h
298 24-08-2008 11:30:02 17.4 C 8.6 g/m*3 17.4 C 0 km/h
299 24-08-2008 11:42:02 18.4 C 8.34 g/m*3 18.4 C 0 km/h
300 24-08-2008 11:54:02 19.1 C 7.7 g/m*3 19.1 C 0 km/h
Sensor: Nr:Datum:Temp:Abs-Feuchte:Windchill:Wind:
Aussen-T/F 301 24-08-2008 12:06:02 19.1 C 7.38 g/m*3 19.1 C 0 km/h
302 24-08-2008 12:18:02 19.2 C 7.59 g/m*3 19.2 C 0 km/h
303 24-08-2008 12:30:02 19.7 C 7.47 g/m*3 19.7 C 0 km/h
304 24-08-2008 12:42:02 19.5 C 6.88 g/m*3 19.5 C 0 km/h
305 24-08-2008 12:54:02 19.6 C 6.92 g/m*3 19.6 C 0 km/h
306 24-08-2008 13:06:02 19.6 C 6.75 g/m*3 19.6 C 0 km/h
307 24-08-2008 13:18:01 20.5 C 6.94 g/m*3 20.5 C 0 km/h
308 24-08-2008 13:30:01 21.1 C 6.82 g/m*3 21.1 C 0 km/h
309 24-08-2008 13:42:02 21.6 C 6.45 g/m*3 21.6 C 0 km/h
310 24-08-2008 13:54:02 21.9 C 6.56 g/m*3 21.9 C 0 km/h
311 24-08-2008 14:06:03 21.3 C 6.34 g/m*3 21.3 C 0 km/h
312 24-08-2008 14:18:02 21.5 C 6.22 g/m*3 21.5 C 0 km/h
313 24-08-2008 14:30:02 21.6 C 6.07 g/m*3 21.6 C 0 km/h
314 24-08-2008 14:42:03 22.5 C 5.99 g/m*3 22.5 C 0 km/h
315 24-08-2008 14:54:02 22 C 6.02 g/m*3 22 C 0 km/h
316 24-08-2008 15:06:01 22.1 C 6.05 g/m*3 22.1 C 0 km/h
317 24-08-2008 15:18:02 22.9 C 6.34 g/m*3 22.9 C 0 km/h
318 24-08-2008 15:30:03 22.9 C 6.13 g/m*3 22.9 C 0 km/h
319 24-08-2008 15:42:01 22.7 C 6.26 g/m*3 22.7 C 0 km/h
320 24-08-2008 15:54:02 22.4 C 5.96 g/m*3 22.4 C 0 km/h
321 24-08-2008 16:06:02 22.7 C 6.06 g/m*3 22.7 C 0 km/h
322 24-08-2008 16:18:02 22.7 C 6.26 g/m*3 22.7 C 0 km/h
323 24-08-2008 16:30:02 22.6 C 6.23 g/m*3 22.6 C 0 km/h
324 24-08-2008 16:42:02 22.4 C 6.16 g/m*3 22.4 C 0 km/h
325 24-08-2008 16:54:01 22.7 C 6.06 g/m*3 22.7 C 0 km/h
Sensor: Nr:Datum:Temp:Abs-Feuchte:Windchill:Wind:
Aussen-T/F 326 24-08-2008 17:06:02 22.5 C 5.99 g/m*3 22.5 C 0 km/h
327 24-08-2008 17:18:02 22.4 C 6.36 g/m*3 22.4 C 0 km/h
328 24-08-2008 17:30:02 23.5 C 5.71 g/m*3 23.5 C 0 km/h
329 24-08-2008 17:42:02 23.4 C 5.89 g/m*3 23.4 C 0 km/h
330 24-08-2008 17:54:01 22.1 C 6.25 g/m*3 22.1 C 0 km/h
331 24-08-2008 18:06:01 21.8 C 6.91 g/m*3 21.8 C 0 km/h
332 24-08-2008 18:18:02 21.9 C 6.95 g/m*3 21.9 C 0 km/h
333 24-08-2008 18:30:03 21.6 C 7.59 g/m*3 21.6 C 0 km/h
334 24-08-2008 18:42:01 21.2 C 7.41 g/m*3 21.2 C 0 km/h
335 24-08-2008 18:54:03 21.1 C 7 g/m*3 21.1 C 0 km/h
336 24-08-2008 19:06:02 21 C 7.33 g/m*3 21 C 0 km/h
337 24-08-2008 19:18:03 20.7 C 7.56 g/m*3 20.7 C 0 km/h
338 24-08-2008 19:30:03 20.3 C 7.74 g/m*3 20.3 C 0 km/h
339 24-08-2008 19:42:02 19.9 C 7.73 g/m*3 19.9 C 0 km/h
340 24-08-2008 19:54:01 19.5 C 7.89 g/m*3 19.5 C 0 km/h
341 24-08-2008 20:06:01 19 C 7.66 g/m*3 19 C 0 km/h
342 24-08-2008 20:18:01 18.8 C 7.89 g/m*3 18.8 C 0 km/h
343 24-08-2008 20:30:01 18.6 C 8.12 g/m*3 18.6 C 0 km/h
344 24-08-2008 20:42:01 18.3 C 8.13 g/m*3 18.3 C 0 km/h
345 24-08-2008 20:54:01 18.2 C 8.24 g/m*3 18.2 C 0 km/h
346 24-08-2008 21:06:02 17.9 C 8.24 g/m*3 17.9 C 0 km/h
347 24-08-2008 21:18:01 17.9 C 8.24 g/m*3 17.9 C 0 km/h
348 24-08-2008 21:30:01 17.9 C 8.4 g/m*3 17.9 C 0 km/h
349 24-08-2008 21:42:02 17.9 C 8.09 g/m*3 17.9 C 0 km/h
350 24-08-2008 21:55:03 17.9 C 8.24 g/m*3 17.9 C 0 km/h
Sensor: Nr:Datum:Temp:Abs-Feuchte:Windchill:Wind:
Aussen-T/F 351 24-08-2008 22:07:03 17.9 C 8.09 g/m*3 17.9 C 0 km/h
352 24-08-2008 22:19:03 17.8 C 8.2 g/m*3 17.8 C 0 km/h
353 24-08-2008 22:31:03 17.3 C 8.54 g/m*3 17.3 C 0 km/h
354 24-08-2008 22:43:03 16.4 C 9.07 g/m*3 16.4 C 0 km/h
355 24-08-2008 22:55:03 16.2 C 9.38 g/m*3 16.2 C 0 km/h
356 24-08-2008 23:07:03 15.9 C 9.89 g/m*3 15.9 C 0 km/h
357 24-08-2008 23:19:03 15.6 C 10.24 g/m*3 15.6 C 0 km/h
358 24-08-2008 23:31:03 15.4 C 10.38 g/m*3 15.4 C 0 km/h
359 24-08-2008 23:43:03 15 C 10.51 g/m*3 15 C 0 km/h
360 24-08-2008 23:55:03 14.6 C 10.64 g/m*3 14.6 C 0 km/h
361 25-08-2008 00:07:03 14.5 C 10.7 g/m*3 14.5 C 0 km/h
362 25-08-2008 00:19:03 14.4 C 10.88 g/m*3 14.4 C 0 km/h
363 25-08-2008 00:31:03 14.5 C 11.07 g/m*3 14.5 C 0 km/h
364 25-08-2008 00:43:03 14.5 C 11.07 g/m*3 14.5 C 0 km/h
365 25-08-2008 00:55:03 14.4 C 11.13 g/m*3 14.4 C 0 km/h
366 25-08-2008 01:07:03 14.5 C 11.19 g/m*3 14.5 C 0 km/h
367 25-08-2008 01:19:03 14.4 C 11.13 g/m*3 14.4 C 0 km/h
368 25-08-2008 01:31:04 14.4 C 11.13 g/m*3 14.4 C 0 km/h
369 25-08-2008 01:43:04 14.4 C 11.13 g/m*3 14.4 C 0 km/h
370 25-08-2008 01:55:04 14.5 C 11.19 g/m*3 14.5 C 0 km/h
371 25-08-2008 02:07:04 14.7 C 11.46 g/m*3 14.7 C 0 km/h
372 25-08-2008 02:19:04 14.7 C 11.33 g/m*3 14.7 C 0 km/h
373 25-08-2008 02:31:04 14.6 C 11.26 g/m*3 14.6 C 0 km/h
374 25-08-2008 02:43:04 14.7 C 11.33 g/m*3 14.7 C 0 km/h
375 25-08-2008 02:55:04 14.6 C 11.26 g/m*3 14.6 C 0 km/h
Sensor: Nr:Datum:Temp:Abs-Feuchte:Windchill:Wind:
Aussen-T/F 376 25-08-2008 03:07:04 14.5 C 11.19 g/m*3 14.5 C 0 km/h
377 25-08-2008 03:19:04 14.5 C 11.07 g/m*3 14.5 C 0 km/h
378 25-08-2008 03:31:04 14.4 C 11 g/m*3 14.4 C 0 km/h
379 25-08-2008 03:43:04 14.4 C 11 g/m*3 14.4 C 0 km/h
380 25-08-2008 03:55:04 14.4 C 11.13 g/m*3 14.4 C 0 km/h
381 25-08-2008 04:07:04 14.4 C 11.13 g/m*3 14.4 C 0 km/h
382 25-08-2008 04:19:04 14.3 C 10.93 g/m*3 14.3 C 0 km/h
383 25-08-2008 04:31:04 14.3 C 11.06 g/m*3 14.3 C 0 km/h
384 25-08-2008 04:43:04 14.3 C 11.06 g/m*3 14.3 C 0 km/h
385 25-08-2008 04:55:04 14.2 C 10.99 g/m*3 14.2 C 0 km/h
386 25-08-2008 05:07:04 14.2 C 10.99 g/m*3 14.2 C 0 km/h
387 25-08-2008 05:19:04 14.2 C 11.11 g/m*3 14.2 C 0 km/h
388 25-08-2008 05:31:05 14.2 C 11.11 g/m*3 14.2 C 0 km/h
389 25-08-2008 05:43:05 14.3 C 11.18 g/m*3 14.3 C 0 km/h
390 25-08-2008 05:55:05 14.2 C 11.11 g/m*3 14.2 C 0 km/h
391 25-08-2008 06:07:05 14.3 C 11.06 g/m*3 14.3 C 0 km/h
392 25-08-2008 06:19:05 14.4 C 11 g/m*3 14.4 C 0 km/h
393 25-08-2008 06:31:05 14.5 C 10.94 g/m*3 14.5 C 0 km/h
394 25-08-2008 06:43:05 14.6 C 10.89 g/m*3 14.6 C 0 km/h
395 25-08-2008 06:55:05 14.6 C 10.89 g/m*3 14.6 C 0 km/h
396 25-08-2008 07:07:05 14.7 C 10.95 g/m*3 14.7 C 0 km/h
397 25-08-2008 07:19:05 14.8 C 11.02 g/m*3 14.8 C 0 km/h
398 25-08-2008 07:31:03 14.7 C 11.08 g/m*3 14.7 C 0 km/h
399 25-08-2008 07:43:03 14.7 C 11.08 g/m*3 14.7 C 0 km/h
400 25-08-2008 07:55:02 14.7 C 11.08 g/m*3 14.7 C 0 km/h
Sensor: Nr:Datum:Temp:Abs-Feuchte:Windchill:Wind:
Aussen-T/F 401 25-08-2008 08:07:01 14.8 C 11.15 g/m*3 14.8 C 0 km/h
402 25-08-2008 08:19:01 14.8 C 11.15 g/m*3 14.8 C 0 km/h
403 25-08-2008 08:31:02 14.9 C 11.09 g/m*3 14.9 C 0 km/h
404 25-08-2008 08:43:02 15.1 C 11.22 g/m*3 15.1 C 0 km/h
405 25-08-2008 08:55:02 15.2 C 11.29 g/m*3 15.2 C 0 km/h
406 25-08-2008 09:07:02 15.5 C 11.5 g/m*3 15.5 C 0 km/h
407 25-08-2008 09:19:03 15.6 C 11.44 g/m*3 15.6 C 0 km/h
408 25-08-2008 09:31:02 15.6 C 11.57 g/m*3 15.6 C 0 km/h
409 25-08-2008 09:43:02 15.9 C 11.78 g/m*3 15.9 C 0 km/h
410 25-08-2008 09:55:02 16 C 11.58 g/m*3 16 C 0 km/h
411 25-08-2008 10:07:01 16.5 C 11.8 g/m*3 16.5 C 0 km/h
412 25-08-2008 10:19:02 16.8 C 11.87 g/m*3 16.8 C 0 km/h
413 25-08-2008 10:31:01 17 C 11.87 g/m*3 17 C 0 km/h
414 25-08-2008 10:43:01 17 C 11.58 g/m*3 17 C 0 km/h
415 25-08-2008 10:55:02 17.1 C 11.35 g/m*3 17.1 C 0 km/h
416 25-08-2008 11:07:01 17.2 C 11.42 g/m*3 17.2 C 0 km/h
417 25-08-2008 11:19:02 17.5 C 11.48 g/m*3 17.5 C 0 km/h
418 25-08-2008 11:31:01 17.7 C 11.47 g/m*3 17.7 C 0 km/h
419 25-08-2008 11:43:01 17.9 C 11.45 g/m*3 17.9 C 0 km/h
420 25-08-2008 11:55:02 18.7 C 11.37 g/m*3 18.7 C 0 km/h
421 25-08-2008 12:07:02 18.9 C 11.18 g/m*3 18.9 C 0 km/h
422 25-08-2008 12:19:02 19.5 C 10.74 g/m*3 19.5 C 0 km/h
423 25-08-2008 12:31:02 19.6 C 10.8 g/m*3 19.6 C 0 km/h
424 25-08-2008 12:43:02 20 C 10.71 g/m*3 20 C 0 km/h
425 25-08-2008 12:55:02 20.5 C 10.5 g/m*3 20.5 C 0 km/h
Sensor: Nr:Datum:Temp:Abs-Feuchte:Windchill:Wind:
Aussen-T/F 426 25-08-2008 13:07:03 20 C 10.37 g/m*3 20 C 0 km/h
427 25-08-2008 13:19:02 19.4 C 10.34 g/m*3 19.4 C 0 km/h
428 25-08-2008 13:31:03 20 C 10.54 g/m*3 20 C 0 km/h
429 25-08-2008 13:43:03 20.5 C 10.32 g/m*3 20.5 C 0 km/h
430 25-08-2008 13:55:02 19.7 C 10.36 g/m*3 19.7 C 0 km/h
431 25-08-2008 14:07:01 20 C 10.37 g/m*3 20 C 0 km/h
432 25-08-2008 14:19:02 20.5 C 10.32 g/m*3 20.5 C 0 km/h
433 25-08-2008 14:31:01 20.8 C 10.32 g/m*3 20.8 C 0 km/h
434 25-08-2008 14:43:01 20.9 C 10.2 g/m*3 20.9 C 0 km/h
435 25-08-2008 14:55:02 21.2 C 10.01 g/m*3 21.2 C 0 km/h
436 25-08-2008 15:07:01 20.4 C 10.26 g/m*3 20.4 C 0 km/h
437 25-08-2008 15:19:02 20.7 C 10.62 g/m*3 20.7 C 0 km/h
438 25-08-2008 15:31:01 21.4 C 10.31 g/m*3 21.4 C 0 km/h
439 25-08-2008 15:43:01 21.4 C 10.31 g/m*3 21.4 C 0 km/h
440 25-08-2008 15:55:02 22.2 C 9.82 g/m*3 22.2 C 0 km/h
441 25-08-2008 16:07:01 22.4 C 9.93 g/m*3 22.4 C 0 km/h
442 25-08-2008 16:19:02 22.4 C 10.13 g/m*3 22.4 C 0 km/h
443 25-08-2008 16:31:01 22.5 C 9.79 g/m*3 22.5 C 0 km/h
444 25-08-2008 16:43:01 22.4 C 10.13 g/m*3 22.4 C 0 km/h
445 25-08-2008 16:55:01 23.5 C 9.73 g/m*3 23.5 C 0 km/h
446 25-08-2008 17:07:02 23.8 C 9.9 g/m*3 23.8 C 0 km/h
447 25-08-2008 17:19:01 23.9 C 9.74 g/m*3 23.9 C 0 km/h
448 25-08-2008 17:31:02 23.8 C 9.68 g/m*3 23.8 C 0 km/h
449 25-08-2008 17:43:02 22.6 C 9.84 g/m*3 22.6 C 0 km/h
450 25-08-2008 17:55:02 21.9 C 10.03 g/m*3 21.9 C 0 km/h
Sensor: Nr:Datum:Temp:Abs-Feuchte:Windchill:Wind:
Aussen-T/F 451 25-08-2008 18:07:02 21.9 C 10.23 g/m*3 21.9 C 0 km/h
452 25-08-2008 18:19:02 21.4 C 10.12 g/m*3 21.4 C 0 km/h
453 25-08-2008 18:31:02 21 C 10.08 g/m*3 21 C 0 km/h
454 25-08-2008 18:43:02 21 C 10.62 g/m*3 21 C 0 km/h
455 25-08-2008 18:55:02 20.9 C 10.75 g/m*3 20.9 C 0 km/h
456 25-08-2008 19:07:03 20.9 C 10.75 g/m*3 20.9 C 0 km/h
457 25-08-2008 19:19:02 20.5 C 10.85 g/m*3 20.5 C 0 km/h
458 25-08-2008 19:31:03 20.3 C 10.9 g/m*3 20.3 C 0 km/h
459 25-08-2008 19:43:03 21 C 10.62 g/m*3 21 C 0 km/h
460 25-08-2008 19:55:02 20.9 C 9.29 g/m*3 20.9 C 0 km/h
461 25-08-2008 20:07:02 20 C 9.33 g/m*3 20 C 0 km/h
462 25-08-2008 20:19:02 19.3 C 9.79 g/m*3 19.3 C 0 km/h
463 25-08-2008 20:31:01 18.8 C 9.82 g/m*3 18.8 C 0 km/h
464 25-08-2008 20:43:01 18.3 C 9.85 g/m*3 18.3 C 0 km/h
465 25-08-2008 20:55:02 17.9 C 9.92 g/m*3 17.9 C 0 km/h
466 25-08-2008 21:07:02 17.6 C 10.05 g/m*3 17.6 C 0 km/h
467 25-08-2008 21:19:02 17.4 C 9.93 g/m*3 17.4 C 0 km/h
468 25-08-2008 21:31:01 17.2 C 9.96 g/m*3 17.2 C 0 km/h
469 25-08-2008 21:43:01 17 C 9.98 g/m*3 17 C 0 km/h
470 25-08-2008 21:56:02 17 C 9.98 g/m*3 17 C 0 km/h
471 25-08-2008 22:08:02 16.8 C 10.01 g/m*3 16.8 C 0 km/h
472 25-08-2008 22:20:02 16.6 C 9.89 g/m*3 16.6 C 0 km/h
473 25-08-2008 22:32:02 16.6 C 9.75 g/m*3 16.6 C 0 km/h
474 25-08-2008 22:44:02 16.3 C 9.71 g/m*3 16.3 C 0 km/h
475 25-08-2008 22:56:02 16.1 C 9.73 g/m*3 16.1 C 0 km/h
Sensor: Nr:Datum:Temp:Abs-Feuchte:Windchill:Wind:
Aussen-T/F 476 25-08-2008 23:08:02 15.8 C 9.83 g/m*3 15.8 C 0 km/h
477 25-08-2008 23:20:02 15.7 C 9.9 g/m*3 15.7 C 0 km/h
478 25-08-2008 23:32:02 15.5 C 9.91 g/m*3 15.5 C 0 km/h
479 25-08-2008 23:44:02 15.3 C 9.92 g/m*3 15.3 C 0 km/h
480 25-08-2008 23:56:02 15.1 C 10.06 g/m*3 15.1 C 0 km/h
481 26-08-2008 00:08:02 14.9 C 10.2 g/m*3 14.9 C 0 km/h
482 26-08-2008 00:20:02 14.7 C 10.2 g/m*3 14.7 C 0 km/h
483 26-08-2008 00:32:03 14.5 C 10.07 g/m*3 14.5 C 0 km/h
484 26-08-2008 00:44:03 14.4 C 10.14 g/m*3 14.4 C 0 km/h
485 26-08-2008 00:56:03 14.3 C 10.07 g/m*3 14.3 C 0 km/h
486 26-08-2008 01:08:03 14.2 C 10.01 g/m*3 14.2 C 0 km/h
487 26-08-2008 01:20:03 14.1 C 9.95 g/m*3 14.1 C 0 km/h
488 26-08-2008 01:32:03 13.9 C 9.95 g/m*3 13.9 C 0 km/h
489 26-08-2008 01:44:03 13.8 C 9.89 g/m*3 13.8 C 0 km/h
490 26-08-2008 01:56:03 13.7 C 9.83 g/m*3 13.7 C 0 km/h
491 26-08-2008 02:08:03 13.6 C 9.77 g/m*3 13.6 C 0 km/h
492 26-08-2008 02:20:03 13.8 C 10.01 g/m*3 13.8 C 0 km/h
493 26-08-2008 02:32:03 13.9 C 10.07 g/m*3 13.9 C 0 km/h
494 26-08-2008 02:44:03 14.1 C 10.07 g/m*3 14.1 C 0 km/h
495 26-08-2008 02:56:03 14.2 C 10.01 g/m*3 14.2 C 0 km/h
496 26-08-2008 03:08:03 14.2 C 10.01 g/m*3 14.2 C 0 km/h
497 26-08-2008 03:20:03 14.2 C 10.01 g/m*3 14.2 C 0 km/h
498 26-08-2008 03:32:03 14 C 9.77 g/m*3 14 C 0 km/h
499 26-08-2008 03:44:03 14 C 9.77 g/m*3 14 C 0 km/h
500 26-08-2008 03:56:03 14 C 9.77 g/m*3 14 C 0 km/h
Sensor: Nr:Datum:Temp:Abs-Feuchte:Windchill:Wind:
Aussen-T/F 501 26-08-2008 04:08:03 14.1 C 9.95 g/m*3 14.1 C 0 km/h
502 26-08-2008 04:20:03 14.1 C 9.83 g/m*3 14.1 C 0 km/h
503 26-08-2008 04:32:04 14.1 C 9.95 g/m*3 14.1 C 0 km/h
504 26-08-2008 04:44:04 14.3 C 10.07 g/m*3 14.3 C 0 km/h
505 26-08-2008 04:56:04 14.4 C 10.01 g/m*3 14.4 C 0 km/h
506 26-08-2008 05:08:04 14.5 C 10.07 g/m*3 14.5 C 0 km/h
507 26-08-2008 05:20:04 14.6 C 10.14 g/m*3 14.6 C 0 km/h
508 26-08-2008 05:32:04 14.6 C 10.01 g/m*3 14.6 C 0 km/h
509 26-08-2008 05:44:04 14.6 C 10.14 g/m*3 14.6 C 0 km/h
510 26-08-2008 05:56:04 14.7 C 9.95 g/m*3 14.7 C 0 km/h
511 26-08-2008 06:08:04 14.7 C 9.95 g/m*3 14.7 C 0 km/h
512 26-08-2008 06:20:04 14.7 C 9.82 g/m*3 14.7 C 0 km/h
513 26-08-2008 06:32:04 15 C 9.87 g/m*3 15 C 0 km/h
514 26-08-2008 06:44:04 14.7 C 9.82 g/m*3 14.7 C 0 km/h
515 26-08-2008 06:56:02 14.8 C 9.75 g/m*3 14.8 C 0 km/h
516 26-08-2008 07:08:02 14.9 C 9.81 g/m*3 14.9 C 0 km/h
517 26-08-2008 07:20:02 15 C 9.62 g/m*3 15 C 0 km/h
518 26-08-2008 07:32:02 15.2 C 9.73 g/m*3 15.2 C 0 km/h
519 26-08-2008 07:44:02 15.3 C 9.79 g/m*3 15.3 C 0 km/h
520 26-08-2008 07:56:01 15.4 C 9.72 g/m*3 15.4 C 0 km/h
521 26-08-2008 08:08:02 15.6 C 9.84 g/m*3 15.6 C 0 km/h
522 26-08-2008 08:20:01 15.6 C 9.71 g/m*3 15.6 C 0 km/h
523 26-08-2008 08:32:02 15.8 C 9.83 g/m*3 15.8 C 0 km/h
524 26-08-2008 08:44:02 15.9 C 9.75 g/m*3 15.9 C 0 km/h
525 26-08-2008 08:56:02 16.2 C 9.79 g/m*3 16.2 C 0 km/h
Sensor: Nr:Datum:Temp:Abs-Feuchte:Windchill:Wind:
Aussen-T/F 526 26-08-2008 09:08:02 16.4 C 9.77 g/m*3 16.4 C 0 km/h
527 26-08-2008 09:20:02 16.7 C 9.66 g/m*3 16.7 C 0 km/h
528 26-08-2008 09:32:01 16.8 C 9.72 g/m*3 16.8 C 0 km/h
529 26-08-2008 09:44:01 17 C 9.55 g/m*3 17 C 0 km/h
530 26-08-2008 09:56:01 17.2 C 9.52 g/m*3 17.2 C 0 km/h
531 26-08-2008 10:08:02 17.5 C 9.54 g/m*3 17.5 C 0 km/h
532 26-08-2008 10:20:02 17.7 C 9.66 g/m*3 17.7 C 0 km/h
533 26-08-2008 10:32:02 18.2 C 9.48 g/m*3 18.2 C 0 km/h
534 26-08-2008 10:44:02 18.6 C 9.39 g/m*3 18.6 C 0 km/h
535 26-08-2008 10:56:01 19.1 C 9.51 g/m*3 19.1 C 0 km/h
536 26-08-2008 11:08:02 19.7 C 9.51 g/m*3 19.7 C 0 km/h
537 26-08-2008 11:20:01 20.1 C 9.21 g/m*3 20.1 C 0 km/h
538 26-08-2008 11:32:02 20.6 C 9.31 g/m*3 20.6 C 0 km/h
539 26-08-2008 11:44:02 21 C 8.98 g/m*3 21 C 0 km/h
540 26-08-2008 11:56:02 21.4 C 9.19 g/m*3 21.4 C 0 km/h
541 26-08-2008 12:08:02 22.2 C 9.03 g/m*3 22.2 C 0 km/h
542 26-08-2008 12:20:02 22.5 C 8.79 g/m*3 22.5 C 0 km/h
543 26-08-2008 12:32:02 22.9 C 8.79 g/m*3 22.9 C 0 km/h
544 26-08-2008 12:44:02 22.9 C 8.79 g/m*3 22.9 C 0 km/h
545 26-08-2008 12:56:02 22.9 C 8.99 g/m*3 22.9 C 0 km/h
546 26-08-2008 13:08:02 22.7 C 9.09 g/m*3 22.7 C 0 km/h
547 26-08-2008 13:20:01 23.1 C 9.3 g/m*3 23.1 C 0 km/h
548 26-08-2008 13:32:02 23.6 C 9.15 g/m*3 23.6 C 0 km/h
549 26-08-2008 13:44:02 24.3 C 8.85 g/m*3 24.3 C 0 km/h
550 26-08-2008 13:56:02 23.9 C 9.09 g/m*3 23.9 C 0 km/h
Sensor: Nr:Datum:Temp:Abs-Feuchte:Windchill:Wind:
Aussen-T/F 551 26-08-2008 14:08:02 23.4 C 8.83 g/m*3 23.4 C 0 km/h
552 26-08-2008 14:20:02 23.8 C 8.82 g/m*3 23.8 C 0 km/h
553 26-08-2008 14:32:02 23.6 C 8.93 g/m*3 23.6 C 0 km/h
554 26-08-2008 14:44:02 23.6 C 9.15 g/m*3 23.6 C 0 km/h
555 26-08-2008 14:56:02 24.5 C 8.95 g/m*3 24.5 C 0 km/h
556 26-08-2008 15:08:02 24.8 C 8.88 g/m*3 24.8 C 0 km/h
557 26-08-2008 15:20:02 24.6 C 8.78 g/m*3 24.6 C 0 km/h
558 26-08-2008 15:32:02 24.9 C 8.93 g/m*3 24.9 C 0 km/h
559 26-08-2008 15:44:02 24.6 C 8.78 g/m*3 24.6 C 0 km/h
560 26-08-2008 15:56:02 25.2 C 8.61 g/m*3 25.2 C 0 km/h
561 26-08-2008 16:08:02 25.4 C 8.71 g/m*3 25.4 C 0 km/h
562 26-08-2008 16:20:02 25.9 C 8.72 g/m*3 25.9 C 0 km/h
563 26-08-2008 16:32:02 25.7 C 8.62 g/m*3 25.7 C 0 km/h
564 26-08-2008 16:44:02 26 C 8.76 g/m*3 26 C 0 km/h
565 26-08-2008 16:56:02 25.9 C 8.72 g/m*3 25.9 C 0 km/h
566 26-08-2008 17:08:02 26 C 8.28 g/m*3 26 C 0 km/h
567 26-08-2008 17:20:01 26.3 C 8.42 g/m*3 26.3 C 0 km/h
568 26-08-2008 17:32:02 25.8 C 8.67 g/m*3 25.8 C 0 km/h
569 26-08-2008 17:44:02 27.3 C 8.63 g/m*3 27.3 C 0 km/h
570 26-08-2008 17:56:02 26.4 C 8.46 g/m*3 26.4 C 0 km/h
571 26-08-2008 18:08:02 26.8 C 8.91 g/m*3 26.8 C 0 km/h
572 26-08-2008 18:20:02 25.8 C 8.91 g/m*3 25.8 C 0 km/h
573 26-08-2008 18:32:02 26 C 8.76 g/m*3 26 C 0 km/h
574 26-08-2008 18:44:02 25.7 C 8.86 g/m*3 25.7 C 0 km/h
575 26-08-2008 18:56:02 24.9 C 9.16 g/m*3 24.9 C 0 km/h
Sensor: Nr:Datum:Temp:Abs-Feuchte:Windchill:Wind:
Aussen-T/F 576 26-08-2008 19:08:02 24.6 C 9.23 g/m*3 24.6 C 0 km/h
577 26-08-2008 19:20:02 24.3 C 9.52 g/m*3 24.3 C 0 km/h
578 26-08-2008 19:32:02 23.8 C 9.68 g/m*3 23.8 C 0 km/h
579 26-08-2008 19:44:02 23.8 C 9.68 g/m*3 23.8 C 0 km/h
580 26-08-2008 19:56:03 23.7 C 9.63 g/m*3 23.7 C 0 km/h
581 26-08-2008 20:08:02 23.2 C 9.56 g/m*3 23.2 C 0 km/h
582 26-08-2008 20:20:02 22.6 C 9.84 g/m*3 22.6 C 0 km/h
583 26-08-2008 20:32:02 22 C 9.9 g/m*3 22 C 0 km/h
584 26-08-2008 20:44:02 21.4 C 10.31 g/m*3 21.4 C 0 km/h
585 26-08-2008 20:56:02 21 C 10.26 g/m*3 21 C 0 km/h
586 26-08-2008 21:08:02 20.8 C 10.32 g/m*3 20.8 C 0 km/h
587 26-08-2008 21:20:02 20.7 C 10.44 g/m*3 20.7 C 0 km/h
588 26-08-2008 21:32:02 20.6 C 10.56 g/m*3 20.6 C 0 km/h
589 26-08-2008 21:44:02 20.3 C 10.55 g/m*3 20.3 C 0 km/h
590 26-08-2008 21:57:03 19.9 C 10.65 g/m*3 19.9 C 0 km/h
591 26-08-2008 22:09:03 19.4 C 10.68 g/m*3 19.4 C 0 km/h
592 26-08-2008 22:21:03 18.9 C 11.02 g/m*3 18.9 C 0 km/h
593 26-08-2008 22:33:03 18.8 C 11.11 g/m*3 18.8 C 0 km/h
594 26-08-2008 22:45:03 18.6 C 11.14 g/m*3 18.6 C 0 km/h
595 26-08-2008 22:57:03 18.4 C 11.01 g/m*3 18.4 C 0 km/h
596 26-08-2008 23:09:03 18.2 C 11.04 g/m*3 18.2 C 0 km/h
597 26-08-2008 23:21:03 17.8 C 11.08 g/m*3 17.8 C 0 km/h
598 26-08-2008 23:33:03 17.7 C 11.16 g/m*3 17.7 C 0 km/h
599 26-08-2008 23:45:03 17.6 C 11.4 g/m*3 17.6 C 0 km/h
600 26-08-2008 23:57:03 17.4 C 11.26 g/m*3 17.4 C 0 km/h
Sensor: Nr:Datum:Temp:Abs-Feuchte:Windchill:Wind:
Aussen-T/F 601 27-08-2008 00:09:03 17.2 C 11.28 g/m*3 17.2 C 0 km/h
602 27-08-2008 00:21:03 17 C 11.29 g/m*3 17 C 0 km/h
603 27-08-2008 00:33:03 16.8 C 11.29 g/m*3 16.8 C 0 km/h
604 27-08-2008 00:45:03 16.5 C 11.23 g/m*3 16.5 C 0 km/h
605 27-08-2008 00:57:04 16.5 C 11.23 g/m*3 16.5 C 0 km/h
606 27-08-2008 01:09:04 16.2 C 11.17 g/m*3 16.2 C 0 km/h
607 27-08-2008 01:21:04 16.1 C 11.1 g/m*3 16.1 C 0 km/h
608 27-08-2008 01:33:04 16 C 11.17 g/m*3 16 C 0 km/h
609 27-08-2008 01:45:04 16.1 C 11.24 g/m*3 16.1 C 0 km/h
610 27-08-2008 01:57:04 15.9 C 11.24 g/m*3 15.9 C 0 km/h
611 27-08-2008 02:09:04 15.8 C 11.17 g/m*3 15.8 C 0 km/h
612 27-08-2008 02:21:04 15.6 C 11.04 g/m*3 15.6 C 0 km/h
613 27-08-2008 02:33:04 15.6 C 11.17 g/m*3 15.6 C 0 km/h
614 27-08-2008 02:45:04 15.7 C 11.24 g/m*3 15.7 C 0 km/h
615 27-08-2008 02:57:04 15.7 C 11.24 g/m*3 15.7 C 0 km/h
616 27-08-2008 03:09:04 15.8 C 11.17 g/m*3 15.8 C 0 km/h
617 27-08-2008 03:21:04 15.8 C 11.17 g/m*3 15.8 C 0 km/h
618 27-08-2008 03:33:04 15.8 C 11.17 g/m*3 15.8 C 0 km/h
619 27-08-2008 03:45:04 15.7 C 11.11 g/m*3 15.7 C 0 km/h
620 27-08-2008 03:57:04 15.6 C 11.04 g/m*3 15.6 C 0 km/h
621 27-08-2008 04:09:04 15.6 C 11.04 g/m*3 15.6 C 0 km/h
622 27-08-2008 04:21:04 15.5 C 10.97 g/m*3 15.5 C 0 km/h
623 27-08-2008 04:33:04 15.4 C 10.9 g/m*3 15.4 C 0 km/h
624 27-08-2008 04:45:04 15.3 C 10.84 g/m*3 15.3 C 0 km/h
625 27-08-2008 04:57:04 15 C 10.64 g/m*3 15 C 0 km/h
Sensor: Nr:Datum:Temp:Abs-Feuchte:Windchill:Wind:
Aussen-T/F 626 27-08-2008 05:09:05 14.7 C 10.7 g/m*3 14.7 C 0 km/h
627 27-08-2008 05:21:05 14.5 C 10.7 g/m*3 14.5 C 0 km/h
628 27-08-2008 05:33:05 14.3 C 10.57 g/m*3 14.3 C 0 km/h
629 27-08-2008 05:45:05 14.2 C 10.62 g/m*3 14.2 C 0 km/h
630 27-08-2008 05:57:05 14 C 10.49 g/m*3 14 C 0 km/h
631 27-08-2008 06:09:05 14 C 10.61 g/m*3 14 C 0 km/h
632 27-08-2008 06:21:05 14.2 C 10.87 g/m*3 14.2 C 0 km/h
633 27-08-2008 06:33:05 14.2 C 10.75 g/m*3 14.2 C 0 km/h
634 27-08-2008 06:45:05 14.2 C 10.75 g/m*3 14.2 C 0 km/h
635 27-08-2008 06:57:05 14.2 C 10.75 g/m*3 14.2 C 0 km/h
636 27-08-2008 07:09:02 14.2 C 10.75 g/m*3 14.2 C 0 km/h
637 27-08-2008 07:21:02 14.3 C 10.81 g/m*3 14.3 C 0 km/h
638 27-08-2008 07:33:02 14.4 C 10.88 g/m*3 14.4 C 0 km/h
639 27-08-2008 07:45:03 14.5 C 10.82 g/m*3 14.5 C 0 km/h
640 27-08-2008 07:57:03 14.7 C 10.83 g/m*3 14.7 C 0 km/h
641 27-08-2008 08:09:02 14.8 C 10.77 g/m*3 14.8 C 0 km/h
642 27-08-2008 08:21:03 14.8 C 10.64 g/m*3 14.8 C 0 km/h
643 27-08-2008 08:33:02 14.7 C 10.45 g/m*3 14.7 C 0 km/h
644 27-08-2008 08:45:02 15 C 10.64 g/m*3 15 C 0 km/h
645 27-08-2008 08:57:02 15.1 C 10.45 g/m*3 15.1 C 0 km/h
646 27-08-2008 09:09:02 15.5 C 10.71 g/m*3 15.5 C 0 km/h
647 27-08-2008 09:21:03 15.8 C 10.63 g/m*3 15.8 C 0 km/h
648 27-08-2008 09:33:03 16.3 C 10.82 g/m*3 16.3 C 0 km/h
649 27-08-2008 09:45:02 16.8 C 10.87 g/m*3 16.8 C 0 km/h
650 27-08-2008 09:57:02 17.1 C 10.63 g/m*3 17.1 C 0 km/h
Sensor: Nr:Datum:Temp:Abs-Feuchte:Windchill:Wind:
Aussen-T/F 651 27-08-2008 10:09:01 17.3 C 10.75 g/m*3 17.3 C 0 km/h
652 27-08-2008 10:21:02 17.7 C 10.86 g/m*3 17.7 C 0 km/h
653 27-08-2008 10:33:02 18 C 10.75 g/m*3 18 C 0 km/h
654 27-08-2008 10:45:02 18.3 C 10.94 g/m*3 18.3 C 0 km/h
655 27-08-2008 10:57:02 19.3 C 10.62 g/m*3 19.3 C 0 km/h
656 27-08-2008 11:09:01 19.9 C 9.97 g/m*3 19.9 C 0 km/h
657 27-08-2008 11:21:02 20.3 C 9.85 g/m*3 20.3 C 0 km/h
658 27-08-2008 11:33:01 20.7 C 9.54 g/m*3 20.7 C 0 km/h
659 27-08-2008 11:45:02 21 C 9.34 g/m*3 21 C 0 km/h
660 27-08-2008 11:57:02 21 C 9.53 g/m*3 21 C 0 km/h
661 27-08-2008 12:09:01 21.5 C 9.43 g/m*3 21.5 C 0 km/h
662 27-08-2008 12:21:02 21.5 C 9.43 g/m*3 21.5 C 0 km/h
663 27-08-2008 12:33:01 21.9 C 9.46 g/m*3 21.9 C 0 km/h
664 27-08-2008 12:45:01 22 C 9.32 g/m*3 22 C 0 km/h
665 27-08-2008 12:57:01 22.3 C 9.28 g/m*3 22.3 C 0 km/h
666 27-08-2008 13:09:01 22.7 C 9.5 g/m*3 22.7 C 0 km/h
667 27-08-2008 13:21:01 23.1 C 9.1 g/m*3 23.1 C 0 km/h
668 27-08-2008 13:33:01 23.7 C 9.41 g/m*3 23.7 C 0 km/h
669 27-08-2008 13:45:01 23.6 C 9.36 g/m*3 23.6 C 0 km/h
670 27-08-2008 13:57:01 24 C 8.92 g/m*3 24 C 0 km/h
671 27-08-2008 14:09:02 24.6 C 9 g/m*3 24.6 C 0 km/h
672 27-08-2008 14:21:01 24.6 C 8.78 g/m*3 24.6 C 0 km/h
673 27-08-2008 14:33:02 25.6 C 9.28 g/m*3 25.6 C 0 km/h
674 27-08-2008 14:45:02 25.8 C 8.91 g/m*3 25.8 C 0 km/h
675 27-08-2008 14:57:02 26.3 C 8.66 g/m*3 26.3 C 0 km/h
Sensor: Nr:Datum:Temp:Abs-Feuchte:Windchill:Wind:
Aussen-T/F 676 27-08-2008 15:09:02 26.5 C 8.76 g/m*3 26.5 C 0 km/h
677 27-08-2008 15:21:02 26.6 C 8.81 g/m*3 26.6 C 0 km/h
678 27-08-2008 15:33:02 27 C 8.49 g/m*3 27 C 0 km/h
679 27-08-2008 15:45:02 27.4 C 8.95 g/m*3 27.4 C 0 km/h
680 27-08-2008 15:57:02 28.1 C 8.75 g/m*3 28.1 C 0 km/h
681 27-08-2008 16:09:03 28.5 C 8.66 g/m*3 28.5 C 0 km/h
682 27-08-2008 16:21:02 28.9 C 8.86 g/m*3 28.9 C 0 km/h
683 27-08-2008 16:33:03 29 C 8.62 g/m*3 29 C 0 km/h
684 27-08-2008 16:45:02 29 C 8.33 g/m*3 29 C 0 km/h
685 27-08-2008 16:57:02 28.8 C 8.52 g/m*3 28.8 C 0 km/h
686 27-08-2008 17:09:01 28.5 C 8.66 g/m*3 28.5 C 0 km/h
687 27-08-2008 17:21:02 27.8 C 8.34 g/m*3 27.8 C 0 km/h
688 27-08-2008 17:33:02 27.3 C 8.63 g/m*3 27.3 C 0 km/h
689 27-08-2008 17:45:02 26.8 C 9.16 g/m*3 26.8 C 0 km/h
690 27-08-2008 17:57:02 26.6 C 9.31 g/m*3 26.6 C 0 km/h
691 27-08-2008 18:09:01 26.7 C 8.86 g/m*3 26.7 C 0 km/h
692 27-08-2008 18:21:02 26.4 C 9.21 g/m*3 26.4 C 0 km/h
693 27-08-2008 18:33:01 26.5 C 9.26 g/m*3 26.5 C 0 km/h
694 27-08-2008 18:45:03 25.9 C 9.44 g/m*3 25.9 C 0 km/h
695 27-08-2008 18:57:03 25 C 9.44 g/m*3 25 C 0 km/h
696 27-08-2008 19:09:02 24.3 C 9.52 g/m*3 24.3 C 0 km/h
697 27-08-2008 19:21:03 23.5 C 9.73 g/m*3 23.5 C 0 km/h
698 27-08-2008 19:33:02 23.3 C 9.62 g/m*3 23.3 C 0 km/h
699 27-08-2008 19:45:02 23 C 9.66 g/m*3 23 C 0 km/h
700 27-08-2008 19:57:02 22.7 C 9.9 g/m*3 22.7 C 0 km/h
Sensor: Nr:Datum:Temp:Abs-Feuchte:Windchill:Wind:
Aussen-T/F 701 27-08-2008 20:09:02 22 C 9.7 g/m*3 22 C 0 km/h
702 27-08-2008 20:21:02 21.8 C 9.78 g/m*3 21.8 C 0 km/h
703 27-08-2008 20:33:02 21.6 C 9.67 g/m*3 21.6 C 0 km/h
704 27-08-2008 20:45:01 21.3 C 9.69 g/m*3 21.3 C 0 km/h
705 27-08-2008 20:57:01 21.1 C 9.58 g/m*3 21.1 C 0 km/h
706 27-08-2008 21:09:01 20.9 C 9.65 g/m*3 20.9 C 0 km/h
707 27-08-2008 21:21:01 20.8 C 9.6 g/m*3 20.8 C 0 km/h
708 27-08-2008 21:33:01 20.8 C 9.6 g/m*3 20.8 C 0 km/h
709 27-08-2008 21:45:01 20.2 C 9.27 g/m*3 20.2 C 0 km/h
710 27-08-2008 21:57:01 20.1 C 9.21 g/m*3 20.1 C 0 km/h
711 27-08-2008 22:09:02 20.1 C 9.21 g/m*3 20.1 C 0 km/h
712 27-08-2008 22:21:01 20.2 C 9.27 g/m*3 20.2 C 0 km/h
713 27-08-2008 22:33:02 20 C 9.16 g/m*3 20 C 0 km/h
714 27-08-2008 22:46:02 19.7 C 9.34 g/m*3 19.7 C 0 km/h
715 27-08-2008 22:58:02 19.7 C 9.51 g/m*3 19.7 C 0 km/h
716 27-08-2008 23:10:02 19.8 C 9.74 g/m*3 19.8 C 0 km/h
717 27-08-2008 23:22:02 19.6 C 9.45 g/m*3 19.6 C 0 km/h
718 27-08-2008 23:34:02 19.7 C 9.68 g/m*3 19.7 C 0 km/h
719 27-08-2008 23:46:02 19.5 C 9.57 g/m*3 19.5 C 0 km/h
720 27-08-2008 23:58:02 19.4 C 9.51 g/m*3 19.4 C 0 km/h
721 28-08-2008 00:10:02 19.4 C 9.68 g/m*3 19.4 C 0 km/h
722 28-08-2008 00:22:02 19.4 C 9.68 g/m*3 19.4 C 0 km/h
723 28-08-2008 00:34:02 19.2 C 9.56 g/m*3 19.2 C 0 km/h
724 28-08-2008 00:46:02 19.1 C 9.67 g/m*3 19.1 C 0 km/h
725 28-08-2008 00:58:02 19.1 C 9.67 g/m*3 19.1 C 0 km/h
Sensor: Nr:Datum:Temp:Abs-Feuchte:Windchill:Wind:
Aussen-T/F 726 28-08-2008 01:10:02 19 C 9.61 g/m*3 19 C 0 km/h
727 28-08-2008 01:22:02 19.1 C 9.84 g/m*3 19.1 C 0 km/h
728 28-08-2008 01:34:02 19 C 9.61 g/m*3 19 C 0 km/h
729 28-08-2008 01:46:02 19 C 9.78 g/m*3 19 C 0 km/h
730 28-08-2008 01:58:02 18.9 C 9.88 g/m*3 18.9 C 0 km/h
731 28-08-2008 02:10:02 18.8 C 9.82 g/m*3 18.8 C 0 km/h
732 28-08-2008 02:22:02 18.9 C 10.04 g/m*3 18.9 C 0 km/h
733 28-08-2008 02:34:03 18.9 C 10.04 g/m*3 18.9 C 0 km/h
734 28-08-2008 02:46:03 18.7 C 10.09 g/m*3 18.7 C 0 km/h
735 28-08-2008 02:58:03 18.6 C 10.03 g/m*3 18.6 C 0 km/h
736 28-08-2008 03:10:03 18.6 C 10.03 g/m*3 18.6 C 0 km/h
737 28-08-2008 03:22:03 18.6 C 10.03 g/m*3 18.6 C 0 km/h
738 28-08-2008 03:34:03 18.5 C 10.13 g/m*3 18.5 C 0 km/h
739 28-08-2008 03:46:03 18.5 C 10.13 g/m*3 18.5 C 0 km/h
740 28-08-2008 03:58:03 18.5 C 10.13 g/m*3 18.5 C 0 km/h
741 28-08-2008 04:10:03 18.4 C 10.22 g/m*3 18.4 C 0 km/h
742 28-08-2008 04:22:03 18.4 C 10.22 g/m*3 18.4 C 0 km/h
743 28-08-2008 04:34:03 18.4 C 10.22 g/m*3 18.4 C 0 km/h
744 28-08-2008 04:46:03 18.3 C 10.16 g/m*3 18.3 C 0 km/h
745 28-08-2008 04:58:03 18.3 C 10.32 g/m*3 18.3 C 0 km/h
746 28-08-2008 05:10:03 18.2 C 10.1 g/m*3 18.2 C 0 km/h
747 28-08-2008 05:22:03 18.2 C 10.26 g/m*3 18.2 C 0 km/h
748 28-08-2008 05:34:03 18.2 C 10.26 g/m*3 18.2 C 0 km/h
749 28-08-2008 05:46:03 18.1 C 10.04 g/m*3 18.1 C 0 km/h
750 28-08-2008 05:58:03 18 C 10.14 g/m*3 18 C 0 km/h
Sensor: Nr:Datum:Temp:Abs-Feuchte:Windchill:Wind:
Aussen-T/F 751 28-08-2008 06:10:03 18 C 10.14 g/m*3 18 C 0 km/h
752 28-08-2008 06:22:04 17.9 C 10.23 g/m*3 17.9 C 0 km/h
753 28-08-2008 06:34:04 17.9 C 10.23 g/m*3 17.9 C 0 km/h
754 28-08-2008 06:46:04 17.9 C 10.38 g/m*3 17.9 C 0 km/h
755 28-08-2008 06:58:04 17.8 C 10.32 g/m*3 17.8 C 0 km/h
756 28-08-2008 07:10:02 17.8 C 10.32 g/m*3 17.8 C 0 km/h
757 28-08-2008 07:22:02 17.8 C 10.32 g/m*3 17.8 C 0 km/h
758 28-08-2008 07:34:03 17.8 C 10.32 g/m*3 17.8 C 0 km/h
759 28-08-2008 07:46:02 17.9 C 10.54 g/m*3 17.9 C 0 km/h
760 28-08-2008 07:58:02 18.1 C 10.51 g/m*3 18.1 C 0 km/h
761 28-08-2008 08:10:02 18.1 C 10.51 g/m*3 18.1 C 0 km/h
762 28-08-2008 08:22:02 18.1 C 10.66 g/m*3 18.1 C 0 km/h
763 28-08-2008 08:34:02 18.5 C 10.92 g/m*3 18.5 C 0 km/h
764 28-08-2008 08:46:02 18.6 C 10.66 g/m*3 18.6 C 0 km/h
765 28-08-2008 08:58:02 18.7 C 10.73 g/m*3 18.7 C 0 km/h
766 28-08-2008 09:10:03 18.9 C 10.69 g/m*3 18.9 C 0 km/h
767 28-08-2008 09:22:02 19.1 C 10.16 g/m*3 19.1 C 0 km/h
768 28-08-2008 09:34:02 19.2 C 10.06 g/m*3 19.2 C 0 km/h
769 28-08-2008 09:46:02 19.3 C 9.79 g/m*3 19.3 C 0 km/h
770 28-08-2008 09:58:02 19.3 C 9.95 g/m*3 19.3 C 0 km/h
771 28-08-2008 10:10:02 19.4 C 9.84 g/m*3 19.4 C 0 km/h
772 28-08-2008 10:22:02 19.6 C 9.79 g/m*3 19.6 C 0 km/h
773 28-08-2008 10:34:02 19.9 C 9.45 g/m*3 19.9 C 0 km/h
774 28-08-2008 10:46:02 20.2 C 8.92 g/m*3 20.2 C 0 km/h
775 28-08-2008 10:58:02 20.5 C 9.07 g/m*3 20.5 C 0 km/h
Sensor: Nr:Datum:Temp:Abs-Feuchte:Windchill:Wind:
Aussen-T/F 776 28-08-2008 11:10:02 21 C 8.43 g/m*3 21 C 0 km/h
777 28-08-2008 11:22:02 21.5 C 8.3 g/m*3 21.5 C 0 km/h
778 28-08-2008 11:34:02 21.7 C 8.2 g/m*3 21.7 C 0 km/h
779 28-08-2008 11:46:02 22.1 C 7.81 g/m*3 22.1 C 0 km/h
780 28-08-2008 11:58:02 22.7 C 7.88 g/m*3 22.7 C 0 km/h
781 28-08-2008 12:10:02 23 C 7.6 g/m*3 23 C 0 km/h
782 28-08-2008 12:22:02 22.9 C 7.56 g/m*3 22.9 C 0 km/h
783 28-08-2008 12:34:02 23.1 C 7.44 g/m*3 23.1 C 0 km/h
784 28-08-2008 12:46:02 23.3 C 7.32 g/m*3 23.3 C 0 km/h
785 28-08-2008 12:58:02 23.5 C 7.4 g/m*3 23.5 C 0 km/h
786 28-08-2008 13:10:02 23.6 C 7.44 g/m*3 23.6 C 0 km/h
787 28-08-2008 13:22:02 23.9 C 7.57 g/m*3 23.9 C 0 km/h
788 28-08-2008 13:34:02 23.2 C 7.28 g/m*3 23.2 C 0 km/h
789 28-08-2008 13:46:02 23.1 C 7.65 g/m*3 23.1 C 0 km/h
790 28-08-2008 13:58:02 23.3 C 7.53 g/m*3 23.3 C 0 km/h
791 28-08-2008 14:10:02 23 C 7.6 g/m*3 23 C 0 km/h
792 28-08-2008 14:22:02 23.3 C 7.74 g/m*3 23.3 C 0 km/h
793 28-08-2008 14:34:02 23.7 C 7.7 g/m*3 23.7 C 0 km/h
794 28-08-2008 14:46:02 23.1 C 7.86 g/m*3 23.1 C 0 km/h
795 28-08-2008 14:58:02 23.6 C 7.87 g/m*3 23.6 C 0 km/h
796 28-08-2008 15:10:02 23.7 C 7.7 g/m*3 23.7 C 0 km/h
797 28-08-2008 15:22:02 24.4 C 7.79 g/m*3 24.4 C 0 km/h
798 28-08-2008 15:34:02 24.2 C 7.48 g/m*3 24.2 C 0 km/h
799 28-08-2008 15:46:01 23.6 C 7.87 g/m*3 23.6 C 0 km/h
800 28-08-2008 15:58:01 23.2 C 7.69 g/m*3 23.2 C 0 km/h
Sensor: Nr:Datum:Temp:Abs-Feuchte:Windchill:Wind:
Aussen-T/F 801 28-08-2008 16:10:02 22.6 C 8.04 g/m*3 22.6 C 0 km/h
802 28-08-2008 16:22:02 23 C 8.22 g/m*3 23 C 0 km/h
803 28-08-2008 16:34:02 23.1 C 7.86 g/m*3 23.1 C 0 km/h
804 28-08-2008 16:46:02 23.3 C 8.15 g/m*3 23.3 C 0 km/h
805 28-08-2008 16:58:02 23.4 C 7.78 g/m*3 23.4 C 0 km/h
806 28-08-2008 17:10:02 22.8 C 8.13 g/m*3 22.8 C 0 km/h
807 28-08-2008 17:22:02 22.9 C 8.17 g/m*3 22.9 C 0 km/h
808 28-08-2008 17:34:02 22.6 C 8.04 g/m*3 22.6 C 0 km/h
809 28-08-2008 17:46:02 22 C 7.96 g/m*3 22 C 0 km/h
810 28-08-2008 17:58:02 22 C 7.96 g/m*3 22 C 0 km/h
811 28-08-2008 18:10:03 21.8 C 8.25 g/m*3 21.8 C 0 km/h
812 28-08-2008 18:22:02 22 C 8.15 g/m*3 22 C 0 km/h
813 28-08-2008 18:34:02 22 C 8.15 g/m*3 22 C 0 km/h
814 28-08-2008 18:46:02 21.7 C 8.2 g/m*3 21.7 C 0 km/h
815 28-08-2008 18:58:02 21.7 C 8.2 g/m*3 21.7 C 0 km/h
816 28-08-2008 19:10:02 21.6 C 8.35 g/m*3 21.6 C 0 km/h
817 28-08-2008 19:22:02 21.6 C 8.72 g/m*3 21.6 C 0 km/h
818 28-08-2008 19:34:02 21.5 C 8.49 g/m*3 21.5 C 0 km/h
819 28-08-2008 19:46:03 21.3 C 8.57 g/m*3 21.3 C 0 km/h
820 28-08-2008 19:58:03 21.1 C 8.84 g/m*3 21.1 C 0 km/h
821 28-08-2008 20:10:02 20.8 C 9.23 g/m*3 20.8 C 0 km/h
822 28-08-2008 20:22:03 20.6 C 9.13 g/m*3 20.6 C 0 km/h
823 28-08-2008 20:34:02 20.4 C 9.38 g/m*3 20.4 C 0 km/h
824 28-08-2008 20:46:03 20.3 C 9.15 g/m*3 20.3 C 0 km/h
825 28-08-2008 20:58:03 20.2 C 9.09 g/m*3 20.2 C 0 km/h
Sensor: Nr:Datum:Temp:Abs-Feuchte:Windchill:Wind:
Aussen-T/F 826 28-08-2008 21:10:02 20.1 C 9.04 g/m*3 20.1 C 0 km/h
827 28-08-2008 21:22:02 20 C 9.16 g/m*3 20 C 0 km/h
828 28-08-2008 21:34:02 20 C 9.33 g/m*3 20 C 0 km/h
829 28-08-2008 21:46:02 19.8 C 9.57 g/m*3 19.8 C 0 km/h
830 28-08-2008 21:58:02 19.6 C 9.79 g/m*3 19.6 C 0 km/h
831 28-08-2008 22:10:03 19.5 C 9.9 g/m*3 19.5 C 0 km/h
832 28-08-2008 22:22:02 19.4 C 9.68 g/m*3 19.4 C 0 km/h
833 28-08-2008 22:35:02 19.4 C 9.68 g/m*3 19.4 C 0 km/h
834 28-08-2008 22:47:02 19.3 C 9.79 g/m*3 19.3 C 0 km/h
835 28-08-2008 22:59:02 19.1 C 9.67 g/m*3 19.1 C 0 km/h
836 28-08-2008 23:11:02 19.1 C 9.84 g/m*3 19.1 C 0 km/h
837 28-08-2008 23:23:02 19.2 C 9.89 g/m*3 19.2 C 0 km/h
838 28-08-2008 23:35:02 19.2 C 9.89 g/m*3 19.2 C 0 km/h
839 28-08-2008 23:47:02 19.1 C 9.84 g/m*3 19.1 C 0 km/h
840 28-08-2008 23:59:02 19.1 C 10 g/m*3 19.1 C 0 km/h
841 29-08-2008 00:11:02 19 C 9.94 g/m*3 19 C 0 km/h
842 29-08-2008 00:23:02 18.9 C 10.04 g/m*3 18.9 C 0 km/h
843 29-08-2008 00:35:02 18.9 C 10.04 g/m*3 18.9 C 0 km/h
844 29-08-2008 00:47:02 18.9 C 10.04 g/m*3 18.9 C 0 km/h
845 29-08-2008 00:59:02 18.8 C 9.99 g/m*3 18.8 C 0 km/h
846 29-08-2008 01:11:02 18.8 C 9.99 g/m*3 18.8 C 0 km/h
847 29-08-2008 01:23:02 18.8 C 9.99 g/m*3 18.8 C 0 km/h
848 29-08-2008 01:35:02 18.7 C 9.93 g/m*3 18.7 C 0 km/h
849 29-08-2008 01:47:02 18.7 C 9.77 g/m*3 18.7 C 0 km/h
850 29-08-2008 01:59:02 18.6 C 9.71 g/m*3 18.6 C 0 km/h
Sensor: Nr:Datum:Temp:Abs-Feuchte:Windchill:Wind:
Aussen-T/F 851 29-08-2008 02:11:03 18.6 C 9.71 g/m*3 18.6 C 0 km/h
852 29-08-2008 02:23:03 18.5 C 9.65 g/m*3 18.5 C 0 km/h
853 29-08-2008 02:35:03 18.5 C 9.81 g/m*3 18.5 C 0 km/h
854 29-08-2008 02:47:03 18.5 C 9.49 g/m*3 18.5 C 0 km/h
855 29-08-2008 02:59:03 18.4 C 9.59 g/m*3 18.4 C 0 km/h
856 29-08-2008 03:11:03 18.4 C 9.91 g/m*3 18.4 C 0 km/h
857 29-08-2008 03:23:03 18.3 C 9.69 g/m*3 18.3 C 0 km/h
858 29-08-2008 03:35:03 18.2 C 9.64 g/m*3 18.2 C 0 km/h
859 29-08-2008 03:47:03 18.2 C 9.64 g/m*3 18.2 C 0 km/h
860 29-08-2008 03:59:03 18.1 C 9.58 g/m*3 18.1 C 0 km/h
861 29-08-2008 04:11:03 18.1 C 9.43 g/m*3 18.1 C 0 km/h
862 29-08-2008 04:23:03 18.1 C 9.58 g/m*3 18.1 C 0 km/h
863 29-08-2008 04:35:03 18.1 C 9.43 g/m*3 18.1 C 0 km/h
864 29-08-2008 04:47:03 18.1 C 9.43 g/m*3 18.1 C 0 km/h
865 29-08-2008 04:59:03 18.1 C 9.43 g/m*3 18.1 C 0 km/h
866 29-08-2008 05:11:03 18 C 9.22 g/m*3 18 C 0 km/h
867 29-08-2008 05:23:03 18 C 9.22 g/m*3 18 C 0 km/h
868 29-08-2008 05:35:03 17.9 C 9.31 g/m*3 17.9 C 0 km/h
869 29-08-2008 05:47:03 17.9 C 9.47 g/m*3 17.9 C 0 km/h
870 29-08-2008 05:59:04 17.9 C 9.31 g/m*3 17.9 C 0 km/h
871 29-08-2008 06:11:04 17.8 C 9.41 g/m*3 17.8 C 0 km/h
872 29-08-2008 06:23:04 17.8 C 9.41 g/m*3 17.8 C 0 km/h
873 29-08-2008 06:35:04 17.8 C 9.41 g/m*3 17.8 C 0 km/h
874 29-08-2008 06:47:04 17.8 C 9.41 g/m*3 17.8 C 0 km/h
875 29-08-2008 06:59:04 17.8 C 9.41 g/m*3 17.8 C 0 km/h
Sensor: Nr:Datum:Temp:Abs-Feuchte:Windchill:Wind:
Aussen-T/F 876 29-08-2008 07:11:04 17.8 C 9.56 g/m*3 17.8 C 0 km/h
877 29-08-2008 07:23:04 17.8 C 9.56 g/m*3 17.8 C 0 km/h
878 29-08-2008 07:35:04 17.8 C 9.56 g/m*3 17.8 C 0 km/h
879 29-08-2008 07:47:04 17.9 C 9.62 g/m*3 17.9 C 0 km/h
880 29-08-2008 07:59:04 17.9 C 9.47 g/m*3 17.9 C 0 km/h
881 29-08-2008 08:11:04 17.9 C 9.47 g/m*3 17.9 C 0 km/h
882 29-08-2008 08:23:02 18.1 C 9.43 g/m*3 18.1 C 0 km/h
883 29-08-2008 08:35:02 18.1 C 9.43 g/m*3 18.1 C 0 km/h
884 29-08-2008 08:47:01 18.1 C 9.58 g/m*3 18.1 C 0 km/h
885 29-08-2008 08:59:01 18.2 C 9.79 g/m*3 18.2 C 0 km/h
886 29-08-2008 09:11:02 18.3 C 9.85 g/m*3 18.3 C 0 km/h
887 29-08-2008 09:23:02 18.4 C 9.91 g/m*3 18.4 C 0 km/h
888 29-08-2008 09:35:02 18.5 C 9.97 g/m*3 18.5 C 0 km/h
889 29-08-2008 09:47:02 18.6 C 9.55 g/m*3 18.6 C 0 km/h
890 29-08-2008 09:59:02 18.9 C 9.72 g/m*3 18.9 C 0 km/h
891 29-08-2008 10:11:03 19.3 C 9.45 g/m*3 19.3 C 0 km/h
892 29-08-2008 10:23:02 19.6 C 9.45 g/m*3 19.6 C 0 km/h
893 29-08-2008 10:35:03 19.8 C 9.39 g/m*3 19.8 C 0 km/h
894 29-08-2008 10:47:02 20.4 C 9.38 g/m*3 20.4 C 0 km/h
895 29-08-2008 10:59:02 20.5 C 9.25 g/m*3 20.5 C 0 km/h
896 29-08-2008 11:11:01 20.7 C 9.36 g/m*3 20.7 C 0 km/h
897 29-08-2008 11:23:02 20.4 C 9.38 g/m*3 20.4 C 0 km/h
898 29-08-2008 11:35:02 20.5 C 9.25 g/m*3 20.5 C 0 km/h
899 29-08-2008 11:47:02 20.8 C 9.42 g/m*3 20.8 C 0 km/h
900 29-08-2008 11:59:02 21.3 C 9.51 g/m*3 21.3 C 0 km/h
Sensor: Nr:Datum:Temp:Abs-Feuchte:Windchill:Wind:
Aussen-T/F 901 29-08-2008 12:11:01 21 C 9.34 g/m*3 21 C 0 km/h
902 29-08-2008 12:23:02 21.1 C 9.4 g/m*3 21.1 C 0 km/h
903 29-08-2008 12:35:01 21.5 C 9.62 g/m*3 21.5 C 0 km/h
904 29-08-2008 12:47:02 21.8 C 9.59 g/m*3 21.8 C 0 km/h
905 29-08-2008 12:59:02 22.3 C 9.08 g/m*3 22.3 C 0 km/h
906 29-08-2008 13:11:01 23.1 C 9.1 g/m*3 23.1 C 0 km/h
907 29-08-2008 13:23:02 23.2 C 8.94 g/m*3 23.2 C 0 km/h
908 29-08-2008 13:35:01 23.3 C 8.78 g/m*3 23.3 C 0 km/h
909 29-08-2008 13:47:01 23.8 C 8.6 g/m*3 23.8 C 0 km/h
910 29-08-2008 13:59:01 23.4 C 8.83 g/m*3 23.4 C 0 km/h
911 29-08-2008 14:11:01 23.7 C 8.98 g/m*3 23.7 C 0 km/h
912 29-08-2008 14:23:01 24.5 C 8.95 g/m*3 24.5 C 0 km/h
913 29-08-2008 14:35:01 23.9 C 8.87 g/m*3 23.9 C 0 km/h
914 29-08-2008 14:47:01 24.1 C 8.97 g/m*3 24.1 C 0 km/h
915 29-08-2008 14:59:01 24.5 C 8.95 g/m*3 24.5 C 0 km/h
916 29-08-2008 15:11:02 24.1 C 8.53 g/m*3 24.1 C 0 km/h
917 29-08-2008 15:23:01 24.1 C 8.75 g/m*3 24.1 C 0 km/h
918 29-08-2008 15:35:02 24.6 C 8.78 g/m*3 24.6 C 0 km/h
919 29-08-2008 15:47:02 25.3 C 8.43 g/m*3 25.3 C 0 km/h
920 29-08-2008 15:59:02 25.7 C 8.62 g/m*3 25.7 C 0 km/h
921 29-08-2008 16:11:02 25.7 C 8.38 g/m*3 25.7 C 0 km/h
922 29-08-2008 16:23:02 25.7 C 8.62 g/m*3 25.7 C 0 km/h
923 29-08-2008 16:35:02 25 C 8.52 g/m*3 25 C 0 km/h
924 29-08-2008 16:47:01 24.7 C 9.05 g/m*3 24.7 C 0 km/h
925 29-08-2008 16:59:01 25.4 C 8.95 g/m*3 25.4 C 0 km/h
Sensor: Nr:Datum:Temp:Abs-Feuchte:Windchill:Wind:
Aussen-T/F 926 29-08-2008 17:11:01 26.1 C 8.32 g/m*3 26.1 C 0 km/h
927 29-08-2008 17:23:01 26 C 8.52 g/m*3 26 C 0 km/h
928 29-08-2008 17:35:01 27.4 C 8.42 g/m*3 27.4 C 0 km/h
929 29-08-2008 17:47:03 28.5 C 8.94 g/m*3 28.5 C 0 km/h
930 29-08-2008 17:59:03 28.1 C 8.75 g/m*3 28.1 C 0 km/h
931 29-08-2008 18:11:02 27.9 C 8.65 g/m*3 27.9 C 0 km/h
932 29-08-2008 18:23:03 27.3 C 8.63 g/m*3 27.3 C 0 km/h
933 29-08-2008 18:35:02 27.6 C 8.78 g/m*3 27.6 C 0 km/h
934 29-08-2008 18:47:02 28 C 8.7 g/m*3 28 C 0 km/h
935 29-08-2008 18:59:02 27.9 C 8.38 g/m*3 27.9 C 0 km/h
936 29-08-2008 19:11:03 26.7 C 8.1 g/m*3 26.7 C 0 km/h
937 29-08-2008 19:23:02 25.1 C 8.57 g/m*3 25.1 C 0 km/h
938 29-08-2008 19:35:03 24.9 C 9.16 g/m*3 24.9 C 0 km/h
939 29-08-2008 19:47:02 24.5 C 9.62 g/m*3 24.5 C 0 km/h
940 29-08-2008 19:59:03 23.7 C 9.63 g/m*3 23.7 C 0 km/h
941 29-08-2008 20:11:01 23.1 C 9.72 g/m*3 23.1 C 0 km/h
942 29-08-2008 20:23:02 22.3 C 10.07 g/m*3 22.3 C 0 km/h
943 29-08-2008 20:35:01 21.4 C 9.94 g/m*3 21.4 C 0 km/h
944 29-08-2008 20:47:02 20.7 C 10.08 g/m*3 20.7 C 0 km/h
945 29-08-2008 20:59:02 20.1 C 10.08 g/m*3 20.1 C 0 km/h
946 29-08-2008 21:11:01 19.8 C 10.42 g/m*3 19.8 C 0 km/h
947 29-08-2008 21:23:02 19.5 C 10.41 g/m*3 19.5 C 0 km/h
948 29-08-2008 21:35:01 19.3 C 10.45 g/m*3 19.3 C 0 km/h
949 29-08-2008 21:47:02 19.3 C 10.45 g/m*3 19.3 C 0 km/h
950 29-08-2008 21:59:02 19 C 10.43 g/m*3 19 C 0 km/h
Sensor: Nr:Datum:Temp:Abs-Feuchte:Windchill:Wind:
Aussen-T/F 951 29-08-2008 22:11:01 18.9 C 10.69 g/m*3 18.9 C 0 km/h
952 29-08-2008 22:24:01 18.8 C 10.79 g/m*3 18.8 C 0 km/h
953 29-08-2008 22:36:01 18.6 C 10.82 g/m*3 18.6 C 0 km/h
954 29-08-2008 22:48:01 18.5 C 10.76 g/m*3 18.5 C 0 km/h
955 29-08-2008 23:00:01 18.3 C 10.79 g/m*3 18.3 C 0 km/h
956 29-08-2008 23:12:01 18.1 C 10.82 g/m*3 18.1 C 0 km/h
957 29-08-2008 23:24:01 17.9 C 10.99 g/m*3 17.9 C 0 km/h
958 29-08-2008 23:36:02 17.7 C 11.01 g/m*3 17.7 C 0 km/h
959 29-08-2008 23:48:02 17.4 C 10.97 g/m*3 17.4 C 0 km/h
960 30-08-2008 00:00:02 17.2 C 10.84 g/m*3 17.2 C 0 km/h
961 30-08-2008 00:12:02 17.1 C 10.92 g/m*3 17.1 C 0 km/h
962 30-08-2008 00:24:02 16.9 C 10.93 g/m*3 16.9 C 0 km/h
963 30-08-2008 00:36:02 16.8 C 11.01 g/m*3 16.8 C 0 km/h
964 30-08-2008 00:48:02 16.6 C 10.88 g/m*3 16.6 C 0 km/h
965 30-08-2008 01:00:02 16.4 C 10.89 g/m*3 16.4 C 0 km/h
966 30-08-2008 01:12:02 16.3 C 10.82 g/m*3 16.3 C 0 km/h
967 30-08-2008 01:24:02 16.2 C 10.89 g/m*3 16.2 C 0 km/h
968 30-08-2008 01:36:02 16.1 C 10.83 g/m*3 16.1 C 0 km/h
969 30-08-2008 01:48:02 15.9 C 10.83 g/m*3 15.9 C 0 km/h
970 30-08-2008 02:00:02 15.8 C 10.77 g/m*3 15.8 C 0 km/h
971 30-08-2008 02:12:02 15.6 C 10.64 g/m*3 15.6 C 0 km/h
972 30-08-2008 02:24:02 15.5 C 10.71 g/m*3 15.5 C 0 km/h
973 30-08-2008 02:36:02 15.4 C 10.64 g/m*3 15.4 C 0 km/h
974 30-08-2008 02:48:02 15.4 C 10.64 g/m*3 15.4 C 0 km/h
975 30-08-2008 03:00:02 15.2 C 10.51 g/m*3 15.2 C 0 km/h
Sensor: Nr:Datum:Temp:Abs-Feuchte:Windchill:Wind:
Aussen-T/F 976 30-08-2008 03:12:02 15 C 10.39 g/m*3 15 C 0 km/h
977 30-08-2008 03:24:03 14.9 C 10.45 g/m*3 14.9 C 0 km/h
978 30-08-2008 03:36:03 14.7 C 10.45 g/m*3 14.7 C 0 km/h
979 30-08-2008 03:48:03 14.7 C 10.45 g/m*3 14.7 C 0 km/h
980 30-08-2008 04:00:03 14.7 C 10.45 g/m*3 14.7 C 0 km/h
981 30-08-2008 04:12:03 14.4 C 10.26 g/m*3 14.4 C 0 km/h
982 30-08-2008 04:24:03 14.4 C 10.26 g/m*3 14.4 C 0 km/h
983 30-08-2008 04:36:03 14.3 C 10.2 g/m*3 14.3 C 0 km/h
984 30-08-2008 04:48:03 14.4 C 10.26 g/m*3 14.4 C 0 km/h
985 30-08-2008 05:00:03 14.5 C 10.45 g/m*3 14.5 C 0 km/h
986 30-08-2008 05:12:03 14.5 C 10.45 g/m*3 14.5 C 0 km/h
987 30-08-2008 05:24:03 14.5 C 10.45 g/m*3 14.5 C 0 km/h
988 30-08-2008 05:36:03 14.5 C 10.45 g/m*3 14.5 C 0 km/h
989 30-08-2008 05:48:03 14 C 10.25 g/m*3 14 C 0 km/h
990 30-08-2008 06:00:03 14.5 C 10.57 g/m*3 14.5 C 0 km/h
991 30-08-2008 06:12:03 14.4 C 10.51 g/m*3 14.4 C 0 km/h
992 30-08-2008 06:24:03 14.3 C 10.57 g/m*3 14.3 C 0 km/h
993 30-08-2008 06:36:03 14.3 C 10.69 g/m*3 14.3 C 0 km/h
994 30-08-2008 06:48:03 14.4 C 10.88 g/m*3 14.4 C 0 km/h
995 30-08-2008 07:00:03 14.6 C 11.01 g/m*3 14.6 C 0 km/h
996 30-08-2008 07:12:04 14.6 C 10.89 g/m*3 14.6 C 0 km/h
997 30-08-2008 07:24:04 14.8 C 11.15 g/m*3 14.8 C 0 km/h
998 30-08-2008 07:36:04 14.9 C 11.09 g/m*3 14.9 C 0 km/h
999 30-08-2008 07:48:04 15.1 C 11.09 g/m*3 15.1 C 0 km/h
1000 30-08-2008 08:00:04 15.2 C 11.03 g/m*3 15.2 C 0 km/h
Sensor: Nr:Datum:Temp:Abs-Feuchte:Windchill:Wind:
Aussen-T/F 1001 30-08-2008 08:12:02 15.4 C 11.04 g/m*3 15.4 C 0 km/h
1002 30-08-2008 08:24:01 15.5 C 10.97 g/m*3 15.5 C 0 km/h
1003 30-08-2008 08:36:02 15.7 C 11.11 g/m*3 15.7 C 0 km/h
1004 30-08-2008 08:48:02 15.8 C 11.04 g/m*3 15.8 C 0 km/h
1005 30-08-2008 09:00:02 15.8 C 11.04 g/m*3 15.8 C 0 km/h
1006 30-08-2008 09:12:02 16.1 C 11.1 g/m*3 16.1 C 0 km/h
1007 30-08-2008 09:24:02 16.4 C 11.17 g/m*3 16.4 C 0 km/h
1008 30-08-2008 09:36:02 16.8 C 11.29 g/m*3 16.8 C 0 km/h
1009 30-08-2008 09:48:02 17.1 C 11.21 g/m*3 17.1 C 0 km/h
1010 30-08-2008 10:00:02 17 C 11.29 g/m*3 17 C 0 km/h
1011 30-08-2008 10:12:02 17.4 C 11.71 g/m*3 17.4 C 0 km/h
1012 30-08-2008 10:24:02 17.9 C 11.76 g/m*3 17.9 C 0 km/h
1013 30-08-2008 10:36:02 18.5 C 11.71 g/m*3 18.5 C 0 km/h
1014 30-08-2008 10:48:02 19.1 C 11.8 g/m*3 19.1 C 0 km/h
1015 30-08-2008 11:00:02 19.6 C 11.82 g/m*3 19.6 C 0 km/h
1016 30-08-2008 11:12:01 20.2 C 11.19 g/m*3 20.2 C 0 km/h
1017 30-08-2008 11:24:02 20.7 C 11.16 g/m*3 20.7 C 0 km/h
1018 30-08-2008 11:36:02 21.2 C 10.93 g/m*3 21.2 C 0 km/h
1019 30-08-2008 11:48:02 21.8 C 10.94 g/m*3 21.8 C 0 km/h
1020 30-08-2008 12:00:02 22.4 C 10.92 g/m*3 22.4 C 0 km/h
1021 30-08-2008 12:12:01 22.9 C 10.63 g/m*3 22.9 C 0 km/h
1022 30-08-2008 12:24:02 23.5 C 10.79 g/m*3 23.5 C 0 km/h
1023 30-08-2008 12:36:01 23.8 C 10.54 g/m*3 23.8 C 0 km/h
1024 30-08-2008 12:48:02 24.1 C 10.06 g/m*3 24.1 C 0 km/h
1025 30-08-2008 13:00:02 24.5 C 9.85 g/m*3 24.5 C 0 km/h
Sensor: Nr:Datum:Temp:Abs-Feuchte:Windchill:Wind:
Aussen-T/F 1026 30-08-2008 13:12:02 25.1 C 9.95 g/m*3 25.1 C 0 km/h
1027 30-08-2008 13:24:02 25.6 C 10 g/m*3 25.6 C 0 km/h
1028 30-08-2008 13:36:03 26.1 C 9.55 g/m*3 26.1 C 0 km/h
1029 30-08-2008 13:48:02 26.3 C 9.65 g/m*3 26.3 C 0 km/h
1030 30-08-2008 14:00:02 26.9 C 9.47 g/m*3 26.9 C 0 km/h
1031 30-08-2008 14:12:02 27.7 C 9.63 g/m*3 27.7 C 0 km/h
1032 30-08-2008 14:24:02 28.4 C 9.45 g/m*3 28.4 C 0 km/h
1033 30-08-2008 14:36:02 28.9 C 9.14 g/m*3 28.9 C 0 km/h
1034 30-08-2008 14:48:02 29.3 C 8.76 g/m*3 29.3 C 0 km/h
1035 30-08-2008 15:00:02 29.6 C 8.9 g/m*3 29.6 C 0 km/h
1036 30-08-2008 15:12:02 30.3 C 8.94 g/m*3 30.3 C 0 km/h
1037 30-08-2008 15:24:01 30.4 C 8.68 g/m*3 30.4 C 0 km/h
1038 30-08-2008 15:36:02 30.4 C 8.37 g/m*3 30.4 C 0 km/h
1039 30-08-2008 15:48:02 30.7 C 8.19 g/m*3 30.7 C 0 km/h
1040 30-08-2008 16:00:02 31 C 8.32 g/m*3 31 C 0 km/h
1041 30-08-2008 16:12:02 31.2 C 8.09 g/m*3 31.2 C 0 km/h
1042 30-08-2008 16:24:02 31.2 C 7.76 g/m*3 31.2 C 0 km/h
1043 30-08-2008 16:36:02 31.6 C 7.6 g/m*3 31.6 C 0 km/h
1044 30-08-2008 16:48:02 31.9 C 7.39 g/m*3 31.9 C 0 km/h
1045 30-08-2008 17:00:02 31.4 C 7.19 g/m*3 31.4 C 0 km/h
1046 30-08-2008 17:12:02 31.7 C 7.31 g/m*3 31.7 C 0 km/h
1047 30-08-2008 17:24:01 32.1 C 7.13 g/m*3 32.1 C 0 km/h
1048 30-08-2008 17:36:02 32.1 C 6.79 g/m*3 32.1 C 0 km/h
1049 30-08-2008 17:48:02 32.1 C 6.79 g/m*3 32.1 C 0 km/h
1050 30-08-2008 18:00:02 32.2 C 6.82 g/m*3 32.2 C 0 km/h
Sensor: Nr:Datum:Temp:Abs-Feuchte:Windchill:Wind:
Aussen-T/F 1051 30-08-2008 18:12:02 32.3 C 6.86 g/m*3 32.3 C 0 km/h
1052 30-08-2008 18:24:02 32 C 6.75 g/m*3 32 C 0 km/h
1053 30-08-2008 18:36:02 31.8 C 6.68 g/m*3 31.8 C 0 km/h
1054 30-08-2008 18:48:02 31.7 C 7.31 g/m*3 31.7 C 0 km/h
1055 30-08-2008 19:00:02 31.3 C 7.48 g/m*3 31.3 C 0 km/h
1056 30-08-2008 19:12:02 31 C 8 g/m*3 31 C 0 km/h
1057 30-08-2008 19:24:02 30.4 C 8.06 g/m*3 30.4 C 0 km/h
1058 30-08-2008 19:36:02 29.4 C 8.51 g/m*3 29.4 C 0 km/h
1059 30-08-2008 19:48:02 28.1 C 8.48 g/m*3 28.1 C 0 km/h
1060 30-08-2008 20:00:02 26.5 C 8.76 g/m*3 26.5 C 0 km/h
1061 30-08-2008 20:12:02 25.2 C 8.85 g/m*3 25.2 C 0 km/h
1062 30-08-2008 20:24:02 24.3 C 9.07 g/m*3 24.3 C 0 km/h
1063 30-08-2008 20:36:02 23.5 C 9.31 g/m*3 23.5 C 0 km/h
1064 30-08-2008 20:48:02 23 C 9.25 g/m*3 23 C 0 km/h
1065 30-08-2008 21:00:02 22.7 C 9.7 g/m*3 22.7 C 0 km/h
1066 30-08-2008 21:12:03 22.6 C 9.64 g/m*3 22.6 C 0 km/h
1067 30-08-2008 21:24:02 22.2 C 9.62 g/m*3 22.2 C 0 km/h
1068 30-08-2008 21:36:03 22 C 9.51 g/m*3 22 C 0 km/h
1069 30-08-2008 21:48:02 21.6 C 9.67 g/m*3 21.6 C 0 km/h
1070 30-08-2008 22:00:02 21.4 C 9.75 g/m*3 21.4 C 0 km/h
1071 30-08-2008 22:12:02 21.2 C 9.82 g/m*3 21.2 C 0 km/h
1072 30-08-2008 22:24:02 21 C 9.71 g/m*3 21 C 0 km/h
1073 30-08-2008 22:36:02 20.7 C 9.72 g/m*3 20.7 C 0 km/h
1074 30-08-2008 22:48:02 20.4 C 9.73 g/m*3 20.4 C 0 km/h
1075 30-08-2008 23:00:02 20.4 C 9.73 g/m*3 20.4 C 0 km/h
Sensor: Nr:Datum:Temp:Abs-Feuchte:Windchill:Wind:
Aussen-T/F 1076 30-08-2008 23:12:01 20.1 C 9.73 g/m*3 20.1 C 0 km/h
1077 30-08-2008 23:24:02 20 C 9.68 g/m*3 20 C 0 km/h
1078 30-08-2008 23:36:01 19.6 C 9.62 g/m*3 19.6 C 0 km/h
1079 30-08-2008 23:49:02 19.4 C 9.68 g/m*3 19.4 C 0 km/h
1080 31-08-2008 00:01:02 19.2 C 9.73 g/m*3 19.2 C 0 km/h
1081 31-08-2008 00:13:02 19.1 C 9.67 g/m*3 19.1 C 0 km/h
1082 31-08-2008 00:25:02 18.8 C 9.82 g/m*3 18.8 C 0 km/h
1083 31-08-2008 00:37:02 18.6 C 10.03 g/m*3 18.6 C 0 km/h
1084 31-08-2008 00:49:02 18.4 C 9.75 g/m*3 18.4 C 0 km/h
1085 31-08-2008 01:01:02 18.2 C 9.79 g/m*3 18.2 C 0 km/h
1086 31-08-2008 01:13:02 18.1 C 9.73 g/m*3 18.1 C 0 km/h
1087 31-08-2008 01:25:02 17.9 C 9.92 g/m*3 17.9 C 0 km/h
1088 31-08-2008 01:37:02 17.7 C 9.81 g/m*3 17.7 C 0 km/h
1089 31-08-2008 01:49:02 17.5 C 9.69 g/m*3 17.5 C 0 km/h
1090 31-08-2008 02:01:02 17.4 C 10.08 g/m*3 17.4 C 0 km/h
1091 31-08-2008 02:13:02 17.1 C 10.19 g/m*3 17.1 C 0 km/h
1092 31-08-2008 02:25:02 16.9 C 10.07 g/m*3 16.9 C 0 km/h
1093 31-08-2008 02:37:03 16.8 C 10.29 g/m*3 16.8 C 0 km/h
1094 31-08-2008 02:49:03 16.6 C 10.03 g/m*3 16.6 C 0 km/h
1095 31-08-2008 03:01:03 16.4 C 9.91 g/m*3 16.4 C 0 km/h
1096 31-08-2008 03:13:03 16.1 C 9.6 g/m*3 16.1 C 0 km/h
1097 31-08-2008 03:25:03 16 C 9.67 g/m*3 16 C 0 km/h
1098 31-08-2008 03:37:03 15.9 C 9.89 g/m*3 15.9 C 0 km/h
1099 31-08-2008 03:49:03 15.8 C 10.1 g/m*3 15.8 C 0 km/h
1100 31-08-2008 04:01:03 15.6 C 9.97 g/m*3 15.6 C 0 km/h
Sensor: Nr:Datum:Temp:Abs-Feuchte:Windchill:Wind:
Aussen-T/F 1101 31-08-2008 04:13:03 15.6 C 10.11 g/m*3 15.6 C 0 km/h
1102 31-08-2008 04:25:03 15.4 C 10.12 g/m*3 15.4 C 0 km/h
1103 31-08-2008 04:37:03 15.2 C 9.99 g/m*3 15.2 C 0 km/h
1104 31-08-2008 04:49:03 15.1 C 9.93 g/m*3 15.1 C 0 km/h
1105 31-08-2008 05:01:03 14.9 C 9.81 g/m*3 14.9 C 0 km/h
1106 31-08-2008 05:13:03 14.8 C 9.88 g/m*3 14.8 C 0 km/h
1107 31-08-2008 05:25:03 14.7 C 9.69 g/m*3 14.7 C 0 km/h
1108 31-08-2008 05:37:03 14.5 C 9.58 g/m*3 14.5 C 0 km/h
1109 31-08-2008 05:49:03 14.5 C 9.58 g/m*3 14.5 C 0 km/h
1110 31-08-2008 06:01:03 14.3 C 9.46 g/m*3 14.3 C 0 km/h
1111 31-08-2008 06:13:03 14.2 C 9.4 g/m*3 14.2 C 0 km/h
1112 31-08-2008 06:25:04 14.1 C 9.47 g/m*3 14.1 C 0 km/h
1113 31-08-2008 06:37:04 14 C 9.41 g/m*3 14 C 0 km/h
1114 31-08-2008 06:49:04 13.9 C 9.59 g/m*3 13.9 C 0 km/h
1115 31-08-2008 07:01:04 14 C 9.65 g/m*3 14 C 0 km/h
1116 31-08-2008 07:13:04 14 C 9.53 g/m*3 14 C 0 km/h
1117 31-08-2008 07:25:04 14 C 9.53 g/m*3 14 C 0 km/h
1118 31-08-2008 07:37:04 14 C 9.65 g/m*3 14 C 0 km/h
1119 31-08-2008 07:49:04 14.1 C 9.71 g/m*3 14.1 C 0 km/h
1120 31-08-2008 08:01:04 14.2 C 9.77 g/m*3 14.2 C 0 km/h
1121 31-08-2008 08:13:04 14.4 C 9.77 g/m*3 14.4 C 0 km/h
1122 31-08-2008 08:25:04 14.5 C 9.83 g/m*3 14.5 C 0 km/h
1123 31-08-2008 08:37:04 14.6 C 9.89 g/m*3 14.6 C 0 km/h
1124 31-08-2008 08:49:01 14.7 C 9.95 g/m*3 14.7 C 0 km/h
1125 31-08-2008 09:01:02 15 C 10 g/m*3 15 C 0 km/h
Sensor: Nr:Datum:Temp:Abs-Feuchte:Windchill:Wind:
Aussen-T/F 1126 31-08-2008 09:13:02 15.4 C 10.12 g/m*3 15.4 C 0 km/h
1127 31-08-2008 09:25:02 15.8 C 10.36 g/m*3 15.8 C 0 km/h
1128 31-08-2008 09:37:02 16.5 C 10.39 g/m*3 16.5 C 0 km/h
1129 31-08-2008 09:49:03 17.1 C 10.19 g/m*3 17.1 C 0 km/h
1130 31-08-2008 10:01:02 17.7 C 10.11 g/m*3 17.7 C 0 km/h
1131 31-08-2008 10:13:02 18.4 C 9.91 g/m*3 18.4 C 0 km/h
1132 31-08-2008 10:25:02 19 C 9.94 g/m*3 19 C 0 km/h
1133 31-08-2008 10:37:02 19.3 C 10.12 g/m*3 19.3 C 0 km/h
1134 31-08-2008 10:49:03 20 C 10.02 g/m*3 20 C 0 km/h
1135 31-08-2008 11:01:02 20.7 C 10.44 g/m*3 20.7 C 0 km/h
1136 31-08-2008 11:13:02 21.4 C 10.12 g/m*3 21.4 C 0 km/h
1137 31-08-2008 11:25:03 22.1 C 9.76 g/m*3 22.1 C 0 km/h
1138 31-08-2008 11:37:02 22.8 C 9.55 g/m*3 22.8 C 0 km/h
1139 31-08-2008 11:49:02 23.5 C 9.31 g/m*3 23.5 C 0 km/h
1140 31-08-2008 12:01:02 24.1 C 9.63 g/m*3 24.1 C 0 km/h
1141 31-08-2008 12:13:02 24.9 C 8.93 g/m*3 24.9 C 0 km/h
1142 31-08-2008 12:25:02 25.3 C 8.43 g/m*3 25.3 C 0 km/h
1143 31-08-2008 12:37:02 25.6 C 8.33 g/m*3 25.6 C 0 km/h
1144 31-08-2008 12:49:01 26 C 7.79 g/m*3 26 C 0 km/h
1145 31-08-2008 13:01:02 26.1 C 7.83 g/m*3 26.1 C 0 km/h
1146 31-08-2008 13:13:02 26.6 C 8.31 g/m*3 26.6 C 0 km/h
1147 31-08-2008 13:25:01 26.8 C 8.4 g/m*3 26.8 C 0 km/h
1148 31-08-2008 13:37:02 27.9 C 8.65 g/m*3 27.9 C 0 km/h
1149 31-08-2008 13:49:02 28.3 C 8.29 g/m*3 28.3 C 0 km/h
1150 31-08-2008 14:01:02 28.7 C 8.48 g/m*3 28.7 C 0 km/h
Sensor: Nr:Datum:Temp:Abs-Feuchte:Windchill:Wind:
Aussen-T/F 1151 31-08-2008 14:13:02 28.7 C 8.48 g/m*3 28.7 C 0 km/h
1152 31-08-2008 14:25:02 29.7 C 8.65 g/m*3 29.7 C 0 km/h
1153 31-08-2008 14:37:02 30.1 C 8.54 g/m*3 30.1 C 0 km/h
1154 31-08-2008 14:49:02 30.3 C 8.32 g/m*3 30.3 C 0 km/h
1155 31-08-2008 15:01:01 30.4 C 8.06 g/m*3 30.4 C 0 km/h
1156 31-08-2008 15:13:01 30.5 C 8.1 g/m*3 30.5 C 0 km/h
1157 31-08-2008 15:25:02 31 C 8 g/m*3 31 C 0 km/h
1158 31-08-2008 15:37:01 31.2 C 7.76 g/m*3 31.2 C 0 km/h
1159 31-08-2008 15:49:02 31.8 C 7.35 g/m*3 31.8 C 0 km/h
1160 31-08-2008 16:01:01 31.8 C 7.68 g/m*3 31.8 C 0 km/h
1161 31-08-2008 16:13:01 32 C 7.09 g/m*3 32 C 0 km/h
1162 31-08-2008 16:25:02 32 C 7.43 g/m*3 32 C 0 km/h
1163 31-08-2008 16:37:01 32.3 C 7.2 g/m*3 32.3 C 0 km/h
1164 31-08-2008 16:49:01 31.5 C 7.89 g/m*3 31.5 C 0 km/h
1165 31-08-2008 17:01:02 31.8 C 7.68 g/m*3 31.8 C 0 km/h
1166 31-08-2008 17:13:02 31.4 C 8.17 g/m*3 31.4 C 0 km/h
1167 31-08-2008 17:25:01 31.4 C 8.17 g/m*3 31.4 C 0 km/h
1168 31-08-2008 17:37:02 31.6 C 8.26 g/m*3 31.6 C 0 km/h
1169 31-08-2008 17:49:02 31.9 C 8.06 g/m*3 31.9 C 0 km/h
1170 31-08-2008 18:01:02 32.4 C 7.59 g/m*3 32.4 C 0 km/h
1171 31-08-2008 18:13:02 32.3 C 7.55 g/m*3 32.3 C 0 km/h
1172 31-08-2008 18:25:02 32.4 C 7.59 g/m*3 32.4 C 0 km/h
1173 31-08-2008 18:37:02 32.1 C 7.81 g/m*3 32.1 C 0 km/h
1174 31-08-2008 18:49:02 31.9 C 8.39 g/m*3 31.9 C 0 km/h
1175 31-08-2008 19:01:02 31.2 C 8.73 g/m*3 31.2 C 0 km/h
Sensor: Nr:Datum:Temp:Abs-Feuchte:Windchill:Wind:
Aussen-T/F 1176 31-08-2008 19:13:02 30.9 C 9.23 g/m*3 30.9 C 0 km/h
1177 31-08-2008 19:25:02 30.6 C 9.4 g/m*3 30.6 C 0 km/h
1178 31-08-2008 19:37:02 29.5 C 10.03 g/m*3 29.5 C 0 km/h
1179 31-08-2008 19:49:02 28.2 C 10.17 g/m*3 28.2 C 0 km/h
1180 31-08-2008 20:01:02 27.1 C 10.35 g/m*3 27.1 C 0 km/h
1181 31-08-2008 20:13:03 26.2 C 10.34 g/m*3 26.2 C 0 km/h
1182 31-08-2008 20:25:01 25.5 C 10.65 g/m*3 25.5 C 0 km/h
1183 31-08-2008 20:37:02 25 C 10.59 g/m*3 25 C 0 km/h
1184 31-08-2008 20:49:02 24.9 C 10.99 g/m*3 24.9 C 0 km/h
1185 31-08-2008 21:01:02 24.8 C 11.15 g/m*3 24.8 C 0 km/h
1186 31-08-2008 21:13:02 24.5 C 11.19 g/m*3 24.5 C 0 km/h
1187 31-08-2008 21:25:02 24.5 C 11.41 g/m*3 24.5 C 0 km/h
1188 31-08-2008 21:37:02 24.4 C 11.35 g/m*3 24.4 C 0 km/h
1189 31-08-2008 21:49:02 24.3 C 11.29 g/m*3 24.3 C 0 km/h
1190 31-08-2008 22:01:01 24.1 C 11.38 g/m*3 24.1 C 0 km/h
1191 31-08-2008 22:13:01 23.7 C 11.55 g/m*3 23.7 C 0 km/h
1192 31-08-2008 22:25:02 23.3 C 11.71 g/m*3 23.3 C 0 km/h
1193 31-08-2008 22:37:02 23 C 11.92 g/m*3 23 C 0 km/h
1194 31-08-2008 22:49:03 23 C 11.92 g/m*3 23 C 0 km/h
1195 31-08-2008 23:01:02 22.9 C 11.85 g/m*3 22.9 C 0 km/h
1196 31-08-2008 23:13:02 22.6 C 11.85 g/m*3 22.6 C 0 km/h
1197 31-08-2008 23:25:03 22.8 C 11.99 g/m*3 22.8 C 0 km/h
1198 31-08-2008 23:37:02 22.5 C 11.78 g/m*3 22.5 C 0 km/h
1199 31-08-2008 23:49:03 22.3 C 11.85 g/m*3 22.3 C 0 km/h
1200 01-09-2008 00:02:02 22.1 C 11.71 g/m*3 22.1 C 0 km/h
Sensor: Nr:Datum:Temp:Abs-Feuchte:Windchill:Wind:
Aussen-T/F 1201 01-09-2008 00:14:02 22.1 C 11.91 g/m*3 22.1 C 0 km/h
1202 01-09-2008 00:26:02 22 C 12.03 g/m*3 22 C 0 km/h
1203 01-09-2008 00:38:02 22.2 C 12.17 g/m*3 22.2 C 0 km/h
1204 01-09-2008 00:50:02 22 C 12.03 g/m*3 22 C 0 km/h
1205 01-09-2008 01:02:03 22 C 12.03 g/m*3 22 C 0 km/h
1206 01-09-2008 01:14:03 21.9 C 12.16 g/m*3 21.9 C 0 km/h
1207 01-09-2008 01:26:03 21.8 C 12.09 g/m*3 21.8 C 0 km/h
1208 01-09-2008 01:38:03 21.7 C 12.02 g/m*3 21.7 C 0 km/h
1209 01-09-2008 01:50:03 21.8 C 11.9 g/m*3 21.8 C 0 km/h
1210 01-09-2008 02:02:03 21.6 C 11.76 g/m*3 21.6 C 0 km/h
1211 01-09-2008 02:14:03 21.7 C 11.83 g/m*3 21.7 C 0 km/h
1212 01-09-2008 02:26:03 21.7 C 11.83 g/m*3 21.7 C 0 km/h
1213 01-09-2008 02:38:03 21.3 C 12.49 g/m*3 21.3 C 0 km/h
1214 01-09-2008 02:50:03 20.8 C 12.86 g/m*3 20.8 C 0 km/h
1215 01-09-2008 03:02:03 20.6 C 12.35 g/m*3 20.6 C 0 km/h
1216 01-09-2008 03:14:03 20.7 C 11.88 g/m*3 20.7 C 0 km/h
1217 01-09-2008 03:26:03 20.9 C 11.47 g/m*3 20.9 C 0 km/h
1218 01-09-2008 03:38:03 20.9 C 11.66 g/m*3 20.9 C 0 km/h
1219 01-09-2008 03:50:03 20.9 C 11.84 g/m*3 20.9 C 0 km/h
1220 01-09-2008 04:02:03 20.8 C 11.77 g/m*3 20.8 C 0 km/h
1221 01-09-2008 04:14:03 20.8 C 11.59 g/m*3 20.8 C 0 km/h
1222 01-09-2008 04:26:03 20.8 C 11.77 g/m*3 20.8 C 0 km/h
1223 01-09-2008 04:38:03 20.8 C 11.59 g/m*3 20.8 C 0 km/h
1224 01-09-2008 04:50:04 20.2 C 11.89 g/m*3 20.2 C 0 km/h
1225 01-09-2008 05:02:04 20 C 12.1 g/m*3 20 C 0 km/h
Sensor: Nr:Datum:Temp:Abs-Feuchte:Windchill:Wind:
Aussen-T/F 1226 01-09-2008 05:14:04 19.4 C 12.68 g/m*3 19.4 C 0 km/h
1227 01-09-2008 05:26:04 19.1 C 12.95 g/m*3 19.1 C 0 km/h
1228 01-09-2008 05:38:04 18.8 C 13.21 g/m*3 18.8 C 0 km/h
1229 01-09-2008 05:50:04 18.9 C 13.45 g/m*3 18.9 C 0 km/h
1230 01-09-2008 06:02:04 19.1 C 13.44 g/m*3 19.1 C 0 km/h
1231 01-09-2008 06:14:04 19.3 C 13.44 g/m*3 19.3 C 0 km/h
1232 01-09-2008 06:26:04 19.3 C 13.1 g/m*3 19.3 C 0 km/h
1233 01-09-2008 06:38:04 19.1 C 13.11 g/m*3 19.1 C 0 km/h
1234 01-09-2008 06:50:04 18.9 C 13.28 g/m*3 18.9 C 0 km/h
1235 01-09-2008 07:02:04 18.7 C 13.45 g/m*3 18.7 C 0 km/h
1236 01-09-2008 07:14:04 18.6 C 13.53 g/m*3 18.6 C 0 km/h
1237 01-09-2008 07:26:04 18.7 C 13.61 g/m*3 18.7 C 0 km/h
1238 01-09-2008 07:38:04 18.8 C 13.69 g/m*3 18.8 C 0 km/h
1239 01-09-2008 07:50:04 18.9 C 13.77 g/m*3 18.9 C 0 km/h
1240 01-09-2008 08:02:04 18.9 C 13.45 g/m*3 18.9 C 0 km/h
1241 01-09-2008 08:14:04 19.1 C 13.44 g/m*3 19.1 C 0 km/h
1242 01-09-2008 08:26:04 19.3 C 13.44 g/m*3 19.3 C 0 km/h
1243 01-09-2008 08:38:05 19.1 C 13.11 g/m*3 19.1 C 0 km/h
1244 01-09-2008 08:50:05 19.2 C 13.36 g/m*3 19.2 C 0 km/h
1245 01-09-2008 09:02:05 19.3 C 13.44 g/m*3 19.3 C 0 km/h
1246 01-09-2008 09:14:05 19.3 C 13.44 g/m*3 19.3 C 0 km/h
1247 01-09-2008 09:26:05 19.4 C 13.18 g/m*3 19.4 C 0 km/h
1248 01-09-2008 09:38:03 20.7 C 13.14 g/m*3 20.7 C 0 km/h
1249 01-09-2008 09:50:02 21.2 C 12.23 g/m*3 21.2 C 0 km/h
1250 01-09-2008 10:02:01 21.5 C 11.88 g/m*3 21.5 C 0 km/h
Sensor: Nr:Datum:Temp:Abs-Feuchte:Windchill:Wind:
Aussen-T/F 1251 01-09-2008 10:14:01 21.4 C 11.81 g/m*3 21.4 C 0 km/h
1252 01-09-2008 10:26:02 21.2 C 11.68 g/m*3 21.2 C 0 km/h
1253 01-09-2008 10:38:01 21.3 C 11.74 g/m*3 21.3 C 0 km/h
1254 01-09-2008 10:50:01 21.7 C 11.45 g/m*3 21.7 C 0 km/h
1255 01-09-2008 11:02:01 22.1 C 10.93 g/m*3 22.1 C 0 km/h
1256 01-09-2008 11:14:01 22.4 C 10.53 g/m*3 22.4 C 0 km/h
1257 01-09-2008 11:26:01 22.4 C 10.53 g/m*3 22.4 C 0 km/h
1258 01-09-2008 11:38:01 22.6 C 10.45 g/m*3 22.6 C 0 km/h
1259 01-09-2008 11:50:01 22.6 C 9.84 g/m*3 22.6 C 0 km/h
1260 01-09-2008 12:02:02 22.6 C 9.84 g/m*3 22.6 C 0 km/h
1261 01-09-2008 12:14:02 22.5 C 9.99 g/m*3 22.5 C 0 km/h
1262 01-09-2008 12:26:01 21.4 C 9.56 g/m*3 21.4 C 0 km/h
1263 01-09-2008 12:38:02 21.5 C 9.81 g/m*3 21.5 C 0 km/h
1264 01-09-2008 12:50:02 21.5 C 9.81 g/m*3 21.5 C 0 km/h
1265 01-09-2008 13:02:02 22 C 9.9 g/m*3 22 C 0 km/h
1266 01-09-2008 13:14:02 22.6 C 10.04 g/m*3 22.6 C 0 km/h
1267 01-09-2008 13:26:02 24.1 C 9.63 g/m*3 24.1 C 0 km/h
1268 01-09-2008 13:38:02 24.1 C 7.66 g/m*3 24.1 C 0 km/h
1269 01-09-2008 13:50:02 24 C 7.4 g/m*3 24 C 0 km/h
1270 01-09-2008 14:02:03 24.9 C 7.32 g/m*3 24.9 C 0 km/h
1271 01-09-2008 14:14:03 24.8 C 7.74 g/m*3 24.8 C 0 km/h
1272 01-09-2008 14:26:02 24.5 C 7.39 g/m*3 24.5 C 0 km/h
1273 01-09-2008 14:38:03 24.1 C 7.22 g/m*3 24.1 C 0 km/h
1274 01-09-2008 14:50:02 23.7 C 7.49 g/m*3 23.7 C 0 km/h
1275 01-09-2008 15:02:01 23.5 C 7.82 g/m*3 23.5 C 0 km/h
Sensor: Nr:Datum:Temp:Abs-Feuchte:Windchill:Wind:
Aussen-T/F 1276 01-09-2008 15:14:01 23.5 C 8.04 g/m*3 23.5 C 0 km/h
1277 01-09-2008 15:26:02 23.9 C 7.57 g/m*3 23.9 C 0 km/h
1278 01-09-2008 15:38:01 23.5 C 7.19 g/m*3 23.5 C 0 km/h
1279 01-09-2008 15:50:02 23.4 C 7.36 g/m*3 23.4 C 0 km/h
1280 01-09-2008 16:02:01 23.4 C 7.15 g/m*3 23.4 C 0 km/h
1281 01-09-2008 16:14:01 23.4 C 7.36 g/m*3 23.4 C 0 km/h
1282 01-09-2008 16:26:02 23.2 C 7.07 g/m*3 23.2 C 0 km/h
1283 01-09-2008 16:38:01 23.3 C 6.9 g/m*3 23.3 C 0 km/h
1284 01-09-2008 16:50:02 23.3 C 6.9 g/m*3 23.3 C 0 km/h
1285 01-09-2008 17:02:01 23.2 C 6.86 g/m*3 23.2 C 0 km/h
1286 01-09-2008 17:14:01 23.1 C 6.82 g/m*3 23.1 C 0 km/h
1287 01-09-2008 17:26:02 22.9 C 6.95 g/m*3 22.9 C 0 km/h
1288 01-09-2008 17:38:01 22.8 C 7.11 g/m*3 22.8 C 0 km/h
1289 01-09-2008 17:50:01 22.5 C 6.99 g/m*3 22.5 C 0 km/h
1290 01-09-2008 18:02:01 22.5 C 6.99 g/m*3 22.5 C 0 km/h
1291 01-09-2008 18:14:01 22.7 C 7.07 g/m*3 22.7 C 0 km/h
1292 01-09-2008 18:26:02 22.6 C 6.83 g/m*3 22.6 C 0 km/h
1293 01-09-2008 18:38:01 22 C 6.79 g/m*3 22 C 0 km/h
1294 01-09-2008 18:50:01 21.9 C 7.33 g/m*3 21.9 C 0 km/h
1295 01-09-2008 19:02:02 21.6 C 7.21 g/m*3 21.6 C 0 km/h
1296 01-09-2008 19:14:03 21.4 C 7.31 g/m*3 21.4 C 0 km/h
1297 01-09-2008 19:26:01 21.3 C 7.64 g/m*3 21.3 C 0 km/h
1298 01-09-2008 19:38:02 21 C 7.69 g/m*3 21 C 0 km/h
1299 01-09-2008 19:50:02 20.6 C 7.87 g/m*3 20.6 C 0 km/h
1300 01-09-2008 20:02:02 20 C 7.95 g/m*3 20 C 0 km/h
Sensor: Nr:Datum:Temp:Abs-Feuchte:Windchill:Wind:
Aussen-T/F 1301 01-09-2008 20:14:02 19.6 C 7.93 g/m*3 19.6 C 0 km/h
1302 01-09-2008 20:26:02 19.5 C 8.06 g/m*3 19.5 C 0 km/h
1303 01-09-2008 20:38:02 19.4 C 8.18 g/m*3 19.4 C 0 km/h
1304 01-09-2008 20:50:02 19.4 C 8.18 g/m*3 19.4 C 0 km/h
1305 01-09-2008 21:02:02 19.3 C 8.29 g/m*3 19.3 C 0 km/h
1306 01-09-2008 21:14:02 18.9 C 8.26 g/m*3 18.9 C 0 km/h
1307 01-09-2008 21:26:02 18.6 C 8.59 g/m*3 18.6 C 0 km/h
1308 01-09-2008 21:38:02 18.2 C 8.39 g/m*3 18.2 C 0 km/h
1309 01-09-2008 21:50:02 18 C 8.45 g/m*3 18 C 0 km/h
1310 01-09-2008 22:02:02 17.9 C 8.55 g/m*3 17.9 C 0 km/h
1311 01-09-2008 22:14:02 17.7 C 8.6 g/m*3 17.7 C 0 km/h
1312 01-09-2008 22:27:03 17.5 C 8.65 g/m*3 17.5 C 0 km/h
1313 01-09-2008 22:39:03 17.3 C 8.69 g/m*3 17.3 C 0 km/h
1314 01-09-2008 22:51:03 17.3 C 8.69 g/m*3 17.3 C 0 km/h
1315 01-09-2008 23:03:03 17.2 C 8.79 g/m*3 17.2 C 0 km/h
1316 01-09-2008 23:15:03 17 C 8.83 g/m*3 17 C 0 km/h
1317 01-09-2008 23:27:03 17 C 8.83 g/m*3 17 C 0 km/h
1318 01-09-2008 23:39:03 16.9 C 9.06 g/m*3 16.9 C 0 km/h
1319 01-09-2008 23:51:03 16.8 C 9.15 g/m*3 16.8 C 0 km/h
1320 02-09-2008 00:03:03 16.7 C 9.1 g/m*3 16.7 C 0 km/h
1321 02-09-2008 00:15:03 16.6 C 9.18 g/m*3 16.6 C 0 km/h
1322 02-09-2008 00:27:03 16.6 C 9.18 g/m*3 16.6 C 0 km/h
1323 02-09-2008 00:39:03 16.6 C 9.18 g/m*3 16.6 C 0 km/h
1324 02-09-2008 00:51:03 16.4 C 9.21 g/m*3 16.4 C 0 km/h
1325 02-09-2008 01:03:04 16 C 9.26 g/m*3 16 C 0 km/h
Sensor: Nr:Datum:Temp:Abs-Feuchte:Windchill:Wind:
Aussen-T/F 1326 02-09-2008 01:15:04 15.9 C 9.48 g/m*3 15.9 C 0 km/h
1327 02-09-2008 01:27:04 15.7 C 9.5 g/m*3 15.7 C 0 km/h
1328 02-09-2008 01:39:04 15.6 C 9.44 g/m*3 15.6 C 0 km/h
1329 02-09-2008 01:51:04 15.7 C 9.5 g/m*3 15.7 C 0 km/h
1330 02-09-2008 02:03:04 15.6 C 9.44 g/m*3 15.6 C 0 km/h
1331 02-09-2008 02:15:04 15.4 C 9.33 g/m*3 15.4 C 0 km/h
1332 02-09-2008 02:27:04 15.1 C 9.29 g/m*3 15.1 C 0 km/h
1333 02-09-2008 02:39:04 14.9 C 9.43 g/m*3 14.9 C 0 km/h
1334 02-09-2008 02:51:04 14.7 C 9.44 g/m*3 14.7 C 0 km/h
1335 02-09-2008 03:03:04 14.2 C 9.16 g/m*3 14.2 C 0 km/h
1336 02-09-2008 03:15:04 14.3 C 9.34 g/m*3 14.3 C 0 km/h
1337 02-09-2008 03:27:04 14.2 C 9.4 g/m*3 14.2 C 0 km/h
1338 02-09-2008 03:39:04 14 C 9.41 g/m*3 14 C 0 km/h
1339 02-09-2008 03:51:04 14 C 9.53 g/m*3 14 C 0 km/h
1340 02-09-2008 04:03:04 14 C 9.53 g/m*3 14 C 0 km/h
1341 02-09-2008 04:15:04 13.9 C 9.47 g/m*3 13.9 C 0 km/h
1342 02-09-2008 04:27:04 13.8 C 9.41 g/m*3 13.8 C 0 km/h
1343 02-09-2008 04:39:04 13.5 C 9.36 g/m*3 13.5 C 0 km/h
1344 02-09-2008 04:51:04 13.4 C 9.3 g/m*3 13.4 C 0 km/h
1345 02-09-2008 05:03:05 13.4 C 9.42 g/m*3 13.4 C 0 km/h
1346 02-09-2008 05:15:05 13.3 C 9.36 g/m*3 13.3 C 0 km/h
1347 02-09-2008 05:27:05 13.3 C 9.36 g/m*3 13.3 C 0 km/h
1348 02-09-2008 05:39:05 13.2 C 9.42 g/m*3 13.2 C 0 km/h
1349 02-09-2008 05:51:05 13 C 9.3 g/m*3 13 C 0 km/h
1350 02-09-2008 06:03:05 12.9 C 9.35 g/m*3 12.9 C 0 km/h
Sensor: Nr:Datum:Temp:Abs-Feuchte:Windchill:Wind:
Aussen-T/F 1351 02-09-2008 06:15:05 12.8 C 9.3 g/m*3 12.8 C 0 km/h
1352 02-09-2008 06:27:05 12.6 C 9.18 g/m*3 12.6 C 0 km/h
1353 02-09-2008 06:39:05 12.5 C 9.24 g/m*3 12.5 C 0 km/h
1354 02-09-2008 06:51:05 12.4 C 9.18 g/m*3 12.4 C 0 km/h
1355 02-09-2008 07:03:02 12.4 C 9.18 g/m*3 12.4 C 0 km/h
1356 02-09-2008 07:15:02 12.4 C 9.18 g/m*3 12.4 C 0 km/h
1357 02-09-2008 07:27:02 12.5 C 9.24 g/m*3 12.5 C 0 km/h
1358 02-09-2008 07:39:02 12.6 C 9.29 g/m*3 12.6 C 0 km/h
1359 02-09-2008 07:51:01 12.7 C 9.35 g/m*3 12.7 C 0 km/h
1360 02-09-2008 08:03:02 12.8 C 9.52 g/m*3 12.8 C 0 km/h
1361 02-09-2008 08:15:01 13.2 C 9.64 g/m*3 13.2 C 0 km/h
1362 02-09-2008 08:27:01 14 C 10.01 g/m*3 14 C 0 km/h
1363 02-09-2008 08:39:01 14.6 C 10.26 g/m*3 14.6 C 0 km/h
1364 02-09-2008 08:51:01 14.8 C 10.01 g/m*3 14.8 C 0 km/h
1365 02-09-2008 09:03:01 14.6 C 9.64 g/m*3 14.6 C 0 km/h
1366 02-09-2008 09:15:02 14.8 C 9.88 g/m*3 14.8 C 0 km/h
1367 02-09-2008 09:27:02 15.4 C 9.99 g/m*3 15.4 C 0 km/h
1368 02-09-2008 09:39:01 16.4 C 9.91 g/m*3 16.4 C 0 km/h
1369 02-09-2008 09:51:02 17.2 C 9.81 g/m*3 17.2 C 0 km/h
1370 02-09-2008 10:03:02 17.8 C 10.02 g/m*3 17.8 C 0 km/h
1371 02-09-2008 10:15:02 18.3 C 10.01 g/m*3 18.3 C 0 km/h
1372 02-09-2008 10:27:02 18.6 C 9.87 g/m*3 18.6 C 0 km/h
1373 02-09-2008 10:39:02 19 C 10.1 g/m*3 19 C 0 km/h
1374 02-09-2008 10:51:02 19.5 C 10.07 g/m*3 19.5 C 0 km/h
1375 02-09-2008 11:03:03 20 C 9.68 g/m*3 20 C 0 km/h
Sensor: Nr:Datum:Temp:Abs-Feuchte:Windchill:Wind:
Aussen-T/F 1376 02-09-2008 11:15:02 20.3 C 9.15 g/m*3 20.3 C 0 km/h
1377 02-09-2008 11:27:02 20.8 C 9.05 g/m*3 20.8 C 0 km/h
1378 02-09-2008 11:39:03 21.6 C 8.91 g/m*3 21.6 C 0 km/h
1379 02-09-2008 11:51:02 21.9 C 8.88 g/m*3 21.9 C 0 km/h
1380 02-09-2008 12:03:02 21.9 C 8.88 g/m*3 21.9 C 0 km/h
1381 02-09-2008 12:15:02 22 C 8.54 g/m*3 22 C 0 km/h
1382 02-09-2008 12:27:02 22.7 C 8.49 g/m*3 22.7 C 0 km/h
1383 02-09-2008 12:39:01 23 C 8.22 g/m*3 23 C 0 km/h
1384 02-09-2008 12:51:02 23.4 C 8.41 g/m*3 23.4 C 0 km/h
1385 02-09-2008 13:03:02 23.7 C 8.13 g/m*3 23.7 C 0 km/h
1386 02-09-2008 13:15:02 23.5 C 7.61 g/m*3 23.5 C 0 km/h
1387 02-09-2008 13:27:02 23.4 C 7.57 g/m*3 23.4 C 0 km/h
1388 02-09-2008 13:39:02 23.6 C 7.66 g/m*3 23.6 C 0 km/h
1389 02-09-2008 13:51:02 23.6 C 7.44 g/m*3 23.6 C 0 km/h
1390 02-09-2008 14:03:02 24.8 C 7.74 g/m*3 24.8 C 0 km/h
1391 02-09-2008 14:15:02 24.5 C 7.39 g/m*3 24.5 C 0 km/h
1392 02-09-2008 14:27:02 25.1 C 7.18 g/m*3 25.1 C 0 km/h
1393 02-09-2008 14:39:02 24.8 C 7.28 g/m*3 24.8 C 0 km/h
1394 02-09-2008 14:51:02 25.2 C 7.22 g/m*3 25.2 C 0 km/h
1395 02-09-2008 15:03:02 24.7 C 7.24 g/m*3 24.7 C 0 km/h
1396 02-09-2008 15:15:01 25.5 C 7.34 g/m*3 25.5 C 0 km/h
1397 02-09-2008 15:27:01 25.5 C 7.1 g/m*3 25.5 C 0 km/h
1398 02-09-2008 15:39:02 25.7 C 7.42 g/m*3 25.7 C 0 km/h
1399 02-09-2008 15:51:02 24.9 C 7.32 g/m*3 24.9 C 0 km/h
1400 02-09-2008 16:03:02 24.8 C 7.06 g/m*3 24.8 C 0 km/h
Sensor: Nr:Datum:Temp:Abs-Feuchte:Windchill:Wind:
Aussen-T/F 1401 02-09-2008 16:15:02 24.6 C 7.2 g/m*3 24.6 C 0 km/h
1402 02-09-2008 16:27:03 24.4 C 7.12 g/m*3 24.4 C 0 km/h
1403 02-09-2008 16:39:02 24.5 C 7.16 g/m*3 24.5 C 0 km/h
1404 02-09-2008 16:51:02 24.1 C 7.22 g/m*3 24.1 C 0 km/h
1405 02-09-2008 17:03:02 24 C 7.18 g/m*3 24 C 0 km/h
1406 02-09-2008 17:15:02 24 C 7.4 g/m*3 24 C 0 km/h
1407 02-09-2008 17:27:02 24.1 C 7.44 g/m*3 24.1 C 0 km/h
1408 02-09-2008 17:39:01 25.1 C 7.64 g/m*3 25.1 C 0 km/h
1409 02-09-2008 17:51:01 24.8 C 7.74 g/m*3 24.8 C 0 km/h
1410 02-09-2008 18:03:02 24.3 C 7.75 g/m*3 24.3 C 0 km/h
1411 02-09-2008 18:15:02 24.1 C 7.88 g/m*3 24.1 C 0 km/h
1412 02-09-2008 18:27:02 23.9 C 8 g/m*3 23.9 C 0 km/h
1413 02-09-2008 18:39:02 23.7 C 8.13 g/m*3 23.7 C 0 km/h
1414 02-09-2008 18:51:01 23.6 C 7.87 g/m*3 23.6 C 0 km/h
1415 02-09-2008 19:03:02 23.9 C 8 g/m*3 23.9 C 0 km/h
1416 02-09-2008 19:15:01 23.7 C 8.13 g/m*3 23.7 C 0 km/h
1417 02-09-2008 19:27:01 23.3 C 7.95 g/m*3 23.3 C 0 km/h
1418 02-09-2008 19:39:02 22.8 C 8.13 g/m*3 22.8 C 0 km/h
1419 02-09-2008 19:51:02 22.5 C 8.19 g/m*3 22.5 C 0 km/h
1420 02-09-2008 20:03:02 22.3 C 8.29 g/m*3 22.3 C 0 km/h
1421 02-09-2008 20:15:02 22.1 C 8.2 g/m*3 22.1 C 0 km/h
1422 02-09-2008 20:27:02 22 C 8.15 g/m*3 22 C 0 km/h
1423 02-09-2008 20:39:02 21.8 C 8.63 g/m*3 21.8 C 0 km/h
1424 02-09-2008 20:51:01 21.6 C 8.53 g/m*3 21.6 C 0 km/h
1425 02-09-2008 21:03:02 21.4 C 8.62 g/m*3 21.4 C 0 km/h
Sensor: Nr:Datum:Temp:Abs-Feuchte:Windchill:Wind:
Aussen-T/F 1426 02-09-2008 21:15:01 21.2 C 8.71 g/m*3 21.2 C 0 km/h
1427 02-09-2008 21:27:01 21.1 C 8.84 g/m*3 21.1 C 0 km/h
1428 02-09-2008 21:39:02 20.9 C 8.92 g/m*3 20.9 C 0 km/h
1429 02-09-2008 21:51:02 20.8 C 9.05 g/m*3 20.8 C 0 km/h
1430 02-09-2008 22:03:01 20.7 C 9 g/m*3 20.7 C 0 km/h
1431 02-09-2008 22:16:05 20.2 C 9.09 g/m*3 20.2 C 0 km/h
1432 02-09-2008 22:28:05 20 C 8.99 g/m*3 20 C 0 km/h
1433 02-09-2008 22:40:05 20 C 9.16 g/m*3 20 C 0 km/h
1434 02-09-2008 22:52:05 20.3 C 9.15 g/m*3 20.3 C 0 km/h
1435 02-09-2008 23:04:05 20.2 C 9.27 g/m*3 20.2 C 0 km/h
1436 02-09-2008 23:16:05 20.2 C 9.27 g/m*3 20.2 C 0 km/h
1437 02-09-2008 23:28:05 20.1 C 9.39 g/m*3 20.1 C 0 km/h
1438 02-09-2008 23:40:05 20.2 C 9.44 g/m*3 20.2 C 0 km/h
1439 02-09-2008 23:52:05 20.4 C 9.38 g/m*3 20.4 C 0 km/h
1440 03-09-2008 00:04:05 20.7 C 9.36 g/m*3 20.7 C 0 km/h
1441 03-09-2008 00:16:05 20.8 C 9.42 g/m*3 20.8 C 0 km/h
1442 03-09-2008 00:28:05 20.4 C 9.73 g/m*3 20.4 C 0 km/h
1443 03-09-2008 00:40:05 18.4 C 11.17 g/m*3 18.4 C 0 km/h
1444 03-09-2008 00:52:06 18 C 11.83 g/m*3 18 C 0 km/h
1445 03-09-2008 01:04:06 17.8 C 12.29 g/m*3 17.8 C 0 km/h
1446 03-09-2008 01:16:06 18 C 12.44 g/m*3 18 C 0 km/h
1447 03-09-2008 01:28:06 18.4 C 12.58 g/m*3 18.4 C 0 km/h
1448 03-09-2008 01:40:06 18.5 C 12.5 g/m*3 18.5 C 0 km/h
1449 03-09-2008 01:52:06 18.6 C 12.41 g/m*3 18.6 C 0 km/h
1450 03-09-2008 02:04:06 18.6 C 12.26 g/m*3 18.6 C 0 km/h
Sensor: Nr:Datum:Temp:Abs-Feuchte:Windchill:Wind:
Aussen-T/F 1451 03-09-2008 02:16:06 18.4 C 12.11 g/m*3 18.4 C 0 km/h
1452 03-09-2008 02:28:06 18.4 C 11.95 g/m*3 18.4 C 0 km/h
1453 03-09-2008 02:40:06 18.3 C 11.88 g/m*3 18.3 C 0 km/h
1454 03-09-2008 02:52:06 18.3 C 11.73 g/m*3 18.3 C 0 km/h
1455 03-09-2008 03:04:06 18.5 C 11.87 g/m*3 18.5 C 0 km/h
1456 03-09-2008 03:16:06 18.6 C 11.78 g/m*3 18.6 C 0 km/h
1457 03-09-2008 03:28:06 18.5 C 11.71 g/m*3 18.5 C 0 km/h
1458 03-09-2008 03:40:06 17.5 C 12.37 g/m*3 17.5 C 0 km/h
1459 03-09-2008 03:52:06 17 C 12.3 g/m*3 17 C 0 km/h
1460 03-09-2008 04:04:06 16.6 C 12.29 g/m*3 16.6 C 0 km/h
1461 03-09-2008 04:16:06 16.4 C 12.42 g/m*3 16.4 C 0 km/h
1462 03-09-2008 04:28:06 16.2 C 12.27 g/m*3 16.2 C 0 km/h
1463 03-09-2008 04:40:06 16.2 C 12.41 g/m*3 16.2 C 0 km/h
1464 03-09-2008 04:52:06 16 C 12.26 g/m*3 16 C 0 km/h
1465 03-09-2008 05:04:07 15.9 C 12.32 g/m*3 15.9 C 0 km/h
1466 03-09-2008 05:16:07 15.9 C 12.46 g/m*3 15.9 C 0 km/h
1467 03-09-2008 05:28:07 15.8 C 12.38 g/m*3 15.8 C 0 km/h
1468 03-09-2008 05:40:07 15.8 C 12.38 g/m*3 15.8 C 0 km/h
1469 03-09-2008 05:52:07 15.7 C 12.31 g/m*3 15.7 C 0 km/h
1470 03-09-2008 06:04:02 15.6 C 12.37 g/m*3 15.6 C 0 km/h
1471 03-09-2008 06:16:02 15.5 C 12.29 g/m*3 15.5 C 0 km/h
1472 03-09-2008 06:28:02 15.5 C 12.29 g/m*3 15.5 C 0 km/h
1473 03-09-2008 06:40:02 15.5 C 12.29 g/m*3 15.5 C 0 km/h
1474 03-09-2008 06:52:02 15.4 C 12.22 g/m*3 15.4 C 0 km/h
1475 03-09-2008 07:04:02 15.1 C 11.87 g/m*3 15.1 C 0 km/h
Sensor: Nr:Datum:Temp:Abs-Feuchte:Windchill:Wind:
Aussen-T/F 1476 03-09-2008 07:16:02 14.8 C 11.53 g/m*3 14.8 C 0 km/h
1477 03-09-2008 07:28:02 14.8 C 11.53 g/m*3 14.8 C 0 km/h
1478 03-09-2008 07:40:02 14.9 C 11.6 g/m*3 14.9 C 0 km/h
1479 03-09-2008 07:52:02 14.8 C 11.4 g/m*3 14.8 C 0 km/h
1480 03-09-2008 08:04:02 15 C 10.9 g/m*3 15 C 0 km/h
1481 03-09-2008 08:16:02 15.1 C 10.71 g/m*3 15.1 C 0 km/h
1482 03-09-2008 08:28:02 15 C 10.51 g/m*3 15 C 0 km/h
1483 03-09-2008 08:40:02 15.1 C 10.06 g/m*3 15.1 C 0 km/h
1484 03-09-2008 08:52:01 15.2 C 9.99 g/m*3 15.2 C 0 km/h
1485 03-09-2008 09:04:02 15.6 C 10.24 g/m*3 15.6 C 0 km/h
1486 03-09-2008 09:16:01 15.9 C 10.16 g/m*3 15.9 C 0 km/h
1487 03-09-2008 09:28:01 15.8 C 9.83 g/m*3 15.8 C 0 km/h
1488 03-09-2008 09:40:02 16.1 C 10.01 g/m*3 16.1 C 0 km/h
1489 03-09-2008 09:52:01 16.1 C 9.6 g/m*3 16.1 C 0 km/h
1490 03-09-2008 10:04:01 16 C 9.26 g/m*3 16 C 0 km/h
1491 03-09-2008 10:16:02 16.2 C 9.24 g/m*3 16.2 C 0 km/h
1492 03-09-2008 10:28:02 16.6 C 9.04 g/m*3 16.6 C 0 km/h
1493 03-09-2008 10:40:01 16.7 C 9.24 g/m*3 16.7 C 0 km/h
1494 03-09-2008 10:52:01 16.6 C 8.9 g/m*3 16.6 C 0 km/h
1495 03-09-2008 11:04:02 16.8 C 9.01 g/m*3 16.8 C 0 km/h
1496 03-09-2008 11:16:01 16.6 C 8.9 g/m*3 16.6 C 0 km/h
1497 03-09-2008 11:28:01 16.8 C 8.86 g/m*3 16.8 C 0 km/h
1498 03-09-2008 11:40:02 16.6 C 8.9 g/m*3 16.6 C 0 km/h
1499 03-09-2008 11:52:02 16.5 C 8.57 g/m*3 16.5 C 0 km/h
1500 03-09-2008 12:04:02 16.7 C 8.67 g/m*3 16.7 C 0 km/h
Sensor: Nr:Datum:Temp:Abs-Feuchte:Windchill:Wind:
Aussen-T/F 1501 03-09-2008 12:16:02 16.9 C 8.77 g/m*3 16.9 C 0 km/h
1502 03-09-2008 12:28:02 17 C 9.55 g/m*3 17 C 0 km/h
1503 03-09-2008 12:40:02 17.2 C 9.37 g/m*3 17.2 C 0 km/h
1504 03-09-2008 12:52:01 17.5 C 8.65 g/m*3 17.5 C 0 km/h
1505 03-09-2008 13:04:02 17.7 C 8.3 g/m*3 17.7 C 0 km/h
1506 03-09-2008 13:16:01 17.4 C 8.45 g/m*3 17.4 C 0 km/h
1507 03-09-2008 13:28:01 17.3 C 8.25 g/m*3 17.3 C 0 km/h
1508 03-09-2008 13:40:02 17 C 8.39 g/m*3 17 C 0 km/h
1509 03-09-2008 13:52:02 15.9 C 9.34 g/m*3 15.9 C 0 km/h
1510 03-09-2008 14:04:02 14.9 C 9.94 g/m*3 14.9 C 0 km/h
1511 03-09-2008 14:16:02 14.9 C 10.32 g/m*3 14.9 C 0 km/h
1512 03-09-2008 14:28:03 14.4 C 10.01 g/m*3 14.4 C 0 km/h
1513 03-09-2008 14:40:02 13.6 C 9.42 g/m*3 13.6 C 0 km/h
1514 03-09-2008 14:52:02 13.6 C 9.65 g/m*3 13.6 C 0 km/h
1515 03-09-2008 15:04:02 13.8 C 10.01 g/m*3 13.8 C 0 km/h
1516 03-09-2008 15:16:02 13.9 C 10.19 g/m*3 13.9 C 0 km/h
1517 03-09-2008 15:28:02 13.8 C 10.25 g/m*3 13.8 C 0 km/h
1518 03-09-2008 15:40:02 13.8 C 10.13 g/m*3 13.8 C 0 km/h
1519 03-09-2008 15:52:01 13.7 C 10.18 g/m*3 13.7 C 0 km/h
1520 03-09-2008 16:04:02 13.7 C 10.18 g/m*3 13.7 C 0 km/h
1521 03-09-2008 16:16:02 13.5 C 10.06 g/m*3 13.5 C 0 km/h
1522 03-09-2008 16:28:02 13.7 C 10.3 g/m*3 13.7 C 0 km/h
1523 03-09-2008 16:40:02 14 C 10.49 g/m*3 14 C 0 km/h
1524 03-09-2008 16:52:02 14 C 10.49 g/m*3 14 C 0 km/h
1525 03-09-2008 17:04:02 13.6 C 10.36 g/m*3 13.6 C 0 km/h
Sensor: Nr:Datum:Temp:Abs-Feuchte:Windchill:Wind:
Aussen-T/F 1526 03-09-2008 17:16:02 13.5 C 10.29 g/m*3 13.5 C 0 km/h
1527 03-09-2008 17:28:02 14 C 10.61 g/m*3 14 C 0 km/h
1528 03-09-2008 17:40:02 13.9 C 10.67 g/m*3 13.9 C 0 km/h
1529 03-09-2008 17:52:01 14.1 C 10.68 g/m*3 14.1 C 0 km/h
1530 03-09-2008 18:04:02 13.9 C 10.67 g/m*3 13.9 C 0 km/h
1531 03-09-2008 18:16:01 13.7 C 10.54 g/m*3 13.7 C 0 km/h
1532 03-09-2008 18:28:01 13.7 C 10.54 g/m*3 13.7 C 0 km/h
1533 03-09-2008 18:40:02 13.5 C 10.41 g/m*3 13.5 C 0 km/h
1534 03-09-2008 18:52:02 13.4 C 10.35 g/m*3 13.4 C 0 km/h
1535 03-09-2008 19:04:02 13.3 C 10.28 g/m*3 13.3 C 0 km/h
1536 03-09-2008 19:16:02 13 C 9.98 g/m*3 13 C 0 km/h
1537 03-09-2008 19:28:02 12.8 C 9.86 g/m*3 12.8 C 0 km/h
1538 03-09-2008 19:40:02 12.8 C 9.97 g/m*3 12.8 C 0 km/h
1539 03-09-2008 19:52:02 12.7 C 9.8 g/m*3 12.7 C 0 km/h
1540 03-09-2008 20:04:01 12.8 C 9.97 g/m*3 12.8 C 0 km/h
1541 03-09-2008 20:16:02 12.7 C 9.8 g/m*3 12.7 C 0 km/h
1542 03-09-2008 20:28:02 12.5 C 9.57 g/m*3 12.5 C 0 km/h
1543 03-09-2008 20:40:02 12.4 C 9.4 g/m*3 12.4 C 0 km/h
1544 03-09-2008 20:52:02 12.4 C 9.4 g/m*3 12.4 C 0 km/h
1545 03-09-2008 21:04:02 12.4 C 9.4 g/m*3 12.4 C 0 km/h
1546 03-09-2008 21:16:01 12.2 C 9.28 g/m*3 12.2 C 0 km/h
1547 03-09-2008 21:28:01 12.1 C 9.22 g/m*3 12.1 C 0 km/h
1548 03-09-2008 21:40:02 12.1 C 9.22 g/m*3 12.1 C 0 km/h
1549 03-09-2008 21:52:02 12.1 C 9.12 g/m*3 12.1 C 0 km/h
1550 03-09-2008 22:04:02 12 C 9.06 g/m*3 12 C 0 km/h
Sensor: Nr:Datum:Temp:Abs-Feuchte:Windchill:Wind:
Aussen-T/F 1551 03-09-2008 22:16:02 11.8 C 8.95 g/m*3 11.8 C 0 km/h
1552 03-09-2008 22:28:02 11.7 C 8.89 g/m*3 11.7 C 0 km/h
1553 03-09-2008 22:41:02 11.6 C 8.73 g/m*3 11.6 C 0 km/h
1554 03-09-2008 22:53:02 11.5 C 8.68 g/m*3 11.5 C 0 km/h
1555 03-09-2008 23:05:02 11.4 C 8.72 g/m*3 11.4 C 0 km/h
1556 03-09-2008 23:17:02 11.3 C 8.77 g/m*3 11.3 C 0 km/h
1557 03-09-2008 23:29:02 11.3 C 8.77 g/m*3 11.3 C 0 km/h
1558 03-09-2008 23:41:02 11.4 C 8.83 g/m*3 11.4 C 0 km/h
1559 03-09-2008 23:53:02 11.4 C 8.72 g/m*3 11.4 C 0 km/h
1560 04-09-2008 00:05:02 11.2 C 8.51 g/m*3 11.2 C 0 km/h
1561 04-09-2008 00:17:02 11.1 C 8.46 g/m*3 11.1 C 0 km/h
1562 04-09-2008 00:29:02 11 C 8.51 g/m*3 11 C 0 km/h
1563 04-09-2008 00:41:02 10.8 C 8.4 g/m*3 10.8 C 0 km/h
1564 04-09-2008 00:53:02 10.5 C 8.34 g/m*3 10.5 C 0 km/h
1565 04-09-2008 01:05:02 10.1 C 8.13 g/m*3 10.1 C 0 km/h
1566 04-09-2008 01:17:02 10 C 8.17 g/m*3 10 C 0 km/h
1567 04-09-2008 01:29:03 10.1 C 8.32 g/m*3 10.1 C 0 km/h
1568 04-09-2008 01:41:03 10.1 C 8.32 g/m*3 10.1 C 0 km/h
1569 04-09-2008 01:53:03 10.4 C 8.58 g/m*3 10.4 C 0 km/h
1570 04-09-2008 02:05:03 10.4 C 8.48 g/m*3 10.4 C 0 km/h
1571 04-09-2008 02:17:03 10.4 C 8.48 g/m*3 10.4 C 0 km/h
1572 04-09-2008 02:29:03 10.3 C 8.33 g/m*3 10.3 C 0 km/h
1573 04-09-2008 02:41:03 10.1 C 8.23 g/m*3 10.1 C 0 km/h
1574 04-09-2008 02:53:03 10 C 8.17 g/m*3 10 C 0 km/h
1575 04-09-2008 03:05:03 9.7 C 8.2 g/m*3 9.7 C 0 km/h
Sensor: Nr:Datum:Temp:Abs-Feuchte:Windchill:Wind:
Aussen-T/F 1576 04-09-2008 03:17:03 9.6 C 8.15 g/m*3 9.6 C 0 km/h
1577 04-09-2008 03:29:03 9.5 C 8.1 g/m*3 9.5 C 0 km/h
1578 04-09-2008 03:41:03 9.5 C 8.19 g/m*3 9.5 C 0 km/h
1579 04-09-2008 03:53:03 9.4 C 8.14 g/m*3 9.4 C 0 km/h
1580 04-09-2008 04:05:03 9.4 C 8.14 g/m*3 9.4 C 0 km/h
1581 04-09-2008 04:17:03 9.4 C 8.14 g/m*3 9.4 C 0 km/h
1582 04-09-2008 04:29:03 9.4 C 8.14 g/m*3 9.4 C 0 km/h
1583 04-09-2008 04:41:03 9.3 C 8.09 g/m*3 9.3 C 0 km/h
1584 04-09-2008 04:53:03 9.2 C 8.04 g/m*3 9.2 C 0 km/h
1585 04-09-2008 05:05:03 9.2 C 8.13 g/m*3 9.2 C 0 km/h
1586 04-09-2008 05:17:03 9.2 C 8.13 g/m*3 9.2 C 0 km/h
1587 04-09-2008 05:29:04 9.1 C 8.07 g/m*3 9.1 C 0 km/h
1588 04-09-2008 05:41:04 9 C 8.02 g/m*3 9 C 0 km/h
1589 04-09-2008 05:53:04 8.9 C 8.06 g/m*3 8.9 C 0 km/h
1590 04-09-2008 06:05:04 8.7 C 7.96 g/m*3 8.7 C 0 km/h
1591 04-09-2008 06:17:04 8.6 C 7.91 g/m*3 8.6 C 0 km/h
1592 04-09-2008 06:29:04 8.5 C 7.85 g/m*3 8.5 C 0 km/h
1593 04-09-2008 06:41:04 8.6 C 7.91 g/m*3 8.6 C 0 km/h
1594 04-09-2008 06:53:04 8.8 C 8.09 g/m*3 8.8 C 0 km/h
1595 04-09-2008 07:05:02 9.1 C 8.16 g/m*3 9.1 C 0 km/h
1596 04-09-2008 07:17:01 9.3 C 8.27 g/m*3 9.3 C 0 km/h
1597 04-09-2008 07:29:01 9.4 C 8.32 g/m*3 9.4 C 0 km/h
1598 04-09-2008 07:41:02 9.5 C 8.37 g/m*3 9.5 C 0 km/h
1599 04-09-2008 07:53:02 9.5 C 8.28 g/m*3 9.5 C 0 km/h
1600 04-09-2008 08:05:02 9.5 C 8.28 g/m*3 9.5 C 0 km/h
Sensor: Nr:Datum:Temp:Abs-Feuchte:Windchill:Wind:
Aussen-T/F 1601 04-09-2008 08:17:02 9.8 C 8.44 g/m*3 9.8 C 0 km/h
1602 04-09-2008 08:29:02 9.9 C 8.5 g/m*3 9.9 C 0 km/h
1603 04-09-2008 08:41:02 10.1 C 8.42 g/m*3 10.1 C 0 km/h
1604 04-09-2008 08:53:01 10.4 C 8.58 g/m*3 10.4 C 0 km/h
1605 04-09-2008 09:05:02 10.6 C 8.69 g/m*3 10.6 C 0 km/h
1606 04-09-2008 09:17:01 10.8 C 8.8 g/m*3 10.8 C 0 km/h
1607 04-09-2008 09:29:01 11.2 C 8.92 g/m*3 11.2 C 0 km/h
1608 04-09-2008 09:41:02 12 C 9.06 g/m*3 12 C 0 km/h
1609 04-09-2008 09:53:02 12.6 C 8.96 g/m*3 12.6 C 0 km/h
1610 04-09-2008 10:05:02 13.5 C 8.54 g/m*3 13.5 C 0 km/h
1611 04-09-2008 10:17:02 14 C 8.2 g/m*3 14 C 0 km/h
1612 04-09-2008 10:29:02 14.5 C 8.21 g/m*3 14.5 C 0 km/h
1613 04-09-2008 10:41:02 14.8 C 8.11 g/m*3 14.8 C 0 km/h
1614 04-09-2008 10:53:02 14.7 C 7.93 g/m*3 14.7 C 0 km/h
1615 04-09-2008 11:05:03 15.2 C 7.79 g/m*3 15.2 C 0 km/h
1616 04-09-2008 11:17:02 14.5 C 7.59 g/m*3 14.5 C 0 km/h
1617 04-09-2008 11:29:02 14.5 C 7.59 g/m*3 14.5 C 0 km/h
1618 04-09-2008 11:41:03 14.7 C 7.68 g/m*3 14.7 C 0 km/h
1619 04-09-2008 11:53:02 15.6 C 7.58 g/m*3 15.6 C 0 km/h
1620 04-09-2008 12:05:02 16.2 C 7.45 g/m*3 16.2 C 0 km/h
1621 04-09-2008 12:17:02 16.4 C 7.54 g/m*3 16.4 C 0 km/h
1622 04-09-2008 12:29:02 16.6 C 7.63 g/m*3 16.6 C 0 km/h
1623 04-09-2008 12:41:02 17.1 C 7.42 g/m*3 17.1 C 0 km/h
1624 04-09-2008 12:53:02 16.8 C 7.58 g/m*3 16.8 C 0 km/h
1625 04-09-2008 13:05:01 17.2 C 7.32 g/m*3 17.2 C 0 km/h
Sensor: Nr:Datum:Temp:Abs-Feuchte:Windchill:Wind:
Aussen-T/F 1626 04-09-2008 13:17:02 17.6 C 7.5 g/m*3 17.6 C 0 km/h
1627 04-09-2008 13:29:03 17.7 C 7.24 g/m*3 17.7 C 0 km/h
1628 04-09-2008 13:41:01 18 C 7.07 g/m*3 18 C 0 km/h
1629 04-09-2008 13:53:03 17.2 C 6.88 g/m*3 17.2 C 0 km/h
1630 04-09-2008 14:05:02 17.1 C 6.84 g/m*3 17.1 C 0 km/h
1631 04-09-2008 14:17:02 17.2 C 6.74 g/m*3 17.2 C 0 km/h
1632 04-09-2008 14:29:02 17.2 C 6.59 g/m*3 17.2 C 0 km/h
1633 04-09-2008 14:41:02 17.2 C 6.59 g/m*3 17.2 C 0 km/h
1634 04-09-2008 14:53:03 17.1 C 6.55 g/m*3 17.1 C 0 km/h
1635 04-09-2008 15:05:02 17.5 C 6.86 g/m*3 17.5 C 0 km/h
1636 04-09-2008 15:17:02 17.6 C 6.75 g/m*3 17.6 C 0 km/h
1637 04-09-2008 15:29:02 17.4 C 6.52 g/m*3 17.4 C 0 km/h
1638 04-09-2008 15:41:02 18 C 6.45 g/m*3 18 C 0 km/h
1639 04-09-2008 15:53:02 19 C 6.52 g/m*3 19 C 0 km/h
1640 04-09-2008 16:05:02 19.9 C 6.53 g/m*3 19.9 C 0 km/h
1641 04-09-2008 16:17:02 18.8 C 6.28 g/m*3 18.8 C 0 km/h
1642 04-09-2008 16:29:02 18.6 C 6.05 g/m*3 18.6 C 0 km/h
1643 04-09-2008 16:41:03 19.2 C 6.27 g/m*3 19.2 C 0 km/h
1644 04-09-2008 16:53:02 19 C 5.87 g/m*3 19 C 0 km/h
1645 04-09-2008 17:05:02 19.8 C 5.81 g/m*3 19.8 C 0 km/h
1646 04-09-2008 17:17:02 20 C 5.88 g/m*3 20 C 0 km/h
1647 04-09-2008 17:29:02 19.8 C 5.81 g/m*3 19.8 C 0 km/h
1648 04-09-2008 17:41:02 19.6 C 5.91 g/m*3 19.6 C 0 km/h
1649 04-09-2008 17:53:02 19.3 C 5.81 g/m*3 19.3 C 0 km/h
1650 04-09-2008 18:05:01 19.3 C 6.14 g/m*3 19.3 C 0 km/h
Sensor: Nr:Datum:Temp:Abs-Feuchte:Windchill:Wind:
Aussen-T/F 1651 04-09-2008 18:17:01 19.1 C 5.9 g/m*3 19.1 C 0 km/h
1652 04-09-2008 18:29:01 18.8 C 6.12 g/m*3 18.8 C 0 km/h
1653 04-09-2008 18:41:01 18.3 C 5.94 g/m*3 18.3 C 0 km/h
1654 04-09-2008 18:53:02 17.8 C 6.07 g/m*3 17.8 C 0 km/h
1655 04-09-2008 19:05:02 17.7 C 6.34 g/m*3 17.7 C 0 km/h
1656 04-09-2008 19:17:02 17.3 C 6.33 g/m*3 17.3 C 0 km/h
1657 04-09-2008 19:29:02 16.8 C 6.58 g/m*3 16.8 C 0 km/h
1658 04-09-2008 19:41:02 16.5 C 6.88 g/m*3 16.5 C 0 km/h
1659 04-09-2008 19:53:03 16.1 C 6.99 g/m*3 16.1 C 0 km/h
1660 04-09-2008 20:05:02 15.6 C 7.31 g/m*3 15.6 C 0 km/h
1661 04-09-2008 20:17:02 15.2 C 7.4 g/m*3 15.2 C 0 km/h
1662 04-09-2008 20:29:02 14.9 C 7.52 g/m*3 14.9 C 0 km/h
1663 04-09-2008 20:41:02 14.7 C 7.3 g/m*3 14.7 C 0 km/h
1664 04-09-2008 20:53:02 14.3 C 7.13 g/m*3 14.3 C 0 km/h
1665 04-09-2008 21:05:02 14.3 C 7.13 g/m*3 14.3 C 0 km/h
1666 04-09-2008 21:17:02 14.4 C 7.17 g/m*3 14.4 C 0 km/h
1667 04-09-2008 21:29:02 14.7 C 6.8 g/m*3 14.7 C 0 km/h
1668 04-09-2008 21:41:02 14.7 C 6.92 g/m*3 14.7 C 0 km/h
1669 04-09-2008 21:54:03 14.4 C 7.05 g/m*3 14.4 C 0 km/h
1670 04-09-2008 22:06:03 14.4 C 7.29 g/m*3 14.4 C 0 km/h
1671 04-09-2008 22:18:03 14.3 C 7.37 g/m*3 14.3 C 0 km/h
1672 04-09-2008 22:30:03 14.2 C 7.57 g/m*3 14.2 C 0 km/h
1673 04-09-2008 22:42:03 14 C 7.72 g/m*3 14 C 0 km/h
1674 04-09-2008 22:54:03 14 C 7.84 g/m*3 14 C 0 km/h
1675 04-09-2008 23:06:03 13.9 C 8.03 g/m*3 13.9 C 0 km/h
Sensor: Nr:Datum:Temp:Abs-Feuchte:Windchill:Wind:
Aussen-T/F 1676 04-09-2008 23:18:03 13.9 C 8.15 g/m*3 13.9 C 0 km/h
1677 04-09-2008 23:30:03 13.8 C 8.34 g/m*3 13.8 C 0 km/h
1678 04-09-2008 23:42:03 13.8 C 8.34 g/m*3 13.8 C 0 km/h
1679 04-09-2008 23:54:04 13.8 C 8.34 g/m*3 13.8 C 0 km/h
1680 05-09-2008 00:06:04 13.8 C 8.34 g/m*3 13.8 C 0 km/h
1681 05-09-2008 00:18:04 13.7 C 8.29 g/m*3 13.7 C 0 km/h
1682 05-09-2008 00:30:04 13.6 C 8.36 g/m*3 13.6 C 0 km/h
1683 05-09-2008 00:42:04 13.6 C 8.47 g/m*3 13.6 C 0 km/h
1684 05-09-2008 00:54:04 13.3 C 8.55 g/m*3 13.3 C 0 km/h
1685 05-09-2008 01:06:04 13.2 C 8.84 g/m*3 13.2 C 0 km/h
1686 05-09-2008 01:18:04 13.2 C 8.96 g/m*3 13.2 C 0 km/h
1687 05-09-2008 01:30:04 13.3 C 9.01 g/m*3 13.3 C 0 km/h
1688 05-09-2008 01:42:04 13.3 C 9.01 g/m*3 13.3 C 0 km/h
1689 05-09-2008 01:54:04 13.2 C 8.84 g/m*3 13.2 C 0 km/h
1690 05-09-2008 02:06:04 13.2 C 8.84 g/m*3 13.2 C 0 km/h
1691 05-09-2008 02:18:04 13.3 C 8.9 g/m*3 13.3 C 0 km/h
1692 05-09-2008 02:30:04 13.2 C 8.84 g/m*3 13.2 C 0 km/h
1693 05-09-2008 02:42:04 13.2 C 8.96 g/m*3 13.2 C 0 km/h
1694 05-09-2008 02:54:04 13 C 8.96 g/m*3 13 C 0 km/h
1695 05-09-2008 03:06:04 13 C 9.19 g/m*3 13 C 0 km/h
1696 05-09-2008 03:18:04 13 C 9.19 g/m*3 13 C 0 km/h
1697 05-09-2008 03:30:04 12.8 C 9.3 g/m*3 12.8 C 0 km/h
1698 05-09-2008 03:42:04 12.7 C 9.35 g/m*3 12.7 C 0 km/h
1699 05-09-2008 03:54:04 12.7 C 9.46 g/m*3 12.7 C 0 km/h
1700 05-09-2008 04:06:05 12.8 C 9.52 g/m*3 12.8 C 0 km/h
Sensor: Nr:Datum:Temp:Abs-Feuchte:Windchill:Wind:
Aussen-T/F 1701 05-09-2008 04:18:05 12.7 C 9.46 g/m*3 12.7 C 0 km/h
1702 05-09-2008 04:30:05 12.5 C 9.35 g/m*3 12.5 C 0 km/h
1703 05-09-2008 04:42:05 12.3 C 9.23 g/m*3 12.3 C 0 km/h
1704 05-09-2008 04:54:05 12.1 C 9.22 g/m*3 12.1 C 0 km/h
1705 05-09-2008 05:06:05 12.1 C 9.22 g/m*3 12.1 C 0 km/h
1706 05-09-2008 05:18:05 12.1 C 9.22 g/m*3 12.1 C 0 km/h
1707 05-09-2008 05:30:05 12.3 C 9.45 g/m*3 12.3 C 0 km/h
1708 05-09-2008 05:42:05 12.3 C 9.45 g/m*3 12.3 C 0 km/h
1709 05-09-2008 05:54:05 12.4 C 9.29 g/m*3 12.4 C 0 km/h
1710 05-09-2008 06:06:05 12.3 C 9.23 g/m*3 12.3 C 0 km/h
1711 05-09-2008 06:18:05 12.4 C 9.29 g/m*3 12.4 C 0 km/h
1712 05-09-2008 06:30:05 12.5 C 9.35 g/m*3 12.5 C 0 km/h
1713 05-09-2008 06:42:05 12.8 C 9.63 g/m*3 12.8 C 0 km/h
1714 05-09-2008 06:54:05 13 C 9.53 g/m*3 13 C 0 km/h
1715 05-09-2008 07:06:04 13.1 C 9.47 g/m*3 13.1 C 0 km/h
1716 05-09-2008 07:18:04 13 C 9.41 g/m*3 13 C 0 km/h
1717 05-09-2008 07:30:04 13 C 9.41 g/m*3 13 C 0 km/h
1718 05-09-2008 07:42:04 13.4 C 9.65 g/m*3 13.4 C 0 km/h
1719 05-09-2008 07:54:03 13.4 C 9.53 g/m*3 13.4 C 0 km/h
1720 05-09-2008 08:06:02 13.5 C 9.59 g/m*3 13.5 C 0 km/h
1721 05-09-2008 08:18:02 13.6 C 9.53 g/m*3 13.6 C 0 km/h
1722 05-09-2008 08:30:03 13.5 C 9.59 g/m*3 13.5 C 0 km/h
1723 05-09-2008 08:42:02 13.4 C 9.53 g/m*3 13.4 C 0 km/h
1724 05-09-2008 08:54:02 13.4 C 9.65 g/m*3 13.4 C 0 km/h
1725 05-09-2008 09:06:02 13.7 C 9.95 g/m*3 13.7 C 0 km/h
Sensor: Nr:Datum:Temp:Abs-Feuchte:Windchill:Wind:
Aussen-T/F 1726 05-09-2008 09:18:02 14.3 C 10.2 g/m*3 14.3 C 0 km/h
1727 05-09-2008 09:30:02 15.2 C 9.99 g/m*3 15.2 C 0 km/h
1728 05-09-2008 09:42:03 15.8 C 10.23 g/m*3 15.8 C 0 km/h
1729 05-09-2008 09:54:02 16.4 C 10.05 g/m*3 16.4 C 0 km/h
1730 05-09-2008 10:06:03 16.7 C 9.95 g/m*3 16.7 C 0 km/h
1731 05-09-2008 10:18:02 17.2 C 9.81 g/m*3 17.2 C 0 km/h
1732 05-09-2008 10:30:02 17.6 C 9.75 g/m*3 17.6 C 0 km/h
1733 05-09-2008 10:42:02 17.8 C 9.71 g/m*3 17.8 C 0 km/h
1734 05-09-2008 10:54:02 18.1 C 9.58 g/m*3 18.1 C 0 km/h
1735 05-09-2008 11:06:02 18.3 C 9.38 g/m*3 18.3 C 0 km/h
1736 05-09-2008 11:18:01 18.3 C 9.54 g/m*3 18.3 C 0 km/h
1737 05-09-2008 11:30:01 18.5 C 9.65 g/m*3 18.5 C 0 km/h
1738 05-09-2008 11:42:02 19.4 C 9.84 g/m*3 19.4 C 0 km/h
1739 05-09-2008 11:54:02 19.8 C 9.57 g/m*3 19.8 C 0 km/h
1740 05-09-2008 12:06:03 20.1 C 9.56 g/m*3 20.1 C 0 km/h
1741 05-09-2008 12:18:02 19.9 C 9.62 g/m*3 19.9 C 0 km/h
1742 05-09-2008 12:30:02 21.1 C 9.58 g/m*3 21.1 C 0 km/h
1743 05-09-2008 12:42:02 21.4 C 9.56 g/m*3 21.4 C 0 km/h
1744 05-09-2008 12:54:02 21.2 C 9.45 g/m*3 21.2 C 0 km/h
1745 05-09-2008 13:06:01 21.2 C 9.45 g/m*3 21.2 C 0 km/h
1746 05-09-2008 13:18:02 22.1 C 9.56 g/m*3 22.1 C 0 km/h
1747 05-09-2008 13:30:03 22.5 C 9.79 g/m*3 22.5 C 0 km/h
1748 05-09-2008 13:42:01 22.5 C 9.79 g/m*3 22.5 C 0 km/h
1749 05-09-2008 13:54:02 21.9 C 9.84 g/m*3 21.9 C 0 km/h
1750 05-09-2008 14:06:01 22.3 C 9.68 g/m*3 22.3 C 0 km/h
Sensor: Nr:Datum:Temp:Abs-Feuchte:Windchill:Wind:
Aussen-T/F 1751 05-09-2008 14:18:02 22.2 C 9.82 g/m*3 22.2 C 0 km/h
1752 05-09-2008 14:30:02 22.1 C 9.96 g/m*3 22.1 C 0 km/h
1753 05-09-2008 14:42:01 21.9 C 10.03 g/m*3 21.9 C 0 km/h
1754 05-09-2008 14:54:02 21.6 C 10.24 g/m*3 21.6 C 0 km/h
1755 05-09-2008 15:06:02 20.9 C 10.2 g/m*3 20.9 C 0 km/h
1756 05-09-2008 15:18:02 20.8 C 10.5 g/m*3 20.8 C 0 km/h
1757 05-09-2008 15:30:02 20.8 C 10.5 g/m*3 20.8 C 0 km/h
1758 05-09-2008 15:42:02 20.9 C 10.56 g/m*3 20.9 C 0 km/h
1759 05-09-2008 15:54:01 21.2 C 10.56 g/m*3 21.2 C 0 km/h
1760 05-09-2008 16:06:02 21.7 C 10.68 g/m*3 21.7 C 0 km/h
1761 05-09-2008 16:18:01 22.1 C 10.35 g/m*3 22.1 C 0 km/h
1762 05-09-2008 16:30:01 22 C 10.48 g/m*3 22 C 0 km/h
1763 05-09-2008 16:42:02 22.1 C 10.54 g/m*3 22.1 C 0 km/h
1764 05-09-2008 16:54:02 22.6 C 10.65 g/m*3 22.6 C 0 km/h
1765 05-09-2008 17:06:01 22.5 C 10.99 g/m*3 22.5 C 0 km/h
1766 05-09-2008 17:18:02 21.8 C 10.74 g/m*3 21.8 C 0 km/h
1767 05-09-2008 17:30:02 21.9 C 10.81 g/m*3 21.9 C 0 km/h
1768 05-09-2008 17:42:02 21.7 C 10.49 g/m*3 21.7 C 0 km/h
1769 05-09-2008 17:54:03 21.6 C 10.43 g/m*3 21.6 C 0 km/h
1770 05-09-2008 18:06:02 21.6 C 10.62 g/m*3 21.6 C 0 km/h
1771 05-09-2008 18:18:03 21.6 C 10.81 g/m*3 21.6 C 0 km/h
1772 05-09-2008 18:30:03 21.5 C 10.94 g/m*3 21.5 C 0 km/h
1773 05-09-2008 18:42:02 21.4 C 10.87 g/m*3 21.4 C 0 km/h
1774 05-09-2008 18:54:02 21.5 C 11.13 g/m*3 21.5 C 0 km/h
1775 05-09-2008 19:06:02 21.5 C 11.13 g/m*3 21.5 C 0 km/h
Sensor: Nr:Datum:Temp:Abs-Feuchte:Windchill:Wind:
Aussen-T/F 1776 05-09-2008 19:18:02 21 C 11.36 g/m*3 21 C 0 km/h
1777 05-09-2008 19:30:02 20 C 11.92 g/m*3 20 C 0 km/h
1778 05-09-2008 19:42:02 19.5 C 12.25 g/m*3 19.5 C 0 km/h
1779 05-09-2008 19:54:01 18.1 C 11.43 g/m*3 18.1 C 0 km/h
1780 05-09-2008 20:06:02 17.2 C 12.15 g/m*3 17.2 C 0 km/h
1781 05-09-2008 20:18:01 17 C 12.3 g/m*3 17 C 0 km/h
1782 05-09-2008 20:30:01 16.9 C 12.66 g/m*3 16.9 C 0 km/h
1783 05-09-2008 20:42:02 16.9 C 12.8 g/m*3 16.9 C 0 km/h
1784 05-09-2008 20:54:02 16.9 C 12.94 g/m*3 16.9 C 0 km/h
1785 05-09-2008 21:06:02 16.9 C 12.94 g/m*3 16.9 C 0 km/h
1786 05-09-2008 21:18:02 16.9 C 13.09 g/m*3 16.9 C 0 km/h
1787 05-09-2008 21:30:02 17 C 13.17 g/m*3 17 C 0 km/h
1788 05-09-2008 21:42:02 17 C 13.17 g/m*3 17 C 0 km/h
1789 05-09-2008 21:54:02 17.1 C 13.39 g/m*3 17.1 C 0 km/h
1790 05-09-2008 22:06:02 17.1 C 13.39 g/m*3 17.1 C 0 km/h
1791 05-09-2008 22:19:02 17.1 C 13.39 g/m*3 17.1 C 0 km/h
1792 05-09-2008 22:31:02 17.2 C 13.62 g/m*3 17.2 C 0 km/h
1793 05-09-2008 22:43:02 17.2 C 13.62 g/m*3 17.2 C 0 km/h
1794 05-09-2008 22:55:02 17.1 C 13.54 g/m*3 17.1 C 0 km/h
1795 05-09-2008 23:07:02 17 C 13.46 g/m*3 17 C 0 km/h
1796 05-09-2008 23:19:02 16.9 C 13.52 g/m*3 16.9 C 0 km/h
1797 05-09-2008 23:31:02 16.8 C 13.44 g/m*3 16.8 C 0 km/h
1798 05-09-2008 23:43:03 16.8 C 13.44 g/m*3 16.8 C 0 km/h
1799 05-09-2008 23:55:03 16.7 C 13.36 g/m*3 16.7 C 0 km/h
1800 06-09-2008 00:07:03 16.5 C 13.2 g/m*3 16.5 C 0 km/h
Sensor: Nr:Datum:Temp:Abs-Feuchte:Windchill:Wind:
Aussen-T/F 1801 06-09-2008 00:19:03 16.4 C 13.12 g/m*3 16.4 C 0 km/h
1802 06-09-2008 00:31:03 16.4 C 13.12 g/m*3 16.4 C 0 km/h
1803 06-09-2008 00:43:03 16.4 C 13.12 g/m*3 16.4 C 0 km/h
1804 06-09-2008 00:55:03 16.4 C 13.26 g/m*3 16.4 C 0 km/h
1805 06-09-2008 01:07:03 16.1 C 12.88 g/m*3 16.1 C 0 km/h
1806 06-09-2008 01:19:03 16 C 12.81 g/m*3 16 C 0 km/h
1807 06-09-2008 01:31:03 15.9 C 12.87 g/m*3 15.9 C 0 km/h
1808 06-09-2008 01:43:03 15.7 C 12.71 g/m*3 15.7 C 0 km/h
1809 06-09-2008 01:55:03 15.6 C 12.63 g/m*3 15.6 C 0 km/h
1810 06-09-2008 02:07:03 15.6 C 12.63 g/m*3 15.6 C 0 km/h
1811 06-09-2008 02:19:03 15.7 C 12.71 g/m*3 15.7 C 0 km/h
1812 06-09-2008 02:31:03 15.7 C 12.71 g/m*3 15.7 C 0 km/h
1813 06-09-2008 02:43:03 15.7 C 12.71 g/m*3 15.7 C 0 km/h
1814 06-09-2008 02:55:03 15.7 C 12.71 g/m*3 15.7 C 0 km/h
1815 06-09-2008 03:07:03 15.6 C 12.5 g/m*3 15.6 C 0 km/h
1816 06-09-2008 03:19:03 15.6 C 12.5 g/m*3 15.6 C 0 km/h
1817 06-09-2008 03:31:04 15.6 C 12.5 g/m*3 15.6 C 0 km/h
1818 06-09-2008 03:43:04 15.6 C 12.5 g/m*3 15.6 C 0 km/h
1819 06-09-2008 03:55:04 15.5 C 12.56 g/m*3 15.5 C 0 km/h
1820 06-09-2008 04:07:04 15.5 C 12.56 g/m*3 15.5 C 0 km/h
1821 06-09-2008 04:19:04 15.5 C 12.56 g/m*3 15.5 C 0 km/h
1822 06-09-2008 04:31:04 15.4 C 12.48 g/m*3 15.4 C 0 km/h
1823 06-09-2008 04:43:04 15.4 C 12.48 g/m*3 15.4 C 0 km/h
1824 06-09-2008 04:55:04 15.2 C 12.33 g/m*3 15.2 C 0 km/h
1825 06-09-2008 05:07:04 15.2 C 12.33 g/m*3 15.2 C 0 km/h
Sensor: Nr:Datum:Temp:Abs-Feuchte:Windchill:Wind:
Aussen-T/F 1826 06-09-2008 05:19:04 15.2 C 12.33 g/m*3 15.2 C 0 km/h
1827 06-09-2008 05:31:04 15.3 C 12.41 g/m*3 15.3 C 0 km/h
1828 06-09-2008 05:43:04 15.3 C 12.41 g/m*3 15.3 C 0 km/h
1829 06-09-2008 05:55:04 15.4 C 12.48 g/m*3 15.4 C 0 km/h
1830 06-09-2008 06:07:04 15.6 C 12.63 g/m*3 15.6 C 0 km/h
1831 06-09-2008 06:19:04 15.7 C 12.71 g/m*3 15.7 C 0 km/h
1832 06-09-2008 06:31:04 15.8 C 12.79 g/m*3 15.8 C 0 km/h
1833 06-09-2008 06:43:04 15.8 C 12.79 g/m*3 15.8 C 0 km/h
1834 06-09-2008 06:55:04 15.7 C 12.71 g/m*3 15.7 C 0 km/h
1835 06-09-2008 07:07:04 15.8 C 12.79 g/m*3 15.8 C 0 km/h
1836 06-09-2008 07:19:05 15.7 C 12.71 g/m*3 15.7 C 0 km/h
1837 06-09-2008 07:31:05 16 C 12.81 g/m*3 16 C 0 km/h
1838 06-09-2008 07:43:05 16.2 C 12.82 g/m*3 16.2 C 0 km/h
1839 06-09-2008 07:55:05 16.3 C 12.62 g/m*3 16.3 C 0 km/h
1840 06-09-2008 08:07:02 16.3 C 12.35 g/m*3 16.3 C 0 km/h
1841 06-09-2008 08:19:02 16.3 C 12.35 g/m*3 16.3 C 0 km/h
1842 06-09-2008 08:31:02 16.6 C 12.57 g/m*3 16.6 C 0 km/h
1843 06-09-2008 08:43:02 17 C 12.44 g/m*3 17 C 0 km/h
1844 06-09-2008 08:55:02 17.1 C 12.23 g/m*3 17.1 C 0 km/h
1845 06-09-2008 09:07:03 17.4 C 12.45 g/m*3 17.4 C 0 km/h
1846 06-09-2008 09:19:02 18 C 12.13 g/m*3 18 C 0 km/h
1847 06-09-2008 09:31:02 18.5 C 12.02 g/m*3 18.5 C 0 km/h
1848 06-09-2008 09:43:02 18.5 C 11.71 g/m*3 18.5 C 0 km/h
1849 06-09-2008 09:55:02 19.1 C 11.47 g/m*3 19.1 C 0 km/h
1850 06-09-2008 10:07:02 19.5 C 11.24 g/m*3 19.5 C 0 km/h
Sensor: Nr:Datum:Temp:Abs-Feuchte:Windchill:Wind:
Aussen-T/F 1851 06-09-2008 10:19:02 19.6 C 10.97 g/m*3 19.6 C 0 km/h
1852 06-09-2008 10:31:02 20.2 C 10.84 g/m*3 20.2 C 0 km/h
1853 06-09-2008 10:43:02 20 C 10.54 g/m*3 20 C 0 km/h
1854 06-09-2008 10:55:02 20.3 C 10.73 g/m*3 20.3 C 0 km/h
1855 06-09-2008 11:07:01 20.4 C 10.61 g/m*3 20.4 C 0 km/h
1856 06-09-2008 11:19:01 20.9 C 10.56 g/m*3 20.9 C 0 km/h
1857 06-09-2008 11:31:02 20.9 C 10.38 g/m*3 20.9 C 0 km/h
1858 06-09-2008 11:43:02 21.3 C 10.25 g/m*3 21.3 C 0 km/h
1859 06-09-2008 11:55:02 21.7 C 10.3 g/m*3 21.7 C 0 km/h
1860 06-09-2008 12:07:02 21.2 C 10.01 g/m*3 21.2 C 0 km/h
1861 06-09-2008 12:19:02 21.3 C 10.25 g/m*3 21.3 C 0 km/h
1862 06-09-2008 12:31:02 21 C 9.89 g/m*3 21 C 0 km/h
1863 06-09-2008 12:43:02 20.8 C 10.14 g/m*3 20.8 C 0 km/h
1864 06-09-2008 12:55:02 20.8 C 10.32 g/m*3 20.8 C 0 km/h
1865 06-09-2008 13:07:02 20.8 C 10.32 g/m*3 20.8 C 0 km/h
1866 06-09-2008 13:19:02 20.8 C 9.6 g/m*3 20.8 C 0 km/h
1867 06-09-2008 13:31:02 20.9 C 9.47 g/m*3 20.9 C 0 km/h
1868 06-09-2008 13:43:02 20.8 C 9.6 g/m*3 20.8 C 0 km/h
1869 06-09-2008 13:55:01 20.6 C 9.66 g/m*3 20.6 C 0 km/h
1870 06-09-2008 14:07:02 20.3 C 9.5 g/m*3 20.3 C 0 km/h
1871 06-09-2008 14:19:02 20.4 C 9.38 g/m*3 20.4 C 0 km/h
1872 06-09-2008 14:31:02 20.2 C 9.79 g/m*3 20.2 C 0 km/h
1873 06-09-2008 14:43:02 20 C 9.85 g/m*3 20 C 0 km/h
1874 06-09-2008 14:55:02 19.8 C 9.57 g/m*3 19.8 C 0 km/h
1875 06-09-2008 15:07:02 19.8 C 8.71 g/m*3 19.8 C 0 km/h
Sensor: Nr:Datum:Temp:Abs-Feuchte:Windchill:Wind:
Aussen-T/F 1876 06-09-2008 15:19:02 19.7 C 8.32 g/m*3 19.7 C 0 km/h
1877 06-09-2008 15:31:02 19.8 C 8.03 g/m*3 19.8 C 0 km/h
1878 06-09-2008 15:43:03 19.8 C 8.03 g/m*3 19.8 C 0 km/h
1879 06-09-2008 15:55:01 19.5 C 8.06 g/m*3 19.5 C 0 km/h
1880 06-09-2008 16:07:02 19.4 C 8.18 g/m*3 19.4 C 0 km/h
1881 06-09-2008 16:19:01 19.3 C 8.79 g/m*3 19.3 C 0 km/h
1882 06-09-2008 16:31:02 19.3 C 8.79 g/m*3 19.3 C 0 km/h
1883 06-09-2008 16:43:02 19.2 C 9.23 g/m*3 19.2 C 0 km/h
1884 06-09-2008 16:55:02 19.2 C 9.56 g/m*3 19.2 C 0 km/h
1885 06-09-2008 17:07:02 19 C 9.61 g/m*3 19 C 0 km/h
1886 06-09-2008 17:19:02 18.1 C 10.66 g/m*3 18.1 C 0 km/h
1887 06-09-2008 17:31:02 17.9 C 11.3 g/m*3 17.9 C 0 km/h
1888 06-09-2008 17:43:02 18 C 10.91 g/m*3 18 C 0 km/h
1889 06-09-2008 17:55:02 18.1 C 11.12 g/m*3 18.1 C 0 km/h
1890 06-09-2008 18:07:01 18.3 C 10.94 g/m*3 18.3 C 0 km/h
1891 06-09-2008 18:19:02 18.5 C 10.76 g/m*3 18.5 C 0 km/h
1892 06-09-2008 18:31:01 18.5 C 10.76 g/m*3 18.5 C 0 km/h
1893 06-09-2008 18:43:01 18.4 C 10.85 g/m*3 18.4 C 0 km/h
1894 06-09-2008 18:55:03 18 C 10.75 g/m*3 18 C 0 km/h
1895 06-09-2008 19:07:02 17.9 C 10.99 g/m*3 17.9 C 0 km/h
1896 06-09-2008 19:19:02 17.7 C 11.01 g/m*3 17.7 C 0 km/h
1897 06-09-2008 19:31:02 17.5 C 11.03 g/m*3 17.5 C 0 km/h
1898 06-09-2008 19:43:02 17.4 C 10.82 g/m*3 17.4 C 0 km/h
1899 06-09-2008 19:55:02 17.5 C 10.88 g/m*3 17.5 C 0 km/h
1900 06-09-2008 20:07:02 17.2 C 10.98 g/m*3 17.2 C 0 km/h
Sensor: Nr:Datum:Temp:Abs-Feuchte:Windchill:Wind:
Aussen-T/F 1901 06-09-2008 20:19:02 17.1 C 10.92 g/m*3 17.1 C 0 km/h
1902 06-09-2008 20:31:02 16.9 C 10.93 g/m*3 16.9 C 0 km/h
1903 06-09-2008 20:43:02 16.8 C 10.87 g/m*3 16.8 C 0 km/h
1904 06-09-2008 20:55:02 16.8 C 10.58 g/m*3 16.8 C 0 km/h
1905 06-09-2008 21:07:02 16.7 C 10.23 g/m*3 16.7 C 0 km/h
1906 06-09-2008 21:19:02 16.6 C 10.31 g/m*3 16.6 C 0 km/h
1907 06-09-2008 21:31:02 16.4 C 10.33 g/m*3 16.4 C 0 km/h
1908 06-09-2008 21:43:02 16.2 C 10.34 g/m*3 16.2 C 0 km/h
1909 06-09-2008 21:55:01 16 C 10.49 g/m*3 16 C 0 km/h
1910 06-09-2008 22:07:01 15.9 C 10.56 g/m*3 15.9 C 0 km/h
1911 06-09-2008 22:20:02 15.9 C 10.56 g/m*3 15.9 C 0 km/h
1912 06-09-2008 22:32:02 15.7 C 10.57 g/m*3 15.7 C 0 km/h
1913 06-09-2008 22:44:02 15.6 C 10.51 g/m*3 15.6 C 0 km/h
1914 06-09-2008 22:56:02 15.5 C 10.44 g/m*3 15.5 C 0 km/h
1915 06-09-2008 23:08:02 15.4 C 10.38 g/m*3 15.4 C 0 km/h
1916 06-09-2008 23:20:02 15.4 C 10.51 g/m*3 15.4 C 0 km/h
1917 06-09-2008 23:32:02 15.4 C 10.38 g/m*3 15.4 C 0 km/h
1918 06-09-2008 23:44:02 15.6 C 10.51 g/m*3 15.6 C 0 km/h
1919 06-09-2008 23:56:02 15.6 C 10.51 g/m*3 15.6 C 0 km/h
1920 07-09-2008 00:08:02 15.3 C 10.19 g/m*3 15.3 C 0 km/h
1921 07-09-2008 00:20:02 15.2 C 10.25 g/m*3 15.2 C 0 km/h
1922 07-09-2008 00:32:02 15.2 C 10.25 g/m*3 15.2 C 0 km/h
1923 07-09-2008 00:44:02 15.3 C 10.32 g/m*3 15.3 C 0 km/h
1924 07-09-2008 00:56:02 15.3 C 10.32 g/m*3 15.3 C 0 km/h
1925 07-09-2008 01:08:02 15.3 C 10.32 g/m*3 15.3 C 0 km/h
Sensor: Nr:Datum:Temp:Abs-Feuchte:Windchill:Wind:
Aussen-T/F 1926 07-09-2008 01:20:02 15.2 C 10.25 g/m*3 15.2 C 0 km/h
1927 07-09-2008 01:32:03 15.3 C 10.19 g/m*3 15.3 C 0 km/h
1928 07-09-2008 01:44:03 15.3 C 10.06 g/m*3 15.3 C 0 km/h
1929 07-09-2008 01:56:03 15.2 C 9.99 g/m*3 15.2 C 0 km/h
1930 07-09-2008 02:08:03 15.3 C 10.06 g/m*3 15.3 C 0 km/h
1931 07-09-2008 02:20:03 15.3 C 9.92 g/m*3 15.3 C 0 km/h
1932 07-09-2008 02:32:03 15.1 C 9.8 g/m*3 15.1 C 0 km/h
1933 07-09-2008 02:44:03 15 C 9.87 g/m*3 15 C 0 km/h
1934 07-09-2008 02:56:03 14.7 C 9.82 g/m*3 14.7 C 0 km/h
1935 07-09-2008 03:08:03 14.4 C 9.64 g/m*3 14.4 C 0 km/h
1936 07-09-2008 03:20:03 14.3 C 9.71 g/m*3 14.3 C 0 km/h
1937 07-09-2008 03:32:03 14.4 C 9.77 g/m*3 14.4 C 0 km/h
1938 07-09-2008 03:44:03 14.3 C 9.58 g/m*3 14.3 C 0 km/h
1939 07-09-2008 03:56:03 14.1 C 9.47 g/m*3 14.1 C 0 km/h
1940 07-09-2008 04:08:03 14.1 C 9.59 g/m*3 14.1 C 0 km/h
1941 07-09-2008 04:20:03 14.1 C 9.47 g/m*3 14.1 C 0 km/h
1942 07-09-2008 04:32:03 13.8 C 9.53 g/m*3 13.8 C 0 km/h
1943 07-09-2008 04:44:03 14.1 C 9.59 g/m*3 14.1 C 0 km/h
1944 07-09-2008 04:56:03 14.2 C 9.65 g/m*3 14.2 C 0 km/h
1945 07-09-2008 05:08:03 13.9 C 9.47 g/m*3 13.9 C 0 km/h
1946 07-09-2008 05:20:04 13.7 C 9.47 g/m*3 13.7 C 0 km/h
1947 07-09-2008 05:32:04 13.5 C 9.47 g/m*3 13.5 C 0 km/h
1948 07-09-2008 05:44:04 13.2 C 9.42 g/m*3 13.2 C 0 km/h
1949 07-09-2008 05:56:04 13.1 C 9.47 g/m*3 13.1 C 0 km/h
1950 07-09-2008 06:08:04 13.1 C 9.47 g/m*3 13.1 C 0 km/h
Sensor: Nr:Datum:Temp:Abs-Feuchte:Windchill:Wind:
Aussen-T/F 1951 07-09-2008 06:20:04 13.1 C 9.47 g/m*3 13.1 C 0 km/h
1952 07-09-2008 06:32:04 13.2 C 9.42 g/m*3 13.2 C 0 km/h
1953 07-09-2008 06:44:04 13.5 C 9.59 g/m*3 13.5 C 0 km/h
1954 07-09-2008 06:56:04 13.7 C 9.47 g/m*3 13.7 C 0 km/h
1955 07-09-2008 07:08:04 13.8 C 9.29 g/m*3 13.8 C 0 km/h
1956 07-09-2008 07:20:04 13.8 C 9.17 g/m*3 13.8 C 0 km/h
1957 07-09-2008 07:32:04 13.8 C 9.17 g/m*3 13.8 C 0 km/h
1958 07-09-2008 07:44:04 14.1 C 9.1 g/m*3 14.1 C 0 km/h
1959 07-09-2008 07:56:04 14.3 C 8.97 g/m*3 14.3 C 0 km/h
1960 07-09-2008 08:08:04 14.3 C 9.09 g/m*3 14.3 C 0 km/h
1961 07-09-2008 08:20:04 14.5 C 9.2 g/m*3 14.5 C 0 km/h
1962 07-09-2008 08:32:04 14.6 C 9.26 g/m*3 14.6 C 0 km/h
1963 07-09-2008 08:44:04 14.7 C 9.07 g/m*3 14.7 C 0 km/h
1964 07-09-2008 08:56:04 15.3 C 9.27 g/m*3 15.3 C 0 km/h
1965 07-09-2008 09:08:01 15.8 C 9.42 g/m*3 15.8 C 0 km/h
1966 07-09-2008 09:20:02 16.1 C 8.5 g/m*3 16.1 C 0 km/h
1967 07-09-2008 09:32:02 16.1 C 8.5 g/m*3 16.1 C 0 km/h
1968 07-09-2008 09:44:02 15.9 C 8.4 g/m*3 15.9 C 0 km/h
1969 07-09-2008 09:56:03 16.3 C 8.46 g/m*3 16.3 C 0 km/h
1970 07-09-2008 10:08:02 17.3 C 8.4 g/m*3 17.3 C 0 km/h
1971 07-09-2008 10:20:03 18.2 C 8.39 g/m*3 18.2 C 0 km/h
1972 07-09-2008 10:32:02 18.2 C 8.24 g/m*3 18.2 C 0 km/h
1973 07-09-2008 10:44:02 17.9 C 8.4 g/m*3 17.9 C 0 km/h
1974 07-09-2008 10:56:03 17.6 C 8.4 g/m*3 17.6 C 0 km/h
1975 07-09-2008 11:08:02 17.1 C 8.73 g/m*3 17.1 C 0 km/h
Sensor: Nr:Datum:Temp:Abs-Feuchte:Windchill:Wind:
Aussen-T/F 1976 07-09-2008 11:20:03 16.9 C 8.63 g/m*3 16.9 C 0 km/h
1977 07-09-2008 11:32:02 17.6 C 8.4 g/m*3 17.6 C 0 km/h
1978 07-09-2008 11:44:02 17.9 C 8.24 g/m*3 17.9 C 0 km/h
1979 07-09-2008 11:56:01 18.2 C 8.08 g/m*3 18.2 C 0 km/h
1980 07-09-2008 12:08:02 18.3 C 7.82 g/m*3 18.3 C 0 km/h
1981 07-09-2008 12:20:01 18.6 C 8.12 g/m*3 18.6 C 0 km/h
1982 07-09-2008 12:32:01 18.7 C 8.33 g/m*3 18.7 C 0 km/h
1983 07-09-2008 12:44:01 19.1 C 8.03 g/m*3 19.1 C 0 km/h
1984 07-09-2008 12:56:01 19.4 C 8.34 g/m*3 19.4 C 0 km/h
1985 07-09-2008 13:08:02 19 C 8.15 g/m*3 19 C 0 km/h
1986 07-09-2008 13:20:01 19.1 C 8.36 g/m*3 19.1 C 0 km/h
1987 07-09-2008 13:32:02 19.3 C 8.29 g/m*3 19.3 C 0 km/h
1988 07-09-2008 13:44:02 20 C 8.3 g/m*3 20 C 0 km/h
1989 07-09-2008 13:56:02 20.7 C 8.46 g/m*3 20.7 C 0 km/h
1990 07-09-2008 14:08:02 20 C 8.12 g/m*3 20 C 0 km/h
1991 07-09-2008 14:20:02 20.4 C 8.31 g/m*3 20.4 C 0 km/h
1992 07-09-2008 14:32:02 20.6 C 8.05 g/m*3 20.6 C 0 km/h
1993 07-09-2008 14:44:02 20.6 C 8.23 g/m*3 20.6 C 0 km/h
1994 07-09-2008 14:56:02 20 C 8.12 g/m*3 20 C 0 km/h
1995 07-09-2008 15:08:01 19.2 C 8.24 g/m*3 19.2 C 0 km/h
1996 07-09-2008 15:20:02 18.9 C 8.75 g/m*3 18.9 C 0 km/h
1997 07-09-2008 15:32:02 19.3 C 8.96 g/m*3 19.3 C 0 km/h
1998 07-09-2008 15:44:02 20.3 C 8.44 g/m*3 20.3 C 0 km/h
1999 07-09-2008 15:56:03 20 C 8.47 g/m*3 20 C 0 km/h
2000 07-09-2008 16:08:02 18.4 C 9.12 g/m*3 18.4 C 0 km/h
Sensor: Nr:Datum:Temp:Abs-Feuchte:Windchill:Wind:
Aussen-T/F 2001 07-09-2008 16:20:02 16.7 C 11.08 g/m*3 16.7 C 0 km/h
2002 07-09-2008 16:32:02 17.8 C 11.99 g/m*3 17.8 C 0 km/h
2003 07-09-2008 16:44:02 18.7 C 11.53 g/m*3 18.7 C 0 km/h
2004 07-09-2008 16:56:03 19.5 C 10.74 g/m*3 19.5 C 0 km/h
2005 07-09-2008 17:08:02 19.3 C 9.79 g/m*3 19.3 C 0 km/h
2006 07-09-2008 17:20:02 19 C 9.61 g/m*3 19 C 0 km/h
2007 07-09-2008 17:32:02 19.6 C 9.28 g/m*3 19.6 C 0 km/h
2008 07-09-2008 17:44:02 20.8 C 9.05 g/m*3 20.8 C 0 km/h
2009 07-09-2008 17:56:02 21 C 8.43 g/m*3 21 C 0 km/h
2010 07-09-2008 18:08:02 21.3 C 8.57 g/m*3 21.3 C 0 km/h
2011 07-09-2008 18:20:02 21.4 C 8.62 g/m*3 21.4 C 0 km/h
2012 07-09-2008 18:32:01 21.7 C 8.97 g/m*3 21.7 C 0 km/h
2013 07-09-2008 18:44:01 20.6 C 8.23 g/m*3 20.6 C 0 km/h
2014 07-09-2008 18:56:02 20.7 C 8.28 g/m*3 20.7 C 0 km/h
2015 07-09-2008 19:08:02 20.1 C 8 g/m*3 20.1 C 0 km/h
2016 07-09-2008 19:20:02 19.4 C 8.18 g/m*3 19.4 C 0 km/h
2017 07-09-2008 19:32:02 19 C 9.13 g/m*3 19 C 0 km/h
2018 07-09-2008 19:44:02 18.7 C 9.13 g/m*3 18.7 C 0 km/h
2019 07-09-2008 19:56:02 18.4 C 9.44 g/m*3 18.4 C 0 km/h
2020 07-09-2008 20:08:01 18.2 C 9.17 g/m*3 18.2 C 0 km/h
2021 07-09-2008 20:20:01 18 C 9.22 g/m*3 18 C 0 km/h
2022 07-09-2008 20:32:02 17.8 C 9.26 g/m*3 17.8 C 0 km/h
2023 07-09-2008 20:44:02 17.6 C 9 g/m*3 17.6 C 0 km/h
2024 07-09-2008 20:56:02 17.4 C 9.04 g/m*3 17.4 C 0 km/h
2025 07-09-2008 21:08:02 17.2 C 8.93 g/m*3 17.2 C 0 km/h
Sensor: Nr:Datum:Temp:Abs-Feuchte:Windchill:Wind:
Aussen-T/F 2026 07-09-2008 21:20:02 16.9 C 9.06 g/m*3 16.9 C 0 km/h
2027 07-09-2008 21:32:02 16.7 C 9.38 g/m*3 16.7 C 0 km/h
2028 07-09-2008 21:44:02 16.7 C 9.38 g/m*3 16.7 C 0 km/h
2029 07-09-2008 21:56:02 16.4 C 9.35 g/m*3 16.4 C 0 km/h
2030 07-09-2008 22:09:02 16.3 C 9.43 g/m*3 16.3 C 0 km/h
2031 07-09-2008 22:21:02 16.3 C 9.43 g/m*3 16.3 C 0 km/h
2032 07-09-2008 22:33:02 16.1 C 9.46 g/m*3 16.1 C 0 km/h
2033 07-09-2008 22:45:02 16 C 9.54 g/m*3 16 C 0 km/h
2034 07-09-2008 22:57:02 15.9 C 9.62 g/m*3 15.9 C 0 km/h
2035 07-09-2008 23:09:02 15.8 C 9.56 g/m*3 15.8 C 0 km/h
2036 07-09-2008 23:21:03 15.8 C 9.69 g/m*3 15.8 C 0 km/h
2037 07-09-2008 23:33:03 15.9 C 9.62 g/m*3 15.9 C 0 km/h
2038 07-09-2008 23:45:03 15.8 C 9.56 g/m*3 15.8 C 0 km/h
2039 07-09-2008 23:57:03 15.8 C 9.56 g/m*3 15.8 C 0 km/h
2040 08-09-2008 00:09:03 15.8 C 9.56 g/m*3 15.8 C 0 km/h
2041 08-09-2008 00:21:03 15.7 C 9.5 g/m*3 15.7 C 0 km/h
2042 08-09-2008 00:33:03 15.5 C 9.39 g/m*3 15.5 C 0 km/h
2043 08-09-2008 00:45:03 15.6 C 9.44 g/m*3 15.6 C 0 km/h
2044 08-09-2008 00:57:03 15.6 C 9.44 g/m*3 15.6 C 0 km/h
2045 08-09-2008 01:09:03 15.5 C 9.39 g/m*3 15.5 C 0 km/h
2046 08-09-2008 01:21:03 15.6 C 9.44 g/m*3 15.6 C 0 km/h
2047 08-09-2008 01:33:03 15.5 C 9.39 g/m*3 15.5 C 0 km/h
2048 08-09-2008 01:45:03 15.2 C 9.35 g/m*3 15.2 C 0 km/h
2049 08-09-2008 01:57:03 15.1 C 9.42 g/m*3 15.1 C 0 km/h
2050 08-09-2008 02:09:03 14.9 C 9.56 g/m*3 14.9 C 0 km/h
Sensor: Nr:Datum:Temp:Abs-Feuchte:Windchill:Wind:
Aussen-T/F 2051 08-09-2008 02:21:03 14.9 C 9.56 g/m*3 14.9 C 0 km/h
2052 08-09-2008 02:33:03 15.1 C 9.55 g/m*3 15.1 C 0 km/h
2053 08-09-2008 02:45:03 15 C 9.36 g/m*3 15 C 0 km/h
2054 08-09-2008 02:57:03 14.8 C 9.37 g/m*3 14.8 C 0 km/h
2055 08-09-2008 03:09:04 14.4 C 9.27 g/m*3 14.4 C 0 km/h
2056 08-09-2008 03:21:04 14.3 C 9.34 g/m*3 14.3 C 0 km/h
2057 08-09-2008 03:33:04 14.2 C 9.4 g/m*3 14.2 C 0 km/h
2058 08-09-2008 03:45:04 14.3 C 9.34 g/m*3 14.3 C 0 km/h
2059 08-09-2008 03:57:04 14.2 C 9.4 g/m*3 14.2 C 0 km/h
2060 08-09-2008 04:09:04 14.1 C 9.47 g/m*3 14.1 C 0 km/h
2061 08-09-2008 04:21:04 14.2 C 9.52 g/m*3 14.2 C 0 km/h
2062 08-09-2008 04:33:04 14.4 C 9.39 g/m*3 14.4 C 0 km/h
2063 08-09-2008 04:45:04 14.5 C 9.33 g/m*3 14.5 C 0 km/h
2064 08-09-2008 04:57:04 14.5 C 9.33 g/m*3 14.5 C 0 km/h
2065 08-09-2008 05:09:04 14.4 C 9.27 g/m*3 14.4 C 0 km/h
2066 08-09-2008 05:21:04 14.1 C 8.98 g/m*3 14.1 C 0 km/h
2067 08-09-2008 05:33:04 14.1 C 8.86 g/m*3 14.1 C 0 km/h
2068 08-09-2008 05:45:04 14 C 8.81 g/m*3 14 C 0 km/h
2069 08-09-2008 05:57:04 13.9 C 8.99 g/m*3 13.9 C 0 km/h
2070 08-09-2008 06:09:04 13.5 C 8.89 g/m*3 13.5 C 0 km/h
2071 08-09-2008 06:21:04 13.2 C 8.96 g/m*3 13.2 C 0 km/h
2072 08-09-2008 06:33:04 13.1 C 9.01 g/m*3 13.1 C 0 km/h
2073 08-09-2008 06:45:04 13 C 9.07 g/m*3 13 C 0 km/h
2074 08-09-2008 06:57:05 12.8 C 9.07 g/m*3 12.8 C 0 km/h
2075 08-09-2008 07:09:02 12.8 C 9.18 g/m*3 12.8 C 0 km/h
Sensor: Nr:Datum:Temp:Abs-Feuchte:Windchill:Wind:
Aussen-T/F 2076 08-09-2008 07:21:02 12.8 C 9.3 g/m*3 12.8 C 0 km/h
2077 08-09-2008 07:33:02 13.1 C 9.36 g/m*3 13.1 C 0 km/h
2078 08-09-2008 07:45:02 13.7 C 9.71 g/m*3 13.7 C 0 km/h
2079 08-09-2008 07:57:02 14.2 C 9.65 g/m*3 14.2 C 0 km/h
2080 08-09-2008 08:09:02 14.4 C 9.52 g/m*3 14.4 C 0 km/h
2081 08-09-2008 08:21:02 14.5 C 9.58 g/m*3 14.5 C 0 km/h
2082 08-09-2008 08:33:02 14.7 C 9.57 g/m*3 14.7 C 0 km/h
2083 08-09-2008 08:45:02 14.8 C 9.63 g/m*3 14.8 C 0 km/h
2084 08-09-2008 08:57:02 14.9 C 9.56 g/m*3 14.9 C 0 km/h
2085 08-09-2008 09:09:02 15.2 C 9.61 g/m*3 15.2 C 0 km/h
2086 08-09-2008 09:21:03 15.3 C 9.53 g/m*3 15.3 C 0 km/h
2087 08-09-2008 09:33:02 15.5 C 9.39 g/m*3 15.5 C 0 km/h
2088 08-09-2008 09:45:02 15.8 C 9.29 g/m*3 15.8 C 0 km/h
2089 08-09-2008 09:57:02 16.1 C 9.18 g/m*3 16.1 C 0 km/h
2090 08-09-2008 10:09:02 16.3 C 9.16 g/m*3 16.3 C 0 km/h
2091 08-09-2008 10:21:02 16.6 C 9.04 g/m*3 16.6 C 0 km/h
2092 08-09-2008 10:33:02 16.9 C 9.06 g/m*3 16.9 C 0 km/h
2093 08-09-2008 10:45:02 17.1 C 8.73 g/m*3 17.1 C 0 km/h
2094 08-09-2008 10:57:02 17.3 C 8.4 g/m*3 17.3 C 0 km/h
2095 08-09-2008 11:09:02 17.6 C 8.4 g/m*3 17.6 C 0 km/h
2096 08-09-2008 11:21:02 17.6 C 8.55 g/m*3 17.6 C 0 km/h
2097 08-09-2008 11:33:02 17.3 C 8.4 g/m*3 17.3 C 0 km/h
2098 08-09-2008 11:45:01 18.2 C 8.24 g/m*3 18.2 C 0 km/h
2099 08-09-2008 11:57:01 18.7 C 8.01 g/m*3 18.7 C 0 km/h
2100 08-09-2008 12:09:02 18.9 C 7.94 g/m*3 18.9 C 0 km/h
Sensor: Nr:Datum:Temp:Abs-Feuchte:Windchill:Wind:
Aussen-T/F 2101 08-09-2008 12:21:01 19.4 C 7.84 g/m*3 19.4 C 0 km/h
2102 08-09-2008 12:33:02 19.7 C 7.64 g/m*3 19.7 C 0 km/h
2103 08-09-2008 12:45:02 19.8 C 7.52 g/m*3 19.8 C 0 km/h
2104 08-09-2008 12:57:02 19.6 C 7.43 g/m*3 19.6 C 0 km/h
2105 08-09-2008 13:09:01 20.7 C 7.56 g/m*3 20.7 C 0 km/h
2106 08-09-2008 13:21:02 20.8 C 7.42 g/m*3 20.8 C 0 km/h
2107 08-09-2008 13:33:01 20.5 C 7.3 g/m*3 20.5 C 0 km/h
2108 08-09-2008 13:45:02 20.7 C 7.38 g/m*3 20.7 C 0 km/h
2109 08-09-2008 13:57:02 21.6 C 7.4 g/m*3 21.6 C 0 km/h
2110 08-09-2008 14:09:01 22 C 6.79 g/m*3 22 C 0 km/h
2111 08-09-2008 14:21:02 21.9 C 7.14 g/m*3 21.9 C 0 km/h
2112 08-09-2008 14:33:01 22.1 C 6.83 g/m*3 22.1 C 0 km/h
2113 08-09-2008 14:45:01 22.3 C 6.71 g/m*3 22.3 C 0 km/h
2114 08-09-2008 14:57:01 23 C 6.58 g/m*3 23 C 0 km/h
2115 08-09-2008 15:09:02 23.2 C 6.44 g/m*3 23.2 C 0 km/h
2116 08-09-2008 15:21:01 23.7 C 6.63 g/m*3 23.7 C 0 km/h
2117 08-09-2008 15:33:01 23.7 C 6.42 g/m*3 23.7 C 0 km/h
2118 08-09-2008 15:49:01 23.1 C 6.41 g/m*3 23.1 C 0 km/h
2119 08-09-2008 16:01:07 24 C 6.53 g/m*3 24 C 0 km/h
2120 08-09-2008 16:13:02 24.1 C 5.91 g/m*3 24.1 C 0 km/h
2121 08-09-2008 16:25:01 23.8 C 6.24 g/m*3 23.8 C 0 km/h
2122 08-09-2008 16:37:02 23.7 C 6.42 g/m*3 23.7 C 0 km/h
2123 08-09-2008 16:49:02 24 C 5.87 g/m*3 24 C 0 km/h
2124 08-09-2008 17:01:02 23.3 C 6.27 g/m*3 23.3 C 0 km/h
2125 08-09-2008 17:13:02 24.1 C 6.13 g/m*3 24.1 C 0 km/h
Sensor: Nr:Datum:Temp:Abs-Feuchte:Windchill:Wind:
Aussen-T/F 2126 08-09-2008 17:20:03 24.1 C 4.38 g/m*3 24.1 C 0 km/h
2127 08-09-2008 17:25:03 24.3 C 5.97 g/m*3 24.3 C 0 km/h
2128 08-09-2008 17:30:03 24.2 C 5.94 g/m*3 24.2 C 0 km/h
2129 08-09-2008 17:35:03 24.2 C 5.72 g/m*3 24.2 C 0 km/h
2130 08-09-2008 17:40:03 23.8 C 5.81 g/m*3 23.8 C 0 km/h
2131 08-09-2008 17:45:02 23.4 C 6.1 g/m*3 23.4 C 0 km/h
2132 08-09-2008 17:50:02 23.2 C 6.24 g/m*3 23.2 C 0 km/h
2133 08-09-2008 17:55:02 22.9 C 6.34 g/m*3 22.9 C 0 km/h
2134 08-09-2008 18:00:02 23.5 C 6.56 g/m*3 23.5 C 0 km/h
2135 08-09-2008 18:05:01 24.2 C 6.38 g/m*3 24.2 C 0 km/h
2136 08-09-2008 18:10:01 23.7 C 6.42 g/m*3 23.7 C 0 km/h
2137 08-09-2008 18:15:02 23.2 C 6.24 g/m*3 23.2 C 0 km/h
2138 08-09-2008 18:20:02 22.9 C 6.54 g/m*3 22.9 C 0 km/h
2139 08-09-2008 18:25:02 23.3 C 6.48 g/m*3 23.3 C 0 km/h
2140 08-09-2008 18:30:02 22.9 C 6.34 g/m*3 22.9 C 0 km/h
2141 08-09-2008 18:35:01 23 C 6.37 g/m*3 23 C 0 km/h
2142 08-09-2008 18:40:01 23.2 C 6.44 g/m*3 23.2 C 0 km/h
2143 08-09-2008 18:45:01 23 C 6.37 g/m*3 23 C 0 km/h
2144 08-09-2008 18:50:01 23 C 6.58 g/m*3 23 C 0 km/h
2145 08-09-2008 18:55:01 22.6 C 6.63 g/m*3 22.6 C 0 km/h
2146 08-09-2008 19:00:01 22.5 C 6.99 g/m*3 22.5 C 0 km/h
2147 08-09-2008 19:05:02 22.6 C 7.43 g/m*3 22.6 C 0 km/h
2148 08-09-2008 19:10:02 22.7 C 7.07 g/m*3 22.7 C 0 km/h
2149 08-09-2008 19:15:02 22.4 C 7.15 g/m*3 22.4 C 0 km/h
2150 08-09-2008 19:20:02 22.3 C 7.11 g/m*3 22.3 C 0 km/h
Sensor: Nr:Datum:Temp:Abs-Feuchte:Windchill:Wind:
Aussen-T/F 2151 08-09-2008 19:25:02 22.1 C 7.22 g/m*3 22.1 C 0 km/h
2152 08-09-2008 19:30:02 21.7 C 7.25 g/m*3 21.7 C 0 km/h
2153 08-09-2008 19:35:02 21.4 C 7.31 g/m*3 21.4 C 0 km/h
2154 08-09-2008 19:40:02 20.7 C 7.38 g/m*3 20.7 C 0 km/h
2155 08-09-2008 19:45:02 20.1 C 7.3 g/m*3 20.1 C 0 km/h
2156 08-09-2008 19:50:02 19.9 C 7.39 g/m*3 19.9 C 0 km/h
2157 08-09-2008 19:55:02 19.6 C 7.43 g/m*3 19.6 C 0 km/h
2158 08-09-2008 20:00:02 19.1 C 7.38 g/m*3 19.1 C 0 km/h
2159 08-09-2008 20:05:01 18.9 C 7.29 g/m*3 18.9 C 0 km/h
2160 08-09-2008 20:10:01 18.8 C 7.57 g/m*3 18.8 C 0 km/h
2161 08-09-2008 20:15:02 18.6 C 7.32 g/m*3 18.6 C 0 km/h
2162 08-09-2008 20:20:02 18.5 C 7.59 g/m*3 18.5 C 0 km/h
2163 08-09-2008 20:25:02 18.4 C 7.71 g/m*3 18.4 C 0 km/h
2164 08-09-2008 20:30:02 18.2 C 7.46 g/m*3 18.2 C 0 km/h
2165 08-09-2008 20:35:01 17.9 C 7.48 g/m*3 17.9 C 0 km/h
2166 08-09-2008 20:40:01 17.8 C 7.59 g/m*3 17.8 C 0 km/h
2167 08-09-2008 20:45:01 17.7 C 7.85 g/m*3 17.7 C 0 km/h
2168 08-09-2008 20:50:01 17.5 C 7.9 g/m*3 17.5 C 0 km/h
2169 08-09-2008 20:55:01 17.4 C 7.85 g/m*3 17.4 C 0 km/h
2170 08-09-2008 21:00:01 17.4 C 7.85 g/m*3 17.4 C 0 km/h
2171 08-09-2008 21:05:02 17.4 C 8 g/m*3 17.4 C 0 km/h
2172 08-09-2008 21:10:02 17.3 C 7.81 g/m*3 17.3 C 0 km/h
2173 08-09-2008 21:16:03 17.2 C 7.76 g/m*3 17.2 C 0 km/h
2174 08-09-2008 21:21:03 17.4 C 8 g/m*3 17.4 C 0 km/h
2175 08-09-2008 21:26:03 16.9 C 8.05 g/m*3 16.9 C 0 km/h
Sensor: Nr:Datum:Temp:Abs-Feuchte:Windchill:Wind:
Aussen-T/F 2176 08-09-2008 21:31:03 16.9 C 8.05 g/m*3 16.9 C 0 km/h
2177 08-09-2008 21:36:03 16.6 C 8.19 g/m*3 16.6 C 0 km/h
2178 08-09-2008 21:41:03 16.5 C 8 g/m*3 16.5 C 0 km/h
2179 08-09-2008 21:46:03 16.5 C 8.14 g/m*3 16.5 C 0 km/h
2180 08-09-2008 21:51:03 16.4 C 8.37 g/m*3 16.4 C 0 km/h
2181 08-09-2008 21:56:03 16.2 C 8.27 g/m*3 16.2 C 0 km/h
2182 08-09-2008 22:01:03 16.1 C 8.22 g/m*3 16.1 C 0 km/h
2183 08-09-2008 22:06:03 15.9 C 8.26 g/m*3 15.9 C 0 km/h
2184 08-09-2008 22:11:03 15.8 C 8.35 g/m*3 15.8 C 0 km/h
2185 08-09-2008 22:16:04 15.6 C 8.25 g/m*3 15.6 C 0 km/h
2186 08-09-2008 22:21:04 15.5 C 8.2 g/m*3 15.5 C 0 km/h
2187 08-09-2008 22:26:04 15.5 C 8.2 g/m*3 15.5 C 0 km/h
2188 08-09-2008 22:31:04 15.4 C 8.15 g/m*3 15.4 C 0 km/h
2189 08-09-2008 22:36:04 15.3 C 8.1 g/m*3 15.3 C 0 km/h
2190 08-09-2008 22:41:04 15.4 C 8.28 g/m*3 15.4 C 0 km/h
2191 08-09-2008 22:46:04 15.3 C 8.23 g/m*3 15.3 C 0 km/h
2192 08-09-2008 22:51:04 15.2 C 8.18 g/m*3 15.2 C 0 km/h
2193 08-09-2008 22:56:04 15.1 C 8.26 g/m*3 15.1 C 0 km/h
2194 08-09-2008 23:01:04 15 C 8.21 g/m*3 15 C 0 km/h
2195 08-09-2008 23:06:04 14.9 C 8.41 g/m*3 14.9 C 0 km/h
2196 08-09-2008 23:11:04 14.8 C 8.36 g/m*3 14.8 C 0 km/h
2197 08-09-2008 23:16:04 14.7 C 8.44 g/m*3 14.7 C 0 km/h
2198 08-09-2008 23:21:04 14.7 C 8.44 g/m*3 14.7 C 0 km/h
2199 08-09-2008 23:26:04 14.7 C 8.44 g/m*3 14.7 C 0 km/h
2200 08-09-2008 23:31:04 14.7 C 8.44 g/m*3 14.7 C 0 km/h
Sensor: Nr:Datum:Temp:Abs-Feuchte:Windchill:Wind:
Aussen-T/F 2201 08-09-2008 23:36:04 14.7 C 8.44 g/m*3 14.7 C 0 km/h
2202 08-09-2008 23:41:04 14.5 C 8.33 g/m*3 14.5 C 0 km/h
2203 08-09-2008 23:46:04 14.3 C 8.35 g/m*3 14.3 C 0 km/h
2204 08-09-2008 23:51:04 14.2 C 8.3 g/m*3 14.2 C 0 km/h
2205 08-09-2008 23:56:05 14.2 C 8.43 g/m*3 14.2 C 0 km/h
2206 09-09-2008 00:01:05 14 C 8.32 g/m*3 14 C 0 km/h
2207 09-09-2008 00:06:05 13.9 C 8.51 g/m*3 13.9 C 0 km/h
2208 09-09-2008 00:11:05 13.8 C 8.58 g/m*3 13.8 C 0 km/h
2209 09-09-2008 00:16:05 13.7 C 8.53 g/m*3 13.7 C 0 km/h
2210 09-09-2008 00:21:05 13.6 C 8.59 g/m*3 13.6 C 0 km/h
2211 09-09-2008 00:26:05 13.6 C 8.59 g/m*3 13.6 C 0 km/h
2212 09-09-2008 00:31:05 13.5 C 8.54 g/m*3 13.5 C 0 km/h
2213 09-09-2008 00:36:05 13.5 C 8.54 g/m*3 13.5 C 0 km/h
2214 09-09-2008 00:41:05 13.4 C 8.6 g/m*3 13.4 C 0 km/h
2215 09-09-2008 00:46:05 13.3 C 8.55 g/m*3 13.3 C 0 km/h
2216 09-09-2008 00:51:05 13.2 C 8.5 g/m*3 13.2 C 0 km/h
2217 09-09-2008 00:56:05 13.1 C 8.44 g/m*3 13.1 C 0 km/h
2218 09-09-2008 01:01:05 13.1 C 8.44 g/m*3 13.1 C 0 km/h
2219 09-09-2008 01:06:05 13 C 8.51 g/m*3 13 C 0 km/h
2220 09-09-2008 01:11:05 12.9 C 8.57 g/m*3 12.9 C 0 km/h
2221 09-09-2008 01:16:05 12.8 C 8.51 g/m*3 12.8 C 0 km/h
2222 09-09-2008 01:21:05 12.7 C 8.46 g/m*3 12.7 C 0 km/h
2223 09-09-2008 01:26:05 12.7 C 8.57 g/m*3 12.7 C 0 km/h
2224 09-09-2008 01:31:06 12.7 C 8.57 g/m*3 12.7 C 0 km/h
2225 09-09-2008 01:36:06 12.6 C 8.52 g/m*3 12.6 C 0 km/h
Sensor: Nr:Datum:Temp:Abs-Feuchte:Windchill:Wind:
Aussen-T/F 2226 09-09-2008 01:41:06 12.6 C 8.52 g/m*3 12.6 C 0 km/h
2227 09-09-2008 01:46:06 12.5 C 8.47 g/m*3 12.5 C 0 km/h
2228 09-09-2008 01:51:06 12.5 C 8.47 g/m*3 12.5 C 0 km/h
2229 09-09-2008 01:56:06 12.4 C 8.41 g/m*3 12.4 C 0 km/h
2230 09-09-2008 02:01:06 12.4 C 8.52 g/m*3 12.4 C 0 km/h
2231 09-09-2008 02:06:06 12.3 C 8.58 g/m*3 12.3 C 0 km/h
2232 09-09-2008 02:11:06 12.3 C 8.58 g/m*3 12.3 C 0 km/h
2233 09-09-2008 02:16:06 12.2 C 8.52 g/m*3 12.2 C 0 km/h
2234 09-09-2008 02:21:06 12.3 C 8.58 g/m*3 12.3 C 0 km/h
2235 09-09-2008 02:26:06 12.1 C 8.47 g/m*3 12.1 C 0 km/h
2236 09-09-2008 02:31:06 12.4 C 8.63 g/m*3 12.4 C 0 km/h
2237 09-09-2008 02:36:06 12 C 8.42 g/m*3 12 C 0 km/h
2238 09-09-2008 02:41:06 12 C 8.42 g/m*3 12 C 0 km/h
2239 09-09-2008 02:46:06 11.8 C 8.42 g/m*3 11.8 C 0 km/h
2240 09-09-2008 02:51:06 11.8 C 8.42 g/m*3 11.8 C 0 km/h
2241 09-09-2008 02:56:06 11.7 C 8.37 g/m*3 11.7 C 0 km/h
2242 09-09-2008 03:01:06 11.7 C 8.37 g/m*3 11.7 C 0 km/h
2243 09-09-2008 03:06:06 11.7 C 8.37 g/m*3 11.7 C 0 km/h
2244 09-09-2008 03:11:07 11.7 C 8.37 g/m*3 11.7 C 0 km/h
2245 09-09-2008 03:16:07 11.7 C 8.37 g/m*3 11.7 C 0 km/h
2246 09-09-2008 03:21:07 11.6 C 8.42 g/m*3 11.6 C 0 km/h
2247 09-09-2008 03:26:07 11.5 C 8.37 g/m*3 11.5 C 0 km/h
2248 09-09-2008 03:31:07 11.4 C 8.42 g/m*3 11.4 C 0 km/h
2249 09-09-2008 03:36:07 11.4 C 8.42 g/m*3 11.4 C 0 km/h
2250 09-09-2008 03:41:07 11.3 C 8.36 g/m*3 11.3 C 0 km/h
Sensor: Nr:Datum:Temp:Abs-Feuchte:Windchill:Wind:
Aussen-T/F 2251 09-09-2008 03:46:07 11.2 C 8.31 g/m*3 11.2 C 0 km/h
2252 09-09-2008 03:51:07 11.2 C 8.31 g/m*3 11.2 C 0 km/h
2253 09-09-2008 03:56:07 11.2 C 8.31 g/m*3 11.2 C 0 km/h
2254 09-09-2008 04:01:07 11.2 C 8.31 g/m*3 11.2 C 0 km/h
2255 09-09-2008 04:06:07 11.1 C 8.26 g/m*3 11.1 C 0 km/h
2256 09-09-2008 04:11:07 11.1 C 8.26 g/m*3 11.1 C 0 km/h
2257 09-09-2008 04:16:07 11.1 C 8.26 g/m*3 11.1 C 0 km/h
2258 09-09-2008 04:21:07 11.1 C 8.26 g/m*3 11.1 C 0 km/h
2259 09-09-2008 04:26:07 11.1 C 8.26 g/m*3 11.1 C 0 km/h
2260 09-09-2008 04:31:07 11 C 8.31 g/m*3 11 C 0 km/h
2261 09-09-2008 04:36:07 11 C 8.31 g/m*3 11 C 0 km/h
2262 09-09-2008 04:41:07 10.9 C 8.26 g/m*3 10.9 C 0 km/h
2263 09-09-2008 04:46:08 10.8 C 8.2 g/m*3 10.8 C 0 km/h
2264 09-09-2008 04:51:08 10.8 C 8.2 g/m*3 10.8 C 0 km/h
2265 09-09-2008 04:56:08 10.7 C 8.15 g/m*3 10.7 C 0 km/h
2266 09-09-2008 05:01:08 10.7 C 8.15 g/m*3 10.7 C 0 km/h
2267 09-09-2008 05:06:08 10.6 C 8.1 g/m*3 10.6 C 0 km/h
2268 09-09-2008 05:11:08 10.6 C 8.1 g/m*3 10.6 C 0 km/h
2269 09-09-2008 05:16:08 10.6 C 8.1 g/m*3 10.6 C 0 km/h
2270 09-09-2008 05:21:08 10.5 C 8.05 g/m*3 10.5 C 0 km/h
2271 09-09-2008 05:26:08 10.4 C 8 g/m*3 10.4 C 0 km/h
2272 09-09-2008 05:31:08 10.4 C 8 g/m*3 10.4 C 0 km/h
2273 09-09-2008 05:36:08 10.3 C 7.95 g/m*3 10.3 C 0 km/h
2274 09-09-2008 05:41:08 10.3 C 7.95 g/m*3 10.3 C 0 km/h
2275 09-09-2008 05:46:08 10.2 C 7.9 g/m*3 10.2 C 0 km/h
Sensor: Nr:Datum:Temp:Abs-Feuchte:Windchill:Wind:
Aussen-T/F 2276 09-09-2008 05:51:08 10.2 C 7.9 g/m*3 10.2 C 0 km/h
2277 09-09-2008 05:56:08 10.2 C 7.99 g/m*3 10.2 C 0 km/h
2278 09-09-2008 06:01:08 10 C 7.89 g/m*3 10 C 0 km/h
2279 09-09-2008 06:06:08 10 C 7.89 g/m*3 10 C 0 km/h
2280 09-09-2008 06:11:08 10 C 7.89 g/m*3 10 C 0 km/h
2281 09-09-2008 06:16:08 10 C 7.89 g/m*3 10 C 0 km/h
2282 09-09-2008 06:21:09 10 C 7.89 g/m*3 10 C 0 km/h
2283 09-09-2008 06:26:09 10 C 7.89 g/m*3 10 C 0 km/h
2284 09-09-2008 06:31:09 10.1 C 8.04 g/m*3 10.1 C 0 km/h
2285 09-09-2008 06:36:09 10.1 C 8.04 g/m*3 10.1 C 0 km/h
2286 09-09-2008 06:41:09 10.1 C 8.13 g/m*3 10.1 C 0 km/h
2287 09-09-2008 06:46:09 10.1 C 8.13 g/m*3 10.1 C 0 km/h
2288 09-09-2008 06:51:09 10.1 C 8.13 g/m*3 10.1 C 0 km/h
2289 09-09-2008 06:56:09 10.2 C 8.18 g/m*3 10.2 C 0 km/h
2290 09-09-2008 07:01:02 10.3 C 8.24 g/m*3 10.3 C 0 km/h
2291 09-09-2008 07:06:02 10.2 C 8.18 g/m*3 10.2 C 0 km/h
2292 09-09-2008 07:11:02 10.1 C 8.13 g/m*3 10.1 C 0 km/h
2293 09-09-2008 07:16:02 10.1 C 8.13 g/m*3 10.1 C 0 km/h
2294 09-09-2008 07:21:02 10.2 C 8.18 g/m*3 10.2 C 0 km/h
2295 09-09-2008 07:26:02 10.1 C 8.13 g/m*3 10.1 C 0 km/h
2296 09-09-2008 07:31:02 10.1 C 8.13 g/m*3 10.1 C 0 km/h
2297 09-09-2008 07:36:02 10 C 8.08 g/m*3 10 C 0 km/h
2298 09-09-2008 07:41:02 10 C 8.08 g/m*3 10 C 0 km/h
2299 09-09-2008 07:46:02 10.1 C 8.23 g/m*3 10.1 C 0 km/h
2300 09-09-2008 07:51:02 10.2 C 8.28 g/m*3 10.2 C 0 km/h
Sensor: Nr:Datum:Temp:Abs-Feuchte:Windchill:Wind:
Aussen-T/F 2301 09-09-2008 07:56:02 10.2 C 8.28 g/m*3 10.2 C 0 km/h
2302 09-09-2008 08:01:01 10.3 C 8.33 g/m*3 10.3 C 0 km/h
2303 09-09-2008 08:06:01 10.3 C 8.33 g/m*3 10.3 C 0 km/h
2304 09-09-2008 08:11:01 10.3 C 8.33 g/m*3 10.3 C 0 km/h
2305 09-09-2008 08:16:02 10.3 C 8.33 g/m*3 10.3 C 0 km/h
2306 09-09-2008 08:21:02 10.4 C 8.38 g/m*3 10.4 C 0 km/h
2307 09-09-2008 08:26:02 10.5 C 8.44 g/m*3 10.5 C 0 km/h
2308 09-09-2008 08:31:02 10.6 C 8.49 g/m*3 10.6 C 0 km/h
2309 09-09-2008 08:36:02 10.6 C 8.39 g/m*3 10.6 C 0 km/h
2310 09-09-2008 08:41:02 10.7 C 8.45 g/m*3 10.7 C 0 km/h
2311 09-09-2008 08:46:01 10.7 C 8.55 g/m*3 10.7 C 0 km/h
2312 09-09-2008 08:51:01 10.8 C 8.5 g/m*3 10.8 C 0 km/h
2313 09-09-2008 08:56:01 10.9 C 8.55 g/m*3 10.9 C 0 km/h
2314 09-09-2008 09:01:02 11.2 C 8.62 g/m*3 11.2 C 0 km/h
2315 09-09-2008 09:06:02 11.3 C 8.67 g/m*3 11.3 C 0 km/h
2316 09-09-2008 09:11:02 11.4 C 8.62 g/m*3 11.4 C 0 km/h
2317 09-09-2008 09:16:02 11.6 C 8.73 g/m*3 11.6 C 0 km/h
2318 09-09-2008 09:21:02 11.7 C 8.68 g/m*3 11.7 C 0 km/h
2319 09-09-2008 09:26:02 11.7 C 8.58 g/m*3 11.7 C 0 km/h
2320 09-09-2008 09:31:02 11.9 C 8.68 g/m*3 11.9 C 0 km/h
2321 09-09-2008 09:36:02 12 C 8.63 g/m*3 12 C 0 km/h
2322 09-09-2008 09:41:02 12.3 C 8.8 g/m*3 12.3 C 0 km/h
2323 09-09-2008 09:46:02 12.5 C 8.8 g/m*3 12.5 C 0 km/h
2324 09-09-2008 09:51:02 12.7 C 8.91 g/m*3 12.7 C 0 km/h
2325 09-09-2008 09:56:02 12.7 C 8.79 g/m*3 12.7 C 0 km/h
Sensor: Nr:Datum:Temp:Abs-Feuchte:Windchill:Wind:
Aussen-T/F 2326 09-09-2008 10:01:02 12.5 C 8.69 g/m*3 12.5 C 0 km/h
2327 09-09-2008 10:06:02 12.4 C 8.74 g/m*3 12.4 C 0 km/h
2328 09-09-2008 10:11:02 12.4 C 8.74 g/m*3 12.4 C 0 km/h
2329 09-09-2008 10:16:02 12.5 C 8.91 g/m*3 12.5 C 0 km/h
2330 09-09-2008 10:21:02 12.7 C 9.13 g/m*3 12.7 C 0 km/h
2331 09-09-2008 10:26:02 12.7 C 9.13 g/m*3 12.7 C 0 km/h
2332 09-09-2008 10:31:02 12.9 C 9.24 g/m*3 12.9 C 0 km/h
2333 09-09-2008 10:36:02 13 C 9.19 g/m*3 13 C 0 km/h
2334 09-09-2008 10:41:02 13.1 C 9.13 g/m*3 13.1 C 0 km/h
2335 09-09-2008 10:46:02 13.4 C 9.3 g/m*3 13.4 C 0 km/h
2336 09-09-2008 10:51:02 13.8 C 9.53 g/m*3 13.8 C 0 km/h
2337 09-09-2008 10:56:02 14.2 C 9.65 g/m*3 14.2 C 0 km/h
2338 09-09-2008 11:01:02 14.5 C 9.83 g/m*3 14.5 C 0 km/h
2339 09-09-2008 11:06:02 14.9 C 9.94 g/m*3 14.9 C 0 km/h
2340 09-09-2008 11:11:02 15.2 C 9.99 g/m*3 15.2 C 0 km/h
2341 09-09-2008 11:16:02 15.5 C 10.05 g/m*3 15.5 C 0 km/h
2342 09-09-2008 11:21:02 15.9 C 10.16 g/m*3 15.9 C 0 km/h
2343 09-09-2008 11:26:02 16.4 C 10.19 g/m*3 16.4 C 0 km/h
2344 09-09-2008 11:31:02 16.6 C 10.17 g/m*3 16.6 C 0 km/h
2345 09-09-2008 11:36:02 17.1 C 10.04 g/m*3 17.1 C 0 km/h
2346 09-09-2008 11:41:02 17.5 C 10.29 g/m*3 17.5 C 0 km/h
2347 09-09-2008 11:46:02 17.6 C 10.35 g/m*3 17.6 C 0 km/h
2348 09-09-2008 11:51:02 17.8 C 10.47 g/m*3 17.8 C 0 km/h
2349 09-09-2008 11:56:02 18.2 C 10.41 g/m*3 18.2 C 0 km/h
2350 09-09-2008 12:01:02 18.5 C 10.6 g/m*3 18.5 C 0 km/h
Sensor: Nr:Datum:Temp:Abs-Feuchte:Windchill:Wind:
Aussen-T/F 2351 09-09-2008 12:06:02 18.6 C 10.66 g/m*3 18.6 C 0 km/h
2352 09-09-2008 12:11:02 19.1 C 10.49 g/m*3 19.1 C 0 km/h
2353 09-09-2008 12:16:02 19.5 C 10.57 g/m*3 19.5 C 0 km/h
2354 09-09-2008 12:21:02 19.7 C 10.7 g/m*3 19.7 C 0 km/h
2355 09-09-2008 12:26:02 19.8 C 10.59 g/m*3 19.8 C 0 km/h
2356 09-09-2008 12:31:02 20.4 C 9.91 g/m*3 20.4 C 0 km/h
2357 09-09-2008 12:36:02 20.7 C 10.62 g/m*3 20.7 C 0 km/h
2358 09-09-2008 12:41:02 21 C 10.44 g/m*3 21 C 0 km/h
2359 09-09-2008 12:46:02 21.2 C 10.38 g/m*3 21.2 C 0 km/h
2360 09-09-2008 12:51:02 21.3 C 10.44 g/m*3 21.3 C 0 km/h
2361 09-09-2008 12:56:02 21.7 C 9.16 g/m*3 21.7 C 0 km/h
2362 09-09-2008 13:01:02 22.3 C 9.08 g/m*3 22.3 C 0 km/h
2363 09-09-2008 13:06:02 22.5 C 9.39 g/m*3 22.5 C 0 km/h
2364 09-09-2008 13:11:02 22.5 C 8.99 g/m*3 22.5 C 0 km/h
2365 09-09-2008 13:16:02 23 C 8.43 g/m*3 23 C 0 km/h
2366 09-09-2008 13:21:02 23.3 C 8.36 g/m*3 23.3 C 0 km/h
2367 09-09-2008 13:26:02 23.6 C 8.93 g/m*3 23.6 C 0 km/h
2368 09-09-2008 13:31:02 23.7 C 8.56 g/m*3 23.7 C 0 km/h
2369 09-09-2008 13:36:02 24.1 C 7.66 g/m*3 24.1 C 0 km/h
2370 09-09-2008 13:41:02 24.2 C 7.92 g/m*3 24.2 C 0 km/h
2371 09-09-2008 13:46:02 24.4 C 7.57 g/m*3 24.4 C 0 km/h
2372 09-09-2008 13:51:02 24.6 C 7.88 g/m*3 24.6 C 0 km/h
2373 09-09-2008 13:56:02 25.1 C 7.41 g/m*3 25.1 C 0 km/h
2374 09-09-2008 14:01:02 25.2 C 7.45 g/m*3 25.2 C 0 km/h
2375 09-09-2008 14:06:02 25.6 C 7.38 g/m*3 25.6 C 0 km/h
Sensor: Nr:Datum:Temp:Abs-Feuchte:Windchill:Wind:
Aussen-T/F 2376 09-09-2008 14:11:02 25.6 C 6.9 g/m*3 25.6 C 0 km/h
2377 09-09-2008 14:16:02 25.8 C 7.22 g/m*3 25.8 C 0 km/h
2378 09-09-2008 14:21:02 26.1 C 7.1 g/m*3 26.1 C 0 km/h
2379 09-09-2008 14:26:02 26.5 C 7.76 g/m*3 26.5 C 0 km/h
2380 09-09-2008 14:31:02 26.6 C 7.3 g/m*3 26.6 C 0 km/h
2381 09-09-2008 14:36:02 26.8 C 6.87 g/m*3 26.8 C 0 km/h
2382 09-09-2008 14:41:02 27 C 6.43 g/m*3 27 C 0 km/h
2383 09-09-2008 14:46:02 27 C 6.69 g/m*3 27 C 0 km/h
2384 09-09-2008 14:51:02 27.1 C 6.73 g/m*3 27.1 C 0 km/h
2385 09-09-2008 14:56:02 27.3 C 6.8 g/m*3 27.3 C 0 km/h
2386 09-09-2008 15:01:01 27.4 C 6.58 g/m*3 27.4 C 0 km/h
2387 09-09-2008 15:06:01 27.5 C 6.61 g/m*3 27.5 C 0 km/h
2388 09-09-2008 15:11:01 27.8 C 6.72 g/m*3 27.8 C 0 km/h
2389 09-09-2008 15:16:02 28 C 5.98 g/m*3 28 C 0 km/h
2390 09-09-2008 15:21:02 28.2 C 6.05 g/m*3 28.2 C 0 km/h
2391 09-09-2008 15:26:02 28.1 C 6.02 g/m*3 28.1 C 0 km/h
2392 09-09-2008 15:31:01 27.8 C 5.65 g/m*3 27.8 C 0 km/h
2393 09-09-2008 15:36:01 27.6 C 5.59 g/m*3 27.6 C 0 km/h
2394 09-09-2008 15:41:01 27.9 C 5.95 g/m*3 27.9 C 0 km/h
2395 09-09-2008 15:46:02 28.4 C 5.84 g/m*3 28.4 C 0 km/h
2396 09-09-2008 15:51:02 28.9 C 6.28 g/m*3 28.9 C 0 km/h
2397 09-09-2008 15:56:02 29.2 C 6.97 g/m*3 29.2 C 0 km/h
2398 09-09-2008 16:01:02 29.2 C 6.1 g/m*3 29.2 C 0 km/h
2399 09-09-2008 16:06:02 29.3 C 6.13 g/m*3 29.3 C 0 km/h
2400 09-09-2008 16:11:02 29.4 C 6.16 g/m*3 29.4 C 0 km/h
Sensor: Nr:Datum:Temp:Abs-Feuchte:Windchill:Wind:
Aussen-T/F 2401 09-09-2008 16:16:02 29.6 C 6.53 g/m*3 29.6 C 0 km/h
2402 09-09-2008 16:21:02 29.5 C 6.79 g/m*3 29.5 C 0 km/h
2403 09-09-2008 16:26:02 29.7 C 6.56 g/m*3 29.7 C 0 km/h
2404 09-09-2008 16:31:02 29.9 C 6.64 g/m*3 29.9 C 0 km/h
2405 09-09-2008 16:36:02 30 C 6.37 g/m*3 30 C 0 km/h
2406 09-09-2008 16:41:02 30.1 C 6.4 g/m*3 30.1 C 0 km/h
2407 09-09-2008 16:46:02 30.3 C 6.16 g/m*3 30.3 C 0 km/h
2408 09-09-2008 16:51:02 30.1 C 6.1 g/m*3 30.1 C 0 km/h
2409 09-09-2008 16:56:02 30 C 6.06 g/m*3 30 C 0 km/h
2410 09-09-2008 17:01:01 29.5 C 5.9 g/m*3 29.5 C 0 km/h
2411 09-09-2008 17:06:01 29.5 C 5.9 g/m*3 29.5 C 0 km/h
2412 09-09-2008 17:11:01 30.1 C 6.4 g/m*3 30.1 C 0 km/h
2413 09-09-2008 17:16:02 30 C 6.06 g/m*3 30 C 0 km/h
2414 09-09-2008 17:21:02 30.1 C 6.1 g/m*3 30.1 C 0 km/h
2415 09-09-2008 17:26:02 30 C 6.06 g/m*3 30 C 0 km/h
2416 09-09-2008 17:31:01 30 C 6.06 g/m*3 30 C 0 km/h
2417 09-09-2008 17:36:01 30 C 6.06 g/m*3 30 C 0 km/h
2418 09-09-2008 17:41:02 30.1 C 6.1 g/m*3 30.1 C 0 km/h
2419 09-09-2008 17:46:02 30.3 C 6.16 g/m*3 30.3 C 0 km/h
2420 09-09-2008 17:51:02 30.3 C 6.16 g/m*3 30.3 C 0 km/h
2421 09-09-2008 17:56:02 30.1 C 6.1 g/m*3 30.1 C 0 km/h
2422 09-09-2008 18:01:02 30.2 C 6.74 g/m*3 30.2 C 0 km/h
2423 09-09-2008 18:06:02 30.2 C 6.13 g/m*3 30.2 C 0 km/h
2424 09-09-2008 18:11:02 30 C 6.06 g/m*3 30 C 0 km/h
2425 09-09-2008 18:16:02 29.9 C 6.03 g/m*3 29.9 C 0 km/h
Sensor: Nr:Datum:Temp:Abs-Feuchte:Windchill:Wind:
Aussen-T/F 2426 09-09-2008 18:21:02 29.7 C 6.27 g/m*3 29.7 C 0 km/h
2427 09-09-2008 18:26:02 29.4 C 5.87 g/m*3 29.4 C 0 km/h
2428 09-09-2008 18:31:01 29 C 6.03 g/m*3 29 C 0 km/h
2429 09-09-2008 18:36:01 28.8 C 6.25 g/m*3 28.8 C 0 km/h
2430 09-09-2008 18:41:01 28.5 C 6.71 g/m*3 28.5 C 0 km/h
2431 09-09-2008 18:46:02 28 C 6.8 g/m*3 28 C 0 km/h
2432 09-09-2008 18:51:02 27.4 C 6.58 g/m*3 27.4 C 0 km/h
2433 09-09-2008 18:56:02 27.2 C 6.77 g/m*3 27.2 C 0 km/h
2434 09-09-2008 19:01:02 27 C 6.69 g/m*3 27 C 0 km/h
2435 09-09-2008 19:06:02 25.9 C 7.26 g/m*3 25.9 C 0 km/h
2436 09-09-2008 19:11:02 25.5 C 6.87 g/m*3 25.5 C 0 km/h
2437 09-09-2008 19:16:01 24.9 C 6.87 g/m*3 24.9 C 0 km/h
2438 09-09-2008 19:21:01 24.6 C 6.75 g/m*3 24.6 C 0 km/h
2439 09-09-2008 19:26:01 24.3 C 6.86 g/m*3 24.3 C 0 km/h
2440 09-09-2008 19:31:02 23.9 C 7.14 g/m*3 23.9 C 0 km/h
2441 09-09-2008 19:36:02 23.3 C 6.9 g/m*3 23.3 C 0 km/h
2442 09-09-2008 19:41:03 22.9 C 7.15 g/m*3 22.9 C 0 km/h
2443 09-09-2008 19:46:02 22.6 C 7.03 g/m*3 22.6 C 0 km/h
2444 09-09-2008 19:51:02 22.5 C 7.19 g/m*3 22.5 C 0 km/h
2445 09-09-2008 19:56:02 22.1 C 7.42 g/m*3 22.1 C 0 km/h
2446 09-09-2008 20:01:03 22.1 C 7.42 g/m*3 22.1 C 0 km/h
2447 09-09-2008 20:06:03 21.7 C 7.44 g/m*3 21.7 C 0 km/h
2448 09-09-2008 20:11:03 21.5 C 7.17 g/m*3 21.5 C 0 km/h
2449 09-09-2008 20:16:02 21.4 C 7.31 g/m*3 21.4 C 0 km/h
2450 09-09-2008 20:21:02 21.1 C 7 g/m*3 21.1 C 0 km/h
Sensor: Nr:Datum:Temp:Abs-Feuchte:Windchill:Wind:
Aussen-T/F 2451 09-09-2008 20:26:03 20.8 C 7.42 g/m*3 20.8 C 0 km/h
2452 09-09-2008 20:31:02 20.7 C 7.38 g/m*3 20.7 C 0 km/h
2453 09-09-2008 20:36:02 20.4 C 7.25 g/m*3 20.4 C 0 km/h
2454 09-09-2008 20:41:02 20.4 C 7.25 g/m*3 20.4 C 0 km/h
2455 09-09-2008 20:46:02 20.3 C 7.39 g/m*3 20.3 C 0 km/h
2456 09-09-2008 20:51:02 20.2 C 7.52 g/m*3 20.2 C 0 km/h
2457 09-09-2008 20:56:02 20.2 C 7.52 g/m*3 20.2 C 0 km/h
2458 09-09-2008 21:01:02 20.1 C 7.65 g/m*3 20.1 C 0 km/h
2459 09-09-2008 21:06:02 20.1 C 7.65 g/m*3 20.1 C 0 km/h
2460 09-09-2008 21:11:02 20 C 7.6 g/m*3 20 C 0 km/h
2461 09-09-2008 21:16:01 19.9 C 7.73 g/m*3 19.9 C 0 km/h
2462 09-09-2008 21:21:01 19.9 C 7.56 g/m*3 19.9 C 0 km/h
2463 09-09-2008 21:26:01 19.9 C 7.73 g/m*3 19.9 C 0 km/h
2464 09-09-2008 21:31:02 19.7 C 7.81 g/m*3 19.7 C 0 km/h
2465 09-09-2008 21:36:03 20.1 C 8 g/m*3 20.1 C 0 km/h
2466 09-09-2008 21:41:03 19.8 C 8.2 g/m*3 19.8 C 0 km/h
2467 09-09-2008 21:46:02 19.7 C 8.15 g/m*3 19.7 C 0 km/h
2468 09-09-2008 21:51:02 19.8 C 8.2 g/m*3 19.8 C 0 km/h
2469 09-09-2008 21:56:02 19.8 C 8.2 g/m*3 19.8 C 0 km/h
2470 09-09-2008 22:01:03 20 C 8.12 g/m*3 20 C 0 km/h
2471 09-09-2008 22:06:03 20.1 C 8 g/m*3 20.1 C 0 km/h
2472 09-09-2008 22:11:03 20.1 C 8 g/m*3 20.1 C 0 km/h
2473 09-09-2008 22:16:02 20.1 C 8.17 g/m*3 20.1 C 0 km/h
2474 09-09-2008 22:21:02 20.1 C 8.34 g/m*3 20.1 C 0 km/h
2475 09-09-2008 22:26:03 19.9 C 8.59 g/m*3 19.9 C 0 km/h
Sensor: Nr:Datum:Temp:Abs-Feuchte:Windchill:Wind:
Aussen-T/F 2476 09-09-2008 22:32:03 19.8 C 8.54 g/m*3 19.8 C 0 km/h
2477 09-09-2008 22:37:03 19.7 C 8.15 g/m*3 19.7 C 0 km/h
2478 09-09-2008 22:42:03 19.9 C 8.59 g/m*3 19.9 C 0 km/h
2479 09-09-2008 22:47:03 19.9 C 8.59 g/m*3 19.9 C 0 km/h
2480 09-09-2008 22:52:04 19.9 C 8.76 g/m*3 19.9 C 0 km/h
2481 09-09-2008 22:57:04 19.8 C 8.71 g/m*3 19.8 C 0 km/h
2482 09-09-2008 23:02:04 19.8 C 8.88 g/m*3 19.8 C 0 km/h
2483 09-09-2008 23:07:04 19.8 C 8.88 g/m*3 19.8 C 0 km/h
2484 09-09-2008 23:12:04 19.8 C 8.88 g/m*3 19.8 C 0 km/h
2485 09-09-2008 23:17:04 19.8 C 8.88 g/m*3 19.8 C 0 km/h
2486 09-09-2008 23:22:04 19.8 C 9.22 g/m*3 19.8 C 0 km/h
2487 09-09-2008 23:27:04 19.8 C 9.05 g/m*3 19.8 C 0 km/h
2488 09-09-2008 23:32:04 19.8 C 8.88 g/m*3 19.8 C 0 km/h
2489 09-09-2008 23:37:04 19.8 C 9.05 g/m*3 19.8 C 0 km/h
2490 09-09-2008 23:42:04 19.7 C 9 g/m*3 19.7 C 0 km/h
2491 09-09-2008 23:47:04 19.7 C 9.17 g/m*3 19.7 C 0 km/h
2492 09-09-2008 23:52:04 19.7 C 9.17 g/m*3 19.7 C 0 km/h
2493 09-09-2008 23:57:04 19.7 C 9.17 g/m*3 19.7 C 0 km/h
2494 10-09-2008 00:02:04 19.5 C 9.06 g/m*3 19.5 C 0 km/h
2495 10-09-2008 00:07:04 19.5 C 8.89 g/m*3 19.5 C 0 km/h
2496 10-09-2008 00:12:04 19.6 C 9.12 g/m*3 19.6 C 0 km/h
2497 10-09-2008 00:17:04 19.4 C 9.34 g/m*3 19.4 C 0 km/h
2498 10-09-2008 00:22:04 19.2 C 9.4 g/m*3 19.2 C 0 km/h
2499 10-09-2008 00:27:04 18.9 C 10.04 g/m*3 18.9 C 0 km/h
2500 10-09-2008 00:32:04 18.9 C 10.04 g/m*3 18.9 C 0 km/h
Sensor: Nr:Datum:Temp:Abs-Feuchte:Windchill:Wind:
Aussen-T/F 2501 10-09-2008 00:37:05 18.8 C 9.82 g/m*3 18.8 C 0 km/h
2502 10-09-2008 00:42:05 18.8 C 9.66 g/m*3 18.8 C 0 km/h
2503 10-09-2008 00:47:05 18.9 C 9.56 g/m*3 18.9 C 0 km/h
2504 10-09-2008 00:52:05 18.9 C 9.72 g/m*3 18.9 C 0 km/h
2505 10-09-2008 00:57:05 18.8 C 9.66 g/m*3 18.8 C 0 km/h
2506 10-09-2008 01:02:05 18.7 C 9.45 g/m*3 18.7 C 0 km/h
2507 10-09-2008 01:07:05 18.5 C 9.65 g/m*3 18.5 C 0 km/h
2508 10-09-2008 01:12:05 18.4 C 9.75 g/m*3 18.4 C 0 km/h
2509 10-09-2008 01:17:05 18.2 C 9.64 g/m*3 18.2 C 0 km/h
2510 10-09-2008 01:22:05 18 C 9.68 g/m*3 18 C 0 km/h
2511 10-09-2008 01:27:05 17.9 C 9.92 g/m*3 17.9 C 0 km/h
2512 10-09-2008 01:32:05 17.8 C 9.87 g/m*3 17.8 C 0 km/h
2513 10-09-2008 01:37:05 17.9 C 9.92 g/m*3 17.9 C 0 km/h
2514 10-09-2008 01:42:05 18 C 9.83 g/m*3 18 C 0 km/h
2515 10-09-2008 01:47:05 18 C 9.83 g/m*3 18 C 0 km/h
2516 10-09-2008 01:52:05 18 C 9.83 g/m*3 18 C 0 km/h
2517 10-09-2008 01:57:05 18.1 C 9.73 g/m*3 18.1 C 0 km/h
2518 10-09-2008 02:02:05 18.1 C 9.73 g/m*3 18.1 C 0 km/h
2519 10-09-2008 02:07:05 18.1 C 9.58 g/m*3 18.1 C 0 km/h
2520 10-09-2008 02:12:05 17.9 C 9.62 g/m*3 17.9 C 0 km/h
2521 10-09-2008 02:17:06 17.8 C 9.71 g/m*3 17.8 C 0 km/h
2522 10-09-2008 02:22:06 17.7 C 9.66 g/m*3 17.7 C 0 km/h
2523 10-09-2008 02:27:06 17.5 C 9.54 g/m*3 17.5 C 0 km/h
2524 10-09-2008 02:32:06 17.4 C 9.48 g/m*3 17.4 C 0 km/h
2525 10-09-2008 02:37:06 17.3 C 9.58 g/m*3 17.3 C 0 km/h
Sensor: Nr:Datum:Temp:Abs-Feuchte:Windchill:Wind:
Aussen-T/F 2526 10-09-2008 02:42:06 17.2 C 9.67 g/m*3 17.2 C 0 km/h
2527 10-09-2008 02:47:06 17.2 C 9.67 g/m*3 17.2 C 0 km/h
2528 10-09-2008 02:52:06 17 C 9.55 g/m*3 17 C 0 km/h
2529 10-09-2008 02:57:06 16.9 C 9.78 g/m*3 16.9 C 0 km/h
2530 10-09-2008 03:02:06 16.9 C 9.78 g/m*3 16.9 C 0 km/h
2531 10-09-2008 03:07:06 16.9 C 9.78 g/m*3 16.9 C 0 km/h
2532 10-09-2008 03:12:06 16.7 C 9.81 g/m*3 16.7 C 0 km/h
2533 10-09-2008 03:17:06 16.6 C 9.75 g/m*3 16.6 C 0 km/h
2534 10-09-2008 03:22:06 16.6 C 9.75 g/m*3 16.6 C 0 km/h
2535 10-09-2008 03:27:06 16.6 C 9.75 g/m*3 16.6 C 0 km/h
2536 10-09-2008 03:32:06 16.4 C 9.77 g/m*3 16.4 C 0 km/h
2537 10-09-2008 03:37:06 16.4 C 9.77 g/m*3 16.4 C 0 km/h
2538 10-09-2008 03:42:06 16.3 C 9.71 g/m*3 16.3 C 0 km/h
2539 10-09-2008 03:47:06 16.2 C 9.65 g/m*3 16.2 C 0 km/h
2540 10-09-2008 03:52:06 16.2 C 9.79 g/m*3 16.2 C 0 km/h
2541 10-09-2008 03:57:06 16.2 C 9.79 g/m*3 16.2 C 0 km/h
2542 10-09-2008 04:02:07 16 C 9.81 g/m*3 16 C 0 km/h
2543 10-09-2008 04:07:07 15.9 C 10.02 g/m*3 15.9 C 0 km/h
2544 10-09-2008 04:12:07 15.9 C 10.02 g/m*3 15.9 C 0 km/h
2545 10-09-2008 04:17:07 15.9 C 10.02 g/m*3 15.9 C 0 km/h
2546 10-09-2008 04:22:07 15.8 C 9.96 g/m*3 15.8 C 0 km/h
2547 10-09-2008 04:27:07 15.8 C 9.96 g/m*3 15.8 C 0 km/h
2548 10-09-2008 04:32:07 15.8 C 9.96 g/m*3 15.8 C 0 km/h
2549 10-09-2008 04:37:07 15.8 C 9.96 g/m*3 15.8 C 0 km/h
2550 10-09-2008 04:42:07 15.8 C 10.1 g/m*3 15.8 C 0 km/h
Sensor: Nr:Datum:Temp:Abs-Feuchte:Windchill:Wind:
Aussen-T/F 2551 10-09-2008 04:47:07 15.8 C 10.1 g/m*3 15.8 C 0 km/h
2552 10-09-2008 04:52:07 15.7 C 10.17 g/m*3 15.7 C 0 km/h
2553 10-09-2008 04:57:07 15.7 C 10.17 g/m*3 15.7 C 0 km/h
2554 10-09-2008 05:02:07 15.6 C 10.11 g/m*3 15.6 C 0 km/h
2555 10-09-2008 05:07:07 15.6 C 10.11 g/m*3 15.6 C 0 km/h
2556 10-09-2008 05:12:07 15.6 C 10.24 g/m*3 15.6 C 0 km/h
2557 10-09-2008 05:17:07 15.5 C 10.31 g/m*3 15.5 C 0 km/h
2558 10-09-2008 05:22:07 15.5 C 10.31 g/m*3 15.5 C 0 km/h
2559 10-09-2008 05:27:07 15.5 C 10.31 g/m*3 15.5 C 0 km/h
2560 10-09-2008 05:32:07 15.5 C 10.57 g/m*3 15.5 C 0 km/h
2561 10-09-2008 05:37:07 15.6 C 10.77 g/m*3 15.6 C 0 km/h
2562 10-09-2008 05:42:07 15.8 C 11.04 g/m*3 15.8 C 0 km/h
2563 10-09-2008 05:47:08 15.8 C 11.04 g/m*3 15.8 C 0 km/h
2564 10-09-2008 05:52:08 16 C 11.04 g/m*3 16 C 0 km/h
2565 10-09-2008 05:57:08 16 C 10.9 g/m*3 16 C 0 km/h
2566 10-09-2008 06:02:08 15.9 C 10.83 g/m*3 15.9 C 0 km/h
2567 10-09-2008 06:07:08 16 C 10.76 g/m*3 16 C 0 km/h
2568 10-09-2008 06:12:08 16.1 C 10.83 g/m*3 16.1 C 0 km/h
2569 10-09-2008 06:17:08 16.1 C 10.69 g/m*3 16.1 C 0 km/h
2570 10-09-2008 06:22:08 16.1 C 10.69 g/m*3 16.1 C 0 km/h
2571 10-09-2008 06:27:08 15.9 C 10.56 g/m*3 15.9 C 0 km/h
2572 10-09-2008 06:32:08 15.7 C 10.57 g/m*3 15.7 C 0 km/h
2573 10-09-2008 06:37:08 15.7 C 10.57 g/m*3 15.7 C 0 km/h
2574 10-09-2008 06:42:08 15.6 C 10.51 g/m*3 15.6 C 0 km/h
2575 10-09-2008 06:47:02 15.6 C 10.64 g/m*3 15.6 C 0 km/h
Sensor: Nr:Datum:Temp:Abs-Feuchte:Windchill:Wind:
Aussen-T/F 2576 10-09-2008 06:52:02 15.6 C 10.64 g/m*3 15.6 C 0 km/h
2577 10-09-2008 06:57:02 15.8 C 10.9 g/m*3 15.8 C 0 km/h
2578 10-09-2008 07:02:02 15.8 C 10.9 g/m*3 15.8 C 0 km/h
2579 10-09-2008 07:07:02 15.7 C 10.84 g/m*3 15.7 C 0 km/h
2580 10-09-2008 07:12:02 15.7 C 10.84 g/m*3 15.7 C 0 km/h
2581 10-09-2008 07:17:02 15.8 C 10.9 g/m*3 15.8 C 0 km/h
2582 10-09-2008 07:22:02 15.8 C 10.9 g/m*3 15.8 C 0 km/h
2583 10-09-2008 07:27:02 15.8 C 10.9 g/m*3 15.8 C 0 km/h
2584 10-09-2008 07:32:02 16.2 C 11.03 g/m*3 16.2 C 0 km/h
2585 10-09-2008 07:37:02 16.2 C 10.89 g/m*3 16.2 C 0 km/h
2586 10-09-2008 07:42:02 16.2 C 10.89 g/m*3 16.2 C 0 km/h
2587 10-09-2008 07:47:01 16.5 C 11.09 g/m*3 16.5 C 0 km/h
2588 10-09-2008 07:52:01 16.5 C 11.09 g/m*3 16.5 C 0 km/h
2589 10-09-2008 07:57:01 16.8 C 11.01 g/m*3 16.8 C 0 km/h
2590 10-09-2008 08:02:02 17 C 10.85 g/m*3 17 C 0 km/h
2591 10-09-2008 08:07:02 17.1 C 10.77 g/m*3 17.1 C 0 km/h
2592 10-09-2008 08:12:02 17.2 C 10.84 g/m*3 17.2 C 0 km/h
2593 10-09-2008 08:17:01 17.1 C 10.77 g/m*3 17.1 C 0 km/h
2594 10-09-2008 08:22:01 17.9 C 11.3 g/m*3 17.9 C 0 km/h
2595 10-09-2008 08:27:01 17.2 C 10.84 g/m*3 17.2 C 0 km/h
2596 10-09-2008 08:32:02 17.4 C 10.82 g/m*3 17.4 C 0 km/h
2597 10-09-2008 08:37:02 17.5 C 10.88 g/m*3 17.5 C 0 km/h
2598 10-09-2008 08:42:02 17.5 C 10.88 g/m*3 17.5 C 0 km/h
2599 10-09-2008 08:47:02 17.5 C 10.88 g/m*3 17.5 C 0 km/h
2600 10-09-2008 08:52:02 17.5 C 10.88 g/m*3 17.5 C 0 km/h
Sensor: Nr:Datum:Temp:Abs-Feuchte:Windchill:Wind:
Aussen-T/F 2601 10-09-2008 08:57:02 17.6 C 10.95 g/m*3 17.6 C 0 km/h
2602 10-09-2008 09:02:01 17.8 C 11.08 g/m*3 17.8 C 0 km/h
2603 10-09-2008 09:07:01 17.9 C 10.99 g/m*3 17.9 C 0 km/h
2604 10-09-2008 09:12:01 18 C 11.06 g/m*3 18 C 0 km/h
2605 10-09-2008 09:17:02 18.1 C 11.12 g/m*3 18.1 C 0 km/h
2606 10-09-2008 09:22:02 18.3 C 11.1 g/m*3 18.3 C 0 km/h
2607 10-09-2008 09:27:02 18.4 C 11.17 g/m*3 18.4 C 0 km/h
2608 10-09-2008 09:32:01 18.5 C 11.08 g/m*3 18.5 C 0 km/h
2609 10-09-2008 09:37:01 18.8 C 11.27 g/m*3 18.8 C 0 km/h
2610 10-09-2008 09:42:02 19 C 10.92 g/m*3 19 C 0 km/h
2611 10-09-2008 09:47:02 19 C 10.92 g/m*3 19 C 0 km/h
2612 10-09-2008 09:52:02 19.4 C 11.18 g/m*3 19.4 C 0 km/h
2613 10-09-2008 09:57:02 20 C 11.23 g/m*3 20 C 0 km/h
2614 10-09-2008 10:02:02 20.1 C 11.13 g/m*3 20.1 C 0 km/h
2615 10-09-2008 10:07:02 20.5 C 11.03 g/m*3 20.5 C 0 km/h
2616 10-09-2008 10:12:02 20.8 C 11.23 g/m*3 20.8 C 0 km/h
2617 10-09-2008 10:17:01 21 C 10.99 g/m*3 21 C 0 km/h
2618 10-09-2008 10:22:01 21.3 C 11.18 g/m*3 21.3 C 0 km/h
2619 10-09-2008 10:27:01 21.4 C 11.25 g/m*3 21.4 C 0 km/h
2620 10-09-2008 10:32:02 21.5 C 11.31 g/m*3 21.5 C 0 km/h
2621 10-09-2008 10:37:02 21.6 C 11.19 g/m*3 21.6 C 0 km/h
2622 10-09-2008 10:42:02 21.5 C 11.13 g/m*3 21.5 C 0 km/h
2623 10-09-2008 10:47:02 21.5 C 11.13 g/m*3 21.5 C 0 km/h
2624 10-09-2008 10:52:02 21.5 C 11.13 g/m*3 21.5 C 0 km/h
2625 10-09-2008 10:57:03 21.4 C 11.06 g/m*3 21.4 C 0 km/h
Sensor: Nr:Datum:Temp:Abs-Feuchte:Windchill:Wind:
Aussen-T/F 2626 10-09-2008 11:02:02 21.4 C 11.25 g/m*3 21.4 C 0 km/h
2627 10-09-2008 11:07:02 21.6 C 11.19 g/m*3 21.6 C 0 km/h
2628 10-09-2008 11:12:02 21.9 C 11.19 g/m*3 21.9 C 0 km/h
2629 10-09-2008 11:17:02 22.1 C 10.93 g/m*3 22.1 C 0 km/h
2630 10-09-2008 11:22:02 22.2 C 10.99 g/m*3 22.2 C 0 km/h
2631 10-09-2008 11:27:02 22.5 C 10.99 g/m*3 22.5 C 0 km/h
2632 10-09-2008 11:32:02 22.6 C 11.05 g/m*3 22.6 C 0 km/h
2633 10-09-2008 11:37:02 22.7 C 11.31 g/m*3 22.7 C 0 km/h
2634 10-09-2008 11:42:02 22.7 C 11.11 g/m*3 22.7 C 0 km/h
2635 10-09-2008 11:47:02 22.6 C 11.25 g/m*3 22.6 C 0 km/h
2636 10-09-2008 11:52:02 22.6 C 11.25 g/m*3 22.6 C 0 km/h
2637 10-09-2008 11:57:02 22.7 C 11.31 g/m*3 22.7 C 0 km/h
2638 10-09-2008 12:02:02 23 C 11.1 g/m*3 23 C 0 km/h
2639 10-09-2008 12:07:03 23.2 C 11.02 g/m*3 23.2 C 0 km/h
2640 10-09-2008 12:12:03 23.2 C 11.02 g/m*3 23.2 C 0 km/h
2641 10-09-2008 12:17:02 23.5 C 11.21 g/m*3 23.5 C 0 km/h
2642 10-09-2008 12:22:02 23.4 C 11.14 g/m*3 23.4 C 0 km/h
2643 10-09-2008 12:27:02 23.2 C 11.23 g/m*3 23.2 C 0 km/h
2644 10-09-2008 12:32:02 23.2 C 11.23 g/m*3 23.2 C 0 km/h
2645 10-09-2008 12:37:02 23.5 C 11.42 g/m*3 23.5 C 0 km/h
2646 10-09-2008 12:42:02 24 C 11.1 g/m*3 24 C 0 km/h
2647 10-09-2008 12:47:02 24 C 10.88 g/m*3 24 C 0 km/h
2648 10-09-2008 12:52:02 24.2 C 11 g/m*3 24.2 C 0 km/h
2649 10-09-2008 12:57:03 24.4 C 10.9 g/m*3 24.4 C 0 km/h
2650 10-09-2008 13:02:01 24.5 C 10.97 g/m*3 24.5 C 0 km/h
Sensor: Nr:Datum:Temp:Abs-Feuchte:Windchill:Wind:
Aussen-T/F 2651 10-09-2008 13:07:01 24.9 C 10.76 g/m*3 24.9 C 0 km/h
2652 10-09-2008 13:12:01 25 C 10.59 g/m*3 25 C 0 km/h
2653 10-09-2008 13:17:02 24.9 C 10.53 g/m*3 24.9 C 0 km/h
2654 10-09-2008 13:22:02 24.8 C 10.7 g/m*3 24.8 C 0 km/h
2655 10-09-2008 13:27:02 24.7 C 10.41 g/m*3 24.7 C 0 km/h
2656 10-09-2008 13:32:02 24.9 C 10.99 g/m*3 24.9 C 0 km/h
2657 10-09-2008 13:37:02 24.9 C 10.76 g/m*3 24.9 C 0 km/h
2658 10-09-2008 13:42:02 24.6 C 10.58 g/m*3 24.6 C 0 km/h
2659 10-09-2008 13:47:01 24.4 C 10.46 g/m*3 24.4 C 0 km/h
2660 10-09-2008 13:52:01 24.4 C 10.46 g/m*3 24.4 C 0 km/h
2661 10-09-2008 13:57:01 24.6 C 10.8 g/m*3 24.6 C 0 km/h
2662 10-09-2008 14:02:02 25.4 C 10.83 g/m*3 25.4 C 0 km/h
2663 10-09-2008 14:07:02 25.7 C 10.29 g/m*3 25.7 C 0 km/h
2664 10-09-2008 14:12:02 26 C 10.23 g/m*3 26 C 0 km/h
2665 10-09-2008 14:17:02 26.1 C 9.79 g/m*3 26.1 C 0 km/h
2666 10-09-2008 14:22:02 25.9 C 9.93 g/m*3 25.9 C 0 km/h
2667 10-09-2008 14:27:02 25.9 C 9.93 g/m*3 25.9 C 0 km/h
2668 10-09-2008 14:32:02 25.8 C 9.87 g/m*3 25.8 C 0 km/h
2669 10-09-2008 14:37:02 25.5 C 9.71 g/m*3 25.5 C 0 km/h
2670 10-09-2008 14:42:02 25.6 C 9.76 g/m*3 25.6 C 0 km/h
2671 10-09-2008 14:47:02 25.6 C 10 g/m*3 25.6 C 0 km/h
2672 10-09-2008 14:52:03 25.7 C 9.82 g/m*3 25.7 C 0 km/h
2673 10-09-2008 14:57:03 25.9 C 9.68 g/m*3 25.9 C 0 km/h
2674 10-09-2008 15:02:01 26.5 C 9.51 g/m*3 26.5 C 0 km/h
2675 10-09-2008 15:07:01 26.6 C 9.57 g/m*3 26.6 C 0 km/h
Sensor: Nr:Datum:Temp:Abs-Feuchte:Windchill:Wind:
Aussen-T/F 2676 10-09-2008 15:12:01 26.8 C 9.67 g/m*3 26.8 C 0 km/h
2677 10-09-2008 15:17:02 26.9 C 9.47 g/m*3 26.9 C 0 km/h
2678 10-09-2008 15:22:02 27.3 C 9.42 g/m*3 27.3 C 0 km/h
2679 10-09-2008 15:27:02 27.3 C 9.16 g/m*3 27.3 C 0 km/h
2680 10-09-2008 15:32:01 27.2 C 9.11 g/m*3 27.2 C 0 km/h
2681 10-09-2008 15:37:01 27.3 C 9.42 g/m*3 27.3 C 0 km/h
2682 10-09-2008 15:42:01 27.1 C 9.32 g/m*3 27.1 C 0 km/h
2683 10-09-2008 15:47:01 26.9 C 9.21 g/m*3 26.9 C 0 km/h
2684 10-09-2008 15:52:01 27 C 9.26 g/m*3 27 C 0 km/h
2685 10-09-2008 15:57:01 26.7 C 9.37 g/m*3 26.7 C 0 km/h
2686 10-09-2008 16:02:02 26.9 C 9.73 g/m*3 26.9 C 0 km/h
2687 10-09-2008 16:07:02 26.8 C 9.42 g/m*3 26.8 C 0 km/h
2688 10-09-2008 16:12:02 27 C 9.01 g/m*3 27 C 0 km/h
2689 10-09-2008 16:17:01 27 C 9.01 g/m*3 27 C 0 km/h
2690 10-09-2008 16:22:01 27.4 C 9.21 g/m*3 27.4 C 0 km/h
2691 10-09-2008 16:27:01 27.7 C 9.36 g/m*3 27.7 C 0 km/h
2692 10-09-2008 16:32:02 27.7 C 9.09 g/m*3 27.7 C 0 km/h
2693 10-09-2008 16:37:02 27.5 C 8.73 g/m*3 27.5 C 0 km/h
2694 10-09-2008 16:42:02 27.8 C 9.15 g/m*3 27.8 C 0 km/h
2695 10-09-2008 16:47:02 27.9 C 8.92 g/m*3 27.9 C 0 km/h
2696 10-09-2008 16:52:03 27.8 C 8.88 g/m*3 27.8 C 0 km/h
2697 10-09-2008 16:57:03 27.8 C 8.88 g/m*3 27.8 C 0 km/h
2698 10-09-2008 17:02:02 27.6 C 8.78 g/m*3 27.6 C 0 km/h
2699 10-09-2008 17:07:02 27.6 C 9.04 g/m*3 27.6 C 0 km/h
2700 10-09-2008 17:12:02 27.3 C 8.9 g/m*3 27.3 C 0 km/h
Sensor: Nr:Datum:Temp:Abs-Feuchte:Windchill:Wind:
Aussen-T/F 2701 10-09-2008 17:17:02 27.7 C 9.09 g/m*3 27.7 C 0 km/h
2702 10-09-2008 17:22:02 27.8 C 8.88 g/m*3 27.8 C 0 km/h
2703 10-09-2008 17:27:02 27.8 C 8.88 g/m*3 27.8 C 0 km/h
2704 10-09-2008 17:32:02 28 C 8.7 g/m*3 28 C 0 km/h
2705 10-09-2008 17:37:02 28.3 C 8.57 g/m*3 28.3 C 0 km/h
2706 10-09-2008 17:42:02 28 C 8.43 g/m*3 28 C 0 km/h
2707 10-09-2008 17:47:02 28.2 C 8.52 g/m*3 28.2 C 0 km/h
2708 10-09-2008 17:52:02 27.7 C 8.83 g/m*3 27.7 C 0 km/h
2709 10-09-2008 17:57:02 27.6 C 8.78 g/m*3 27.6 C 0 km/h
2710 10-09-2008 18:02:02 27.5 C 9 g/m*3 27.5 C 0 km/h
2711 10-09-2008 18:07:02 27.5 C 9 g/m*3 27.5 C 0 km/h
2712 10-09-2008 18:12:02 27.7 C 8.83 g/m*3 27.7 C 0 km/h
2713 10-09-2008 18:17:02 27.9 C 8.92 g/m*3 27.9 C 0 km/h
2714 10-09-2008 18:22:02 27.3 C 8.63 g/m*3 27.3 C 0 km/h
2715 10-09-2008 18:27:02 27.4 C 8.95 g/m*3 27.4 C 0 km/h
2716 10-09-2008 18:32:02 27.2 C 9.11 g/m*3 27.2 C 0 km/h
2717 10-09-2008 18:37:02 27.5 C 9.26 g/m*3 27.5 C 0 km/h
2718 10-09-2008 18:42:02 27.7 C 9.36 g/m*3 27.7 C 0 km/h
2719 10-09-2008 18:47:02 27.5 C 9 g/m*3 27.5 C 0 km/h
2720 10-09-2008 18:52:02 27.4 C 8.95 g/m*3 27.4 C 0 km/h
2721 10-09-2008 18:57:02 27.2 C 8.85 g/m*3 27.2 C 0 km/h
2722 10-09-2008 19:02:01 26.6 C 8.81 g/m*3 26.6 C 0 km/h
2723 10-09-2008 19:07:01 26.5 C 9.01 g/m*3 26.5 C 0 km/h
2724 10-09-2008 19:12:01 26.4 C 9.46 g/m*3 26.4 C 0 km/h
2725 10-09-2008 19:17:02 26.3 C 9.41 g/m*3 26.3 C 0 km/h
Sensor: Nr:Datum:Temp:Abs-Feuchte:Windchill:Wind:
Aussen-T/F 2726 10-09-2008 19:22:02 26 C 9.25 g/m*3 26 C 0 km/h
2727 10-09-2008 19:27:02 25.8 C 9.63 g/m*3 25.8 C 0 km/h
2728 10-09-2008 19:32:01 25.3 C 9.6 g/m*3 25.3 C 0 km/h
2729 10-09-2008 19:37:01 24.7 C 9.51 g/m*3 24.7 C 0 km/h
2730 10-09-2008 19:42:01 24.4 C 9.79 g/m*3 24.4 C 0 km/h
2731 10-09-2008 19:47:01 23.9 C 9.95 g/m*3 23.9 C 0 km/h
2732 10-09-2008 19:52:01 23.7 C 9.84 g/m*3 23.7 C 0 km/h
2733 10-09-2008 19:57:01 23.6 C 10 g/m*3 23.6 C 0 km/h
2734 10-09-2008 20:02:02 23.3 C 10.04 g/m*3 23.3 C 0 km/h
2735 10-09-2008 20:07:02 23.1 C 10.13 g/m*3 23.1 C 0 km/h
2736 10-09-2008 20:12:02 22.9 C 10.42 g/m*3 22.9 C 0 km/h
2737 10-09-2008 20:17:01 22.7 C 10.51 g/m*3 22.7 C 0 km/h
2738 10-09-2008 20:22:01 22.5 C 10.39 g/m*3 22.5 C 0 km/h
2739 10-09-2008 20:27:01 22.5 C 10.59 g/m*3 22.5 C 0 km/h
2740 10-09-2008 20:32:02 22.3 C 10.66 g/m*3 22.3 C 0 km/h
2741 10-09-2008 20:37:02 22.2 C 10.6 g/m*3 22.2 C 0 km/h
2742 10-09-2008 20:42:02 22.1 C 10.74 g/m*3 22.1 C 0 km/h
2743 10-09-2008 20:47:02 21.9 C 11 g/m*3 21.9 C 0 km/h
2744 10-09-2008 20:52:02 21.7 C 10.87 g/m*3 21.7 C 0 km/h
2745 10-09-2008 20:57:02 21.7 C 11.06 g/m*3 21.7 C 0 km/h
2746 10-09-2008 21:02:02 21.6 C 11 g/m*3 21.6 C 0 km/h
2747 10-09-2008 21:07:02 21.4 C 11.06 g/m*3 21.4 C 0 km/h
2748 10-09-2008 21:12:02 21.4 C 11.06 g/m*3 21.4 C 0 km/h
2749 10-09-2008 21:18:02 21.2 C 10.93 g/m*3 21.2 C 0 km/h
2750 10-09-2008 21:23:02 21.1 C 11.06 g/m*3 21.1 C 0 km/h
Sensor: Nr:Datum:Temp:Abs-Feuchte:Windchill:Wind:
Aussen-T/F 2751 10-09-2008 21:28:02 21 C 11.17 g/m*3 21 C 0 km/h
2752 10-09-2008 21:33:02 20.9 C 11.29 g/m*3 20.9 C 0 km/h
2753 10-09-2008 21:38:03 20.9 C 11.29 g/m*3 20.9 C 0 km/h
2754 10-09-2008 21:43:03 20.8 C 11.23 g/m*3 20.8 C 0 km/h
2755 10-09-2008 21:48:03 20.7 C 11.34 g/m*3 20.7 C 0 km/h
2756 10-09-2008 21:53:03 20.6 C 11.28 g/m*3 20.6 C 0 km/h
2757 10-09-2008 21:58:03 20.6 C 11.28 g/m*3 20.6 C 0 km/h
2758 10-09-2008 22:03:03 20.6 C 11.28 g/m*3 20.6 C 0 km/h
2759 10-09-2008 22:08:03 20.5 C 11.21 g/m*3 20.5 C 0 km/h
2760 10-09-2008 22:13:03 20.4 C 11.14 g/m*3 20.4 C 0 km/h
2761 10-09-2008 22:18:03 20.4 C 11.14 g/m*3 20.4 C 0 km/h
2762 10-09-2008 22:23:03 20.4 C 11.14 g/m*3 20.4 C 0 km/h
2763 10-09-2008 22:28:03 20.4 C 11.32 g/m*3 20.4 C 0 km/h
2764 10-09-2008 22:33:03 20.3 C 11.26 g/m*3 20.3 C 0 km/h
2765 10-09-2008 22:38:03 20.2 C 11.19 g/m*3 20.2 C 0 km/h
2766 10-09-2008 22:43:03 20.1 C 11.13 g/m*3 20.1 C 0 km/h
2767 10-09-2008 22:48:03 20.1 C 11.3 g/m*3 20.1 C 0 km/h
2768 10-09-2008 22:53:03 20 C 11.23 g/m*3 20 C 0 km/h
2769 10-09-2008 22:58:03 19.9 C 11.51 g/m*3 19.9 C 0 km/h
2770 10-09-2008 23:03:03 19.8 C 11.61 g/m*3 19.8 C 0 km/h
2771 10-09-2008 23:08:03 19.9 C 11.85 g/m*3 19.9 C 0 km/h
2772 10-09-2008 23:13:03 19.9 C 11.85 g/m*3 19.9 C 0 km/h
2773 10-09-2008 23:18:04 20 C 11.75 g/m*3 20 C 0 km/h
2774 10-09-2008 23:23:04 19.7 C 11.72 g/m*3 19.7 C 0 km/h
2775 10-09-2008 23:28:04 19.7 C 11.72 g/m*3 19.7 C 0 km/h
Sensor: Nr:Datum:Temp:Abs-Feuchte:Windchill:Wind:
Aussen-T/F 2776 10-09-2008 23:33:04 19.6 C 11.82 g/m*3 19.6 C 0 km/h
2777 10-09-2008 23:38:04 19.6 C 11.99 g/m*3 19.6 C 0 km/h
2778 10-09-2008 23:43:04 19.5 C 11.92 g/m*3 19.5 C 0 km/h
2779 10-09-2008 23:48:04 19.5 C 11.92 g/m*3 19.5 C 0 km/h
2780 10-09-2008 23:53:04 19.4 C 12.01 g/m*3 19.4 C 0 km/h
2781 10-09-2008 23:58:04 19.3 C 11.94 g/m*3 19.3 C 0 km/h
2782 11-09-2008 00:03:04 19.2 C 12.04 g/m*3 19.2 C 0 km/h
2783 11-09-2008 00:08:04 19.1 C 11.97 g/m*3 19.1 C 0 km/h
2784 11-09-2008 00:13:04 19.1 C 12.13 g/m*3 19.1 C 0 km/h
2785 11-09-2008 00:18:04 18.9 C 12.15 g/m*3 18.9 C 0 km/h
2786 11-09-2008 00:23:04 18.7 C 12.17 g/m*3 18.7 C 0 km/h
2787 11-09-2008 00:28:04 18.7 C 12.17 g/m*3 18.7 C 0 km/h
2788 11-09-2008 00:33:04 18.7 C 12.17 g/m*3 18.7 C 0 km/h
2789 11-09-2008 00:38:04 18.5 C 12.02 g/m*3 18.5 C 0 km/h
2790 11-09-2008 00:43:04 18.4 C 11.95 g/m*3 18.4 C 0 km/h
2791 11-09-2008 00:48:04 18.3 C 11.88 g/m*3 18.3 C 0 km/h
2792 11-09-2008 00:53:05 18.2 C 11.81 g/m*3 18.2 C 0 km/h
2793 11-09-2008 00:58:05 18 C 11.67 g/m*3 18 C 0 km/h
2794 11-09-2008 01:03:05 18 C 11.67 g/m*3 18 C 0 km/h
2795 11-09-2008 01:08:05 17.8 C 11.69 g/m*3 17.8 C 0 km/h
2796 11-09-2008 01:13:05 17.6 C 11.7 g/m*3 17.6 C 0 km/h
2797 11-09-2008 01:18:05 17.5 C 11.63 g/m*3 17.5 C 0 km/h
2798 11-09-2008 01:23:05 17.5 C 11.63 g/m*3 17.5 C 0 km/h
2799 11-09-2008 01:28:05 17.5 C 11.63 g/m*3 17.5 C 0 km/h
2800 11-09-2008 01:33:05 17.4 C 11.56 g/m*3 17.4 C 0 km/h
Sensor: Nr:Datum:Temp:Abs-Feuchte:Windchill:Wind:
Aussen-T/F 2801 11-09-2008 01:38:05 17.3 C 11.49 g/m*3 17.3 C 0 km/h
2802 11-09-2008 01:43:05 17.2 C 11.42 g/m*3 17.2 C 0 km/h
2803 11-09-2008 01:48:05 17.2 C 11.57 g/m*3 17.2 C 0 km/h
2804 11-09-2008 01:53:05 17.2 C 11.57 g/m*3 17.2 C 0 km/h
2805 11-09-2008 01:58:05 17.3 C 11.64 g/m*3 17.3 C 0 km/h
2806 11-09-2008 02:03:05 17.1 C 11.5 g/m*3 17.1 C 0 km/h
2807 11-09-2008 02:08:05 17 C 11.43 g/m*3 17 C 0 km/h
2808 11-09-2008 02:13:05 16.9 C 11.65 g/m*3 16.9 C 0 km/h
2809 11-09-2008 02:18:05 16.7 C 11.51 g/m*3 16.7 C 0 km/h
2810 11-09-2008 02:23:05 16.6 C 11.44 g/m*3 16.6 C 0 km/h
2811 11-09-2008 02:28:06 16.6 C 11.44 g/m*3 16.6 C 0 km/h
2812 11-09-2008 02:33:06 16.5 C 11.51 g/m*3 16.5 C 0 km/h
2813 11-09-2008 02:38:06 16.4 C 11.45 g/m*3 16.4 C 0 km/h
2814 11-09-2008 02:43:06 16.4 C 11.31 g/m*3 16.4 C 0 km/h
2815 11-09-2008 02:48:06 16.3 C 11.24 g/m*3 16.3 C 0 km/h
2816 11-09-2008 02:53:06 16.3 C 11.24 g/m*3 16.3 C 0 km/h
2817 11-09-2008 02:58:06 16.2 C 11.17 g/m*3 16.2 C 0 km/h
2818 11-09-2008 03:03:06 16.2 C 11.17 g/m*3 16.2 C 0 km/h
2819 11-09-2008 03:08:06 16.1 C 11.1 g/m*3 16.1 C 0 km/h
2820 11-09-2008 03:13:06 16.1 C 11.1 g/m*3 16.1 C 0 km/h
2821 11-09-2008 03:18:06 16 C 11.04 g/m*3 16 C 0 km/h
2822 11-09-2008 03:23:06 16 C 11.04 g/m*3 16 C 0 km/h
2823 11-09-2008 03:28:06 16 C 11.17 g/m*3 16 C 0 km/h
2824 11-09-2008 03:33:06 15.9 C 11.1 g/m*3 15.9 C 0 km/h
2825 11-09-2008 03:38:06 15.9 C 11.1 g/m*3 15.9 C 0 km/h
Sensor: Nr:Datum:Temp:Abs-Feuchte:Windchill:Wind:
Aussen-T/F 2826 11-09-2008 03:43:06 15.8 C 11.04 g/m*3 15.8 C 0 km/h
2827 11-09-2008 03:48:06 15.8 C 11.04 g/m*3 15.8 C 0 km/h
2828 11-09-2008 03:53:06 15.8 C 11.04 g/m*3 15.8 C 0 km/h
2829 11-09-2008 03:58:06 15.7 C 10.97 g/m*3 15.7 C 0 km/h
2830 11-09-2008 04:03:06 15.6 C 10.91 g/m*3 15.6 C 0 km/h
2831 11-09-2008 04:08:07 15.7 C 10.97 g/m*3 15.7 C 0 km/h
2832 11-09-2008 04:13:07 15.5 C 10.84 g/m*3 15.5 C 0 km/h
2833 11-09-2008 04:18:07 15.4 C 10.9 g/m*3 15.4 C 0 km/h
2834 11-09-2008 04:23:07 15.4 C 10.9 g/m*3 15.4 C 0 km/h
2835 11-09-2008 04:28:07 15.4 C 10.9 g/m*3 15.4 C 0 km/h
2836 11-09-2008 04:33:07 15.3 C 10.84 g/m*3 15.3 C 0 km/h
2837 11-09-2008 04:38:07 15.3 C 10.84 g/m*3 15.3 C 0 km/h
2838 11-09-2008 04:43:07 15.3 C 10.84 g/m*3 15.3 C 0 km/h
2839 11-09-2008 04:48:07 15.3 C 10.97 g/m*3 15.3 C 0 km/h
2840 11-09-2008 04:53:07 15.3 C 10.97 g/m*3 15.3 C 0 km/h
2841 11-09-2008 04:58:07 15.3 C 10.97 g/m*3 15.3 C 0 km/h
2842 11-09-2008 05:03:07 15.4 C 11.04 g/m*3 15.4 C 0 km/h
2843 11-09-2008 05:08:07 15.5 C 11.1 g/m*3 15.5 C 0 km/h
2844 11-09-2008 05:13:07 15.5 C 11.1 g/m*3 15.5 C 0 km/h
2845 11-09-2008 05:18:07 15.6 C 11.17 g/m*3 15.6 C 0 km/h
2846 11-09-2008 05:23:07 15.6 C 11.17 g/m*3 15.6 C 0 km/h
2847 11-09-2008 05:28:07 15.6 C 11.17 g/m*3 15.6 C 0 km/h
2848 11-09-2008 05:33:07 15.6 C 11.17 g/m*3 15.6 C 0 km/h
2849 11-09-2008 05:38:07 15.5 C 11.1 g/m*3 15.5 C 0 km/h
2850 11-09-2008 05:43:08 15.5 C 11.1 g/m*3 15.5 C 0 km/h
Sensor: Nr:Datum:Temp:Abs-Feuchte:Windchill:Wind:
Aussen-T/F 2851 11-09-2008 05:48:08 15.5 C 11.1 g/m*3 15.5 C 0 km/h
2852 11-09-2008 05:53:08 15.5 C 10.97 g/m*3 15.5 C 0 km/h
2853 11-09-2008 05:58:08 15.4 C 11.04 g/m*3 15.4 C 0 km/h
2854 11-09-2008 06:03:08 15.4 C 11.04 g/m*3 15.4 C 0 km/h
2855 11-09-2008 06:08:08 15.3 C 10.97 g/m*3 15.3 C 0 km/h
2856 11-09-2008 06:13:08 15.2 C 10.9 g/m*3 15.2 C 0 km/h
2857 11-09-2008 06:18:08 15.1 C 10.84 g/m*3 15.1 C 0 km/h
2858 11-09-2008 06:23:08 15.1 C 10.84 g/m*3 15.1 C 0 km/h
2859 11-09-2008 06:28:08 15.2 C 11.03 g/m*3 15.2 C 0 km/h
2860 11-09-2008 06:33:08 15.1 C 10.97 g/m*3 15.1 C 0 km/h
2861 11-09-2008 06:38:08 15.1 C 10.97 g/m*3 15.1 C 0 km/h
2862 11-09-2008 06:43:08 15.2 C 11.03 g/m*3 15.2 C 0 km/h
2863 11-09-2008 06:48:08 15.3 C 11.1 g/m*3 15.3 C 0 km/h
2864 11-09-2008 06:53:08 15.3 C 11.1 g/m*3 15.3 C 0 km/h
2865 11-09-2008 06:58:08 15.4 C 11.17 g/m*3 15.4 C 0 km/h
2866 11-09-2008 07:03:02 15.4 C 11.17 g/m*3 15.4 C 0 km/h
2867 11-09-2008 07:08:02 15.4 C 11.17 g/m*3 15.4 C 0 km/h
2868 11-09-2008 07:13:02 15.4 C 11.17 g/m*3 15.4 C 0 km/h
2869 11-09-2008 07:18:02 15.4 C 11.17 g/m*3 15.4 C 0 km/h
2870 11-09-2008 07:23:02 15.4 C 11.17 g/m*3 15.4 C 0 km/h
2871 11-09-2008 07:28:02 15.4 C 11.17 g/m*3 15.4 C 0 km/h
2872 11-09-2008 07:33:02 15.4 C 11.17 g/m*3 15.4 C 0 km/h
2873 11-09-2008 07:38:02 15.4 C 11.3 g/m*3 15.4 C 0 km/h
2874 11-09-2008 07:43:02 15.5 C 11.37 g/m*3 15.5 C 0 km/h
2875 11-09-2008 07:48:02 15.6 C 11.44 g/m*3 15.6 C 0 km/h
Sensor: Nr:Datum:Temp:Abs-Feuchte:Windchill:Wind:
Aussen-T/F 2876 11-09-2008 07:53:02 15.7 C 11.51 g/m*3 15.7 C 0 km/h
2877 11-09-2008 07:58:02 15.8 C 11.58 g/m*3 15.8 C 0 km/h
2878 11-09-2008 08:03:02 15.8 C 11.58 g/m*3 15.8 C 0 km/h
2879 11-09-2008 08:08:02 15.8 C 11.44 g/m*3 15.8 C 0 km/h
2880 11-09-2008 08:13:02 15.9 C 11.51 g/m*3 15.9 C 0 km/h
2881 11-09-2008 08:18:02 16 C 11.44 g/m*3 16 C 0 km/h
2882 11-09-2008 08:23:02 16 C 11.44 g/m*3 16 C 0 km/h
2883 11-09-2008 08:28:02 16.1 C 11.65 g/m*3 16.1 C 0 km/h
2884 11-09-2008 08:33:03 16.2 C 11.72 g/m*3 16.2 C 0 km/h
2885 11-09-2008 08:38:03 16.4 C 11.86 g/m*3 16.4 C 0 km/h
2886 11-09-2008 08:43:03 16.5 C 11.8 g/m*3 16.5 C 0 km/h
2887 11-09-2008 08:48:02 16.6 C 11.87 g/m*3 16.6 C 0 km/h
2888 11-09-2008 08:53:02 16.6 C 11.87 g/m*3 16.6 C 0 km/h
2889 11-09-2008 08:58:02 16.7 C 11.94 g/m*3 16.7 C 0 km/h
2890 11-09-2008 09:03:02 16.8 C 11.87 g/m*3 16.8 C 0 km/h
2891 11-09-2008 09:08:02 16.8 C 11.87 g/m*3 16.8 C 0 km/h
2892 11-09-2008 09:13:02 17 C 12.01 g/m*3 17 C 0 km/h
2893 11-09-2008 09:18:02 17.2 C 12.15 g/m*3 17.2 C 0 km/h
2894 11-09-2008 09:23:02 17.3 C 12.08 g/m*3 17.3 C 0 km/h
2895 11-09-2008 09:28:02 17.5 C 12.23 g/m*3 17.5 C 0 km/h
2896 11-09-2008 09:33:03 17.6 C 12.15 g/m*3 17.6 C 0 km/h
2897 11-09-2008 09:38:03 17.6 C 12 g/m*3 17.6 C 0 km/h
2898 11-09-2008 09:43:03 17.7 C 12.07 g/m*3 17.7 C 0 km/h
2899 11-09-2008 09:48:02 17.8 C 11.99 g/m*3 17.8 C 0 km/h
2900 11-09-2008 09:53:02 17.9 C 12.06 g/m*3 17.9 C 0 km/h
Sensor: Nr:Datum:Temp:Abs-Feuchte:Windchill:Wind:
Aussen-T/F 2901 11-09-2008 09:58:02 18.2 C 12.12 g/m*3 18.2 C 0 km/h
2902 11-09-2008 10:03:03 18.4 C 12.11 g/m*3 18.4 C 0 km/h
2903 11-09-2008 10:08:03 18.7 C 12.33 g/m*3 18.7 C 0 km/h
2904 11-09-2008 10:13:03 18.8 C 12.24 g/m*3 18.8 C 0 km/h
2905 11-09-2008 10:18:02 19 C 12.06 g/m*3 19 C 0 km/h
2906 11-09-2008 10:23:02 19.2 C 12.04 g/m*3 19.2 C 0 km/h
2907 11-09-2008 10:28:02 19.3 C 12.11 g/m*3 19.3 C 0 km/h
2908 11-09-2008 10:33:02 19.5 C 12.08 g/m*3 19.5 C 0 km/h
2909 11-09-2008 10:38:02 19.7 C 12.06 g/m*3 19.7 C 0 km/h
2910 11-09-2008 10:43:02 19.9 C 12.03 g/m*3 19.9 C 0 km/h
2911 11-09-2008 10:48:03 20.1 C 11.82 g/m*3 20.1 C 0 km/h
2912 11-09-2008 10:53:03 20.5 C 12.1 g/m*3 20.5 C 0 km/h
2913 11-09-2008 10:58:03 20.4 C 11.85 g/m*3 20.4 C 0 km/h
2914 11-09-2008 11:03:02 20.5 C 11.74 g/m*3 20.5 C 0 km/h
2915 11-09-2008 11:08:02 20.8 C 11.95 g/m*3 20.8 C 0 km/h
2916 11-09-2008 11:13:02 20.9 C 11.84 g/m*3 20.9 C 0 km/h
2917 11-09-2008 11:18:02 21 C 11.72 g/m*3 21 C 0 km/h
2918 11-09-2008 11:23:02 21.1 C 11.79 g/m*3 21.1 C 0 km/h
2919 11-09-2008 11:28:02 21.2 C 11.68 g/m*3 21.2 C 0 km/h
2920 11-09-2008 11:33:02 21.1 C 11.61 g/m*3 21.1 C 0 km/h
2921 11-09-2008 11:38:02 20.9 C 11.66 g/m*3 20.9 C 0 km/h
2922 11-09-2008 11:43:03 20.8 C 11.95 g/m*3 20.8 C 0 km/h
2923 11-09-2008 11:48:01 20.9 C 12.02 g/m*3 20.9 C 0 km/h
2924 11-09-2008 11:53:01 21 C 11.91 g/m*3 21 C 0 km/h
2925 11-09-2008 11:58:01 21.1 C 11.79 g/m*3 21.1 C 0 km/h
Sensor: Nr:Datum:Temp:Abs-Feuchte:Windchill:Wind:
Aussen-T/F 2926 11-09-2008 12:03:02 21.1 C 11.98 g/m*3 21.1 C 0 km/h
2927 11-09-2008 12:08:02 21.2 C 12.05 g/m*3 21.2 C 0 km/h
2928 11-09-2008 12:13:02 21.2 C 12.05 g/m*3 21.2 C 0 km/h
2929 11-09-2008 12:18:02 21.5 C 12.26 g/m*3 21.5 C 0 km/h
2930 11-09-2008 12:23:02 21.6 C 12.14 g/m*3 21.6 C 0 km/h
2931 11-09-2008 12:28:03 21.9 C 12.35 g/m*3 21.9 C 0 km/h
2932 11-09-2008 12:33:01 22.2 C 12.17 g/m*3 22.2 C 0 km/h
2933 11-09-2008 12:38:01 22.5 C 12.38 g/m*3 22.5 C 0 km/h
2934 11-09-2008 12:43:01 22.8 C 12.19 g/m*3 22.8 C 0 km/h
2935 11-09-2008 12:48:02 23 C 12.13 g/m*3 23 C 0 km/h
2936 11-09-2008 12:53:02 23.1 C 12.2 g/m*3 23.1 C 0 km/h
2937 11-09-2008 12:58:02 23.3 C 12.13 g/m*3 23.3 C 0 km/h
2938 11-09-2008 13:03:01 23.7 C 12.19 g/m*3 23.7 C 0 km/h
2939 11-09-2008 13:08:01 24.1 C 12.03 g/m*3 24.1 C 0 km/h
2940 11-09-2008 13:13:01 24.3 C 12.17 g/m*3 24.3 C 0 km/h
2941 11-09-2008 13:18:01 24.7 C 12.22 g/m*3 24.7 C 0 km/h
2942 11-09-2008 13:23:01 24.9 C 12.13 g/m*3 24.9 C 0 km/h
2943 11-09-2008 13:28:01 24.9 C 11.9 g/m*3 24.9 C 0 km/h
2944 11-09-2008 13:33:02 25.4 C 11.77 g/m*3 25.4 C 0 km/h
2945 11-09-2008 13:38:02 25.7 C 11.73 g/m*3 25.7 C 0 km/h
2946 11-09-2008 13:43:02 25.9 C 11.86 g/m*3 25.9 C 0 km/h
2947 11-09-2008 13:48:02 26.1 C 12 g/m*3 26.1 C 0 km/h
2948 11-09-2008 13:53:02 26.4 C 11.7 g/m*3 26.4 C 0 km/h
2949 11-09-2008 13:58:02 26.5 C 11.77 g/m*3 26.5 C 0 km/h
2950 11-09-2008 14:03:01 26.9 C 11.77 g/m*3 26.9 C 0 km/h
Sensor: Nr:Datum:Temp:Abs-Feuchte:Windchill:Wind:
Aussen-T/F 2951 11-09-2008 14:08:01 27.2 C 11.45 g/m*3 27.2 C 0 km/h
2952 11-09-2008 14:13:01 27.5 C 11.38 g/m*3 27.5 C 0 km/h
2953 11-09-2008 14:18:02 27.7 C 11.5 g/m*3 27.7 C 0 km/h
2954 11-09-2008 14:23:02 27.8 C 11.3 g/m*3 27.8 C 0 km/h
2955 11-09-2008 14:28:02 27.9 C 11.09 g/m*3 27.9 C 0 km/h
2956 11-09-2008 14:33:02 27.8 C 11.03 g/m*3 27.8 C 0 km/h
2957 11-09-2008 14:38:02 28.2 C 11.27 g/m*3 28.2 C 0 km/h
2958 11-09-2008 14:43:02 28.3 C 11.06 g/m*3 28.3 C 0 km/h
2959 11-09-2008 14:48:01 28.3 C 11.33 g/m*3 28.3 C 0 km/h
2960 11-09-2008 14:53:01 28.7 C 11.3 g/m*3 28.7 C 0 km/h
2961 11-09-2008 14:58:01 29 C 10.63 g/m*3 29 C 0 km/h
2962 11-09-2008 15:03:02 29.4 C 10.27 g/m*3 29.4 C 0 km/h
2963 11-09-2008 15:08:03 29.6 C 10.68 g/m*3 29.6 C 0 km/h
2964 11-09-2008 15:13:03 29.4 C 9.98 g/m*3 29.4 C 0 km/h
2965 11-09-2008 15:18:02 29 C 10.63 g/m*3 29 C 0 km/h
2966 11-09-2008 15:23:02 28.8 C 10.51 g/m*3 28.8 C 0 km/h
2967 11-09-2008 15:28:02 28.7 C 10.17 g/m*3 28.7 C 0 km/h
2968 11-09-2008 15:33:02 28.8 C 10.51 g/m*3 28.8 C 0 km/h
2969 11-09-2008 15:38:02 28.9 C 10.86 g/m*3 28.9 C 0 km/h
2970 11-09-2008 15:43:02 29 C 9.77 g/m*3 29 C 0 km/h
2971 11-09-2008 15:48:02 29.2 C 9.29 g/m*3 29.2 C 0 km/h
2972 11-09-2008 15:53:02 29 C 8.9 g/m*3 29 C 0 km/h
2973 11-09-2008 15:58:02 28.6 C 8.99 g/m*3 28.6 C 0 km/h
2974 11-09-2008 16:03:01 28.3 C 9.68 g/m*3 28.3 C 0 km/h
2975 11-09-2008 16:08:01 28 C 10.06 g/m*3 28 C 0 km/h
Sensor: Nr:Datum:Temp:Abs-Feuchte:Windchill:Wind:
Aussen-T/F 2976 11-09-2008 16:13:01 27.7 C 10.7 g/m*3 27.7 C 0 km/h
2977 11-09-2008 16:18:02 27.1 C 10.61 g/m*3 27.1 C 0 km/h
2978 11-09-2008 16:23:02 26.6 C 11.08 g/m*3 26.6 C 0 km/h
2979 11-09-2008 16:28:02 26.5 C 10.51 g/m*3 26.5 C 0 km/h
2980 11-09-2008 16:33:02 26.3 C 11.39 g/m*3 26.3 C 0 km/h
2981 11-09-2008 16:38:02 26 C 11.2 g/m*3 26 C 0 km/h
2982 11-09-2008 16:43:02 25.9 C 11.62 g/m*3 25.9 C 0 km/h
2983 11-09-2008 16:48:02 25.8 C 11.56 g/m*3 25.8 C 0 km/h
2984 11-09-2008 16:53:02 25.6 C 10.95 g/m*3 25.6 C 0 km/h
2985 11-09-2008 16:58:02 25.4 C 11.06 g/m*3 25.4 C 0 km/h
2986 11-09-2008 17:03:02 25.1 C 11.11 g/m*3 25.1 C 0 km/h
2987 11-09-2008 17:08:02 25.3 C 10.77 g/m*3 25.3 C 0 km/h
2988 11-09-2008 17:13:02 25.2 C 10.94 g/m*3 25.2 C 0 km/h
2989 11-09-2008 17:18:02 25.1 C 10.88 g/m*3 25.1 C 0 km/h
2990 11-09-2008 17:23:02 25.1 C 10.88 g/m*3 25.1 C 0 km/h
2991 11-09-2008 17:28:02 24.8 C 11.38 g/m*3 24.8 C 0 km/h
2992 11-09-2008 17:33:02 24.7 C 11.54 g/m*3 24.7 C 0 km/h
2993 11-09-2008 17:38:02 24.6 C 11.7 g/m*3 24.6 C 0 km/h
2994 11-09-2008 17:43:02 23.2 C 13.1 g/m*3 23.2 C 0 km/h
2995 11-09-2008 17:48:02 22.7 C 13.74 g/m*3 22.7 C 0 km/h
2996 11-09-2008 17:53:02 21.6 C 14.22 g/m*3 21.6 C 0 km/h
2997 11-09-2008 17:58:02 21.1 C 14.56 g/m*3 21.1 C 0 km/h
2998 11-09-2008 18:03:01 20.9 C 14.75 g/m*3 20.9 C 0 km/h
2999 11-09-2008 18:08:01 20.8 C 14.85 g/m*3 20.8 C 0 km/h
3000 11-09-2008 18:13:01 20.9 C 15.12 g/m*3 20.9 C 0 km/h
Sensor: Nr:Datum:Temp:Abs-Feuchte:Windchill:Wind:
Aussen-T/F 3001 11-09-2008 18:18:02 21 C 15.02 g/m*3 21 C 0 km/h
3002 11-09-2008 18:23:02 21.1 C 15.11 g/m*3 21.1 C 0 km/h
3003 11-09-2008 18:28:02 21.4 C 15.37 g/m*3 21.4 C 0 km/h
3004 11-09-2008 18:33:02 21.6 C 15.36 g/m*3 21.6 C 0 km/h
3005 11-09-2008 18:38:02 21.8 C 15.54 g/m*3 21.8 C 0 km/h
3006 11-09-2008 18:43:02 22.1 C 15.42 g/m*3 22.1 C 0 km/h
3007 11-09-2008 18:48:02 22.2 C 15.31 g/m*3 22.2 C 0 km/h
3008 11-09-2008 18:53:02 22.2 C 15.31 g/m*3 22.2 C 0 km/h
3009 11-09-2008 18:58:02 22.2 C 15.12 g/m*3 22.2 C 0 km/h
3010 11-09-2008 19:03:02 22.2 C 15.12 g/m*3 22.2 C 0 km/h
3011 11-09-2008 19:08:02 22.1 C 15.03 g/m*3 22.1 C 0 km/h
3012 11-09-2008 19:13:02 22 C 14.94 g/m*3 22 C 0 km/h
3013 11-09-2008 19:18:02 21.8 C 15.16 g/m*3 21.8 C 0 km/h
3014 11-09-2008 19:23:02 21.6 C 14.98 g/m*3 21.6 C 0 km/h
3015 11-09-2008 19:28:02 21.4 C 14.81 g/m*3 21.4 C 0 km/h
3016 11-09-2008 19:33:01 21.2 C 14.83 g/m*3 21.2 C 0 km/h
3017 11-09-2008 19:38:01 21.1 C 14.74 g/m*3 21.1 C 0 km/h
3018 11-09-2008 19:43:01 21.1 C 14.92 g/m*3 21.1 C 0 km/h
3019 11-09-2008 19:48:02 20.9 C 14.93 g/m*3 20.9 C 0 km/h
3020 11-09-2008 19:53:02 20.8 C 14.85 g/m*3 20.8 C 0 km/h
3021 11-09-2008 19:58:02 20.7 C 14.76 g/m*3 20.7 C 0 km/h
3022 11-09-2008 20:03:02 20.6 C 14.68 g/m*3 20.6 C 0 km/h
3023 11-09-2008 20:08:02 20.4 C 14.51 g/m*3 20.4 C 0 km/h
3024 11-09-2008 20:13:02 20.3 C 14.42 g/m*3 20.3 C 0 km/h
3025 11-09-2008 20:18:02 20.1 C 14.25 g/m*3 20.1 C 0 km/h
Sensor: Nr:Datum:Temp:Abs-Feuchte:Windchill:Wind:
Aussen-T/F 3026 11-09-2008 20:23:02 20 C 14.17 g/m*3 20 C 0 km/h
3027 11-09-2008 20:28:02 19.9 C 14.26 g/m*3 19.9 C 0 km/h
3028 11-09-2008 20:33:02 19.9 C 14.26 g/m*3 19.9 C 0 km/h
3029 11-09-2008 20:38:02 19.9 C 14.26 g/m*3 19.9 C 0 km/h
3030 11-09-2008 20:43:02 19.9 C 14.26 g/m*3 19.9 C 0 km/h
3031 11-09-2008 20:48:01 20 C 14.17 g/m*3 20 C 0 km/h
3032 11-09-2008 20:53:01 19.7 C 14.26 g/m*3 19.7 C 0 km/h
3033 11-09-2008 20:58:01 19.6 C 14.18 g/m*3 19.6 C 0 km/h
3034 11-09-2008 21:03:01 19.5 C 14.1 g/m*3 19.5 C 0 km/h
3035 11-09-2008 21:08:01 19.6 C 14.18 g/m*3 19.6 C 0 km/h
3036 11-09-2008 21:13:01 19.5 C 14.1 g/m*3 19.5 C 0 km/h
3037 11-09-2008 21:18:01 19.5 C 14.1 g/m*3 19.5 C 0 km/h
3038 11-09-2008 21:23:01 19.5 C 14.1 g/m*3 19.5 C 0 km/h
3039 11-09-2008 21:28:01 19.4 C 14.01 g/m*3 19.4 C 0 km/h
3040 11-09-2008 21:33:01 19.3 C 13.93 g/m*3 19.3 C 0 km/h
3041 11-09-2008 21:38:01 19.3 C 13.93 g/m*3 19.3 C 0 km/h
3042 11-09-2008 21:43:01 19.3 C 14.1 g/m*3 19.3 C 0 km/h
3043 11-09-2008 21:49:03 19.2 C 14.02 g/m*3 19.2 C 0 km/h
3044 11-09-2008 21:54:03 19.2 C 14.02 g/m*3 19.2 C 0 km/h
3045 11-09-2008 21:59:03 19.1 C 13.93 g/m*3 19.1 C 0 km/h
3046 11-09-2008 22:04:03 19 C 13.85 g/m*3 19 C 0 km/h
3047 11-09-2008 22:09:03 19 C 13.85 g/m*3 19 C 0 km/h
3048 11-09-2008 22:14:03 19 C 13.85 g/m*3 19 C 0 km/h
3049 11-09-2008 22:19:03 18.9 C 13.93 g/m*3 18.9 C 0 km/h
3050 11-09-2008 22:24:03 18.9 C 13.93 g/m*3 18.9 C 0 km/h
Sensor: Nr:Datum:Temp:Abs-Feuchte:Windchill:Wind:
Aussen-T/F 3051 11-09-2008 22:29:03 18.8 C 13.85 g/m*3 18.8 C 0 km/h
3052 11-09-2008 22:34:03 18.8 C 13.85 g/m*3 18.8 C 0 km/h
3053 11-09-2008 22:39:03 18.7 C 13.93 g/m*3 18.7 C 0 km/h
3054 11-09-2008 22:44:03 18.7 C 13.93 g/m*3 18.7 C 0 km/h
3055 11-09-2008 22:49:03 18.7 C 13.77 g/m*3 18.7 C 0 km/h
3056 11-09-2008 22:54:03 18.6 C 13.69 g/m*3 18.6 C 0 km/h
3057 11-09-2008 22:59:03 18.6 C 13.85 g/m*3 18.6 C 0 km/h
3058 11-09-2008 23:04:04 18.6 C 13.85 g/m*3 18.6 C 0 km/h
3059 11-09-2008 23:09:04 18.5 C 13.77 g/m*3 18.5 C 0 km/h
3060 11-09-2008 23:14:04 18.5 C 13.77 g/m*3 18.5 C 0 km/h
3061 11-09-2008 23:19:04 18.5 C 13.77 g/m*3 18.5 C 0 km/h
3062 11-09-2008 23:24:04 18.4 C 13.68 g/m*3 18.4 C 0 km/h
3063 11-09-2008 23:29:04 18.3 C 13.6 g/m*3 18.3 C 0 km/h
3064 11-09-2008 23:34:04 18.2 C 13.52 g/m*3 18.2 C 0 km/h
3065 11-09-2008 23:39:04 18.1 C 13.44 g/m*3 18.1 C 0 km/h
3066 11-09-2008 23:44:04 18.1 C 13.44 g/m*3 18.1 C 0 km/h
3067 11-09-2008 23:49:04 18.1 C 13.44 g/m*3 18.1 C 0 km/h
3068 11-09-2008 23:54:04 18 C 13.36 g/m*3 18 C 0 km/h
3069 11-09-2008 23:59:04 18 C 13.52 g/m*3 18 C 0 km/h
3070 12-09-2008 00:04:04 18 C 13.52 g/m*3 18 C 0 km/h
3071 12-09-2008 00:09:04 18.1 C 13.6 g/m*3 18.1 C 0 km/h
3072 12-09-2008 00:14:04 18.1 C 13.6 g/m*3 18.1 C 0 km/h
3073 12-09-2008 00:19:04 18.1 C 13.6 g/m*3 18.1 C 0 km/h
3074 12-09-2008 00:24:04 18.1 C 13.6 g/m*3 18.1 C 0 km/h
3075 12-09-2008 00:29:04 18.1 C 13.6 g/m*3 18.1 C 0 km/h
Sensor: Nr:Datum:Temp:Abs-Feuchte:Windchill:Wind:
Aussen-T/F 3076 12-09-2008 00:34:04 18.1 C 13.6 g/m*3 18.1 C 0 km/h
3077 12-09-2008 00:39:05 18.1 C 13.6 g/m*3 18.1 C 0 km/h
3078 12-09-2008 00:44:05 18.1 C 13.6 g/m*3 18.1 C 0 km/h
3079 12-09-2008 00:49:05 18.1 C 13.6 g/m*3 18.1 C 0 km/h
3080 12-09-2008 00:54:05 18.1 C 13.6 g/m*3 18.1 C 0 km/h
3081 12-09-2008 00:59:05 18.1 C 13.6 g/m*3 18.1 C 0 km/h
3082 12-09-2008 01:04:05 18.1 C 13.6 g/m*3 18.1 C 0 km/h
3083 12-09-2008 01:09:05 18.1 C 13.6 g/m*3 18.1 C 0 km/h
3084 12-09-2008 01:14:05 18.1 C 13.6 g/m*3 18.1 C 0 km/h
3085 12-09-2008 01:19:05 18.2 C 13.68 g/m*3 18.2 C 0 km/h
3086 12-09-2008 01:24:05 18.2 C 13.68 g/m*3 18.2 C 0 km/h
3087 12-09-2008 01:29:05 18.2 C 13.68 g/m*3 18.2 C 0 km/h
3088 12-09-2008 01:34:05 18.2 C 13.52 g/m*3 18.2 C 0 km/h
3089 12-09-2008 01:39:05 18.3 C 13.6 g/m*3 18.3 C 0 km/h
3090 12-09-2008 01:44:05 18.3 C 13.6 g/m*3 18.3 C 0 km/h
3091 12-09-2008 01:49:05 18.3 C 13.6 g/m*3 18.3 C 0 km/h
3092 12-09-2008 01:54:05 18.3 C 13.45 g/m*3 18.3 C 0 km/h
3093 12-09-2008 01:59:05 18.3 C 13.45 g/m*3 18.3 C 0 km/h
3094 12-09-2008 02:04:05 18.2 C 13.37 g/m*3 18.2 C 0 km/h
3095 12-09-2008 02:09:05 18.3 C 13.45 g/m*3 18.3 C 0 km/h
3096 12-09-2008 02:14:06 18.2 C 13.37 g/m*3 18.2 C 0 km/h
3097 12-09-2008 02:19:06 18.3 C 13.45 g/m*3 18.3 C 0 km/h
3098 12-09-2008 02:24:06 18.3 C 13.45 g/m*3 18.3 C 0 km/h
3099 12-09-2008 02:29:06 18.3 C 13.45 g/m*3 18.3 C 0 km/h
3100 12-09-2008 02:34:06 18.3 C 13.45 g/m*3 18.3 C 0 km/h
Sensor: Nr:Datum:Temp:Abs-Feuchte:Windchill:Wind:
Aussen-T/F 3101 12-09-2008 02:39:06 18.3 C 13.45 g/m*3 18.3 C 0 km/h
3102 12-09-2008 02:44:06 18.3 C 13.45 g/m*3 18.3 C 0 km/h
3103 12-09-2008 02:49:06 18.3 C 13.45 g/m*3 18.3 C 0 km/h
3104 12-09-2008 02:54:06 18.3 C 13.45 g/m*3 18.3 C 0 km/h
3105 12-09-2008 02:59:06 18.3 C 13.45 g/m*3 18.3 C 0 km/h
3106 12-09-2008 03:04:06 18.3 C 13.45 g/m*3 18.3 C 0 km/h
3107 12-09-2008 03:09:06 18.2 C 13.37 g/m*3 18.2 C 0 km/h
3108 12-09-2008 03:14:06 18.1 C 13.44 g/m*3 18.1 C 0 km/h
3109 12-09-2008 03:19:06 18.1 C 13.44 g/m*3 18.1 C 0 km/h
3110 12-09-2008 03:24:06 18.1 C 13.44 g/m*3 18.1 C 0 km/h
3111 12-09-2008 03:29:06 18.2 C 13.52 g/m*3 18.2 C 0 km/h
3112 12-09-2008 03:34:06 18 C 13.36 g/m*3 18 C 0 km/h
3113 12-09-2008 03:39:06 17.9 C 13.44 g/m*3 17.9 C 0 km/h
3114 12-09-2008 03:44:06 17.9 C 13.59 g/m*3 17.9 C 0 km/h
3115 12-09-2008 03:49:07 17.8 C 13.51 g/m*3 17.8 C 0 km/h
3116 12-09-2008 03:54:07 17.8 C 13.51 g/m*3 17.8 C 0 km/h
3117 12-09-2008 03:59:07 17.8 C 13.51 g/m*3 17.8 C 0 km/h
3118 12-09-2008 04:04:07 17.9 C 13.59 g/m*3 17.9 C 0 km/h
3119 12-09-2008 04:09:07 17.9 C 13.59 g/m*3 17.9 C 0 km/h
3120 12-09-2008 04:14:07 17.9 C 13.59 g/m*3 17.9 C 0 km/h
3121 12-09-2008 04:19:07 17.8 C 13.51 g/m*3 17.8 C 0 km/h
3122 12-09-2008 04:24:07 17.8 C 13.51 g/m*3 17.8 C 0 km/h
3123 12-09-2008 04:29:07 17.8 C 13.51 g/m*3 17.8 C 0 km/h
3124 12-09-2008 04:34:07 17.8 C 13.51 g/m*3 17.8 C 0 km/h
3125 12-09-2008 04:39:07 17.8 C 13.51 g/m*3 17.8 C 0 km/h
Sensor: Nr:Datum:Temp:Abs-Feuchte:Windchill:Wind:
Aussen-T/F 3126 12-09-2008 04:44:07 17.7 C 13.43 g/m*3 17.7 C 0 km/h
3127 12-09-2008 04:49:07 17.7 C 13.43 g/m*3 17.7 C 0 km/h
3128 12-09-2008 04:54:07 17.7 C 13.43 g/m*3 17.7 C 0 km/h
3129 12-09-2008 04:59:07 17.7 C 13.58 g/m*3 17.7 C 0 km/h
3130 12-09-2008 05:04:07 17.7 C 13.58 g/m*3 17.7 C 0 km/h
3131 12-09-2008 05:09:07 17.7 C 13.58 g/m*3 17.7 C 0 km/h
3132 12-09-2008 05:14:07 17.7 C 13.58 g/m*3 17.7 C 0 km/h
3133 12-09-2008 05:19:07 17.5 C 13.27 g/m*3 17.5 C 0 km/h
3134 12-09-2008 05:24:07 17.5 C 13.27 g/m*3 17.5 C 0 km/h
3135 12-09-2008 05:29:08 17.5 C 13.42 g/m*3 17.5 C 0 km/h
3136 12-09-2008 05:34:08 17.4 C 13.19 g/m*3 17.4 C 0 km/h
3137 12-09-2008 05:39:08 17.4 C 13.19 g/m*3 17.4 C 0 km/h
3138 12-09-2008 05:44:08 17.4 C 13.19 g/m*3 17.4 C 0 km/h
3139 12-09-2008 05:49:08 17.4 C 13.34 g/m*3 17.4 C 0 km/h
3140 12-09-2008 05:54:08 17.2 C 13.03 g/m*3 17.2 C 0 km/h
3141 12-09-2008 05:59:08 17.2 C 13.03 g/m*3 17.2 C 0 km/h
3142 12-09-2008 06:04:08 17.3 C 13.26 g/m*3 17.3 C 0 km/h
3143 12-09-2008 06:09:08 17.5 C 13.42 g/m*3 17.5 C 0 km/h
3144 12-09-2008 06:14:08 17.5 C 13.42 g/m*3 17.5 C 0 km/h
3145 12-09-2008 06:19:08 17.4 C 13.34 g/m*3 17.4 C 0 km/h
3146 12-09-2008 06:24:08 17.4 C 13.34 g/m*3 17.4 C 0 km/h
3147 12-09-2008 06:29:08 17.5 C 13.42 g/m*3 17.5 C 0 km/h
3148 12-09-2008 06:34:08 17.4 C 13.34 g/m*3 17.4 C 0 km/h
3149 12-09-2008 06:39:08 17.2 C 13.18 g/m*3 17.2 C 0 km/h
3150 12-09-2008 06:44:08 17.2 C 13.18 g/m*3 17.2 C 0 km/h
Sensor: Nr:Datum:Temp:Abs-Feuchte:Windchill:Wind:
Aussen-T/F 3151 12-09-2008 06:49:08 17.2 C 13.03 g/m*3 17.2 C 0 km/h
3152 12-09-2008 06:54:08 17 C 12.88 g/m*3 17 C 0 km/h
3153 12-09-2008 06:59:08 16.9 C 12.94 g/m*3 16.9 C 0 km/h
3154 12-09-2008 07:04:02 16.9 C 12.94 g/m*3 16.9 C 0 km/h
3155 12-09-2008 07:09:02 16.9 C 12.94 g/m*3 16.9 C 0 km/h
3156 12-09-2008 07:14:02 17 C 12.88 g/m*3 17 C 0 km/h
3157 12-09-2008 07:19:03 17 C 12.88 g/m*3 17 C 0 km/h
3158 12-09-2008 07:24:03 16.9 C 12.94 g/m*3 16.9 C 0 km/h
3159 12-09-2008 07:29:03 16.9 C 12.94 g/m*3 16.9 C 0 km/h
3160 12-09-2008 07:34:02 17 C 12.88 g/m*3 17 C 0 km/h
3161 12-09-2008 07:39:02 16.8 C 12.87 g/m*3 16.8 C 0 km/h
3162 12-09-2008 07:44:02 16.9 C 12.8 g/m*3 16.9 C 0 km/h
3163 12-09-2008 07:49:01 16.8 C 12.87 g/m*3 16.8 C 0 km/h
3164 12-09-2008 07:54:01 16.8 C 12.87 g/m*3 16.8 C 0 km/h
3165 12-09-2008 07:59:01 16.9 C 12.94 g/m*3 16.9 C 0 km/h
3166 12-09-2008 08:04:02 16.9 C 12.94 g/m*3 16.9 C 0 km/h
3167 12-09-2008 08:09:02 16.9 C 12.94 g/m*3 16.9 C 0 km/h
3168 12-09-2008 08:14:02 17 C 12.88 g/m*3 17 C 0 km/h
3169 12-09-2008 08:19:01 17.1 C 12.96 g/m*3 17.1 C 0 km/h
3170 12-09-2008 08:24:01 17.1 C 12.96 g/m*3 17.1 C 0 km/h
3171 12-09-2008 08:29:01 17.1 C 12.81 g/m*3 17.1 C 0 km/h
3172 12-09-2008 08:34:02 17.2 C 12.89 g/m*3 17.2 C 0 km/h
3173 12-09-2008 08:39:02 17.3 C 12.96 g/m*3 17.3 C 0 km/h
3174 12-09-2008 08:44:02 17.5 C 13.12 g/m*3 17.5 C 0 km/h
3175 12-09-2008 08:49:02 17.4 C 12.89 g/m*3 17.4 C 0 km/h
Sensor: Nr:Datum:Temp:Abs-Feuchte:Windchill:Wind:
Aussen-T/F 3176 12-09-2008 08:54:02 17.5 C 12.97 g/m*3 17.5 C 0 km/h
3177 12-09-2008 08:59:02 17.4 C 12.89 g/m*3 17.4 C 0 km/h
3178 12-09-2008 09:04:02 17.2 C 12.74 g/m*3 17.2 C 0 km/h
3179 12-09-2008 09:09:02 17 C 12.73 g/m*3 17 C 0 km/h
3180 12-09-2008 09:14:02 16.9 C 12.8 g/m*3 16.9 C 0 km/h
3181 12-09-2008 09:19:02 16.9 C 12.8 g/m*3 16.9 C 0 km/h
3182 12-09-2008 09:24:02 17 C 12.88 g/m*3 17 C 0 km/h
3183 12-09-2008 09:29:02 17 C 12.88 g/m*3 17 C 0 km/h
3184 12-09-2008 09:34:02 16.9 C 12.94 g/m*3 16.9 C 0 km/h
3185 12-09-2008 09:39:02 16.8 C 12.87 g/m*3 16.8 C 0 km/h
3186 12-09-2008 09:44:02 16.9 C 13.09 g/m*3 16.9 C 0 km/h
3187 12-09-2008 09:49:02 17 C 13.02 g/m*3 17 C 0 km/h
3188 12-09-2008 09:54:02 17.3 C 13.41 g/m*3 17.3 C 0 km/h
3189 12-09-2008 09:59:02 17.5 C 13.57 g/m*3 17.5 C 0 km/h
3190 12-09-2008 10:04:01 17.5 C 13.57 g/m*3 17.5 C 0 km/h
3191 12-09-2008 10:09:01 17.3 C 13.26 g/m*3 17.3 C 0 km/h
3192 12-09-2008 10:14:01 17.3 C 13.26 g/m*3 17.3 C 0 km/h
3193 12-09-2008 10:19:02 17.4 C 13.34 g/m*3 17.4 C 0 km/h
3194 12-09-2008 10:24:02 17.7 C 13.73 g/m*3 17.7 C 0 km/h
3195 12-09-2008 10:29:02 17.6 C 13.65 g/m*3 17.6 C 0 km/h
3196 12-09-2008 10:34:01 17.5 C 13.57 g/m*3 17.5 C 0 km/h
3197 12-09-2008 10:39:01 17.6 C 13.65 g/m*3 17.6 C 0 km/h
3198 12-09-2008 10:44:01 17.6 C 13.65 g/m*3 17.6 C 0 km/h
3199 12-09-2008 10:49:01 17.6 C 13.65 g/m*3 17.6 C 0 km/h
3200 12-09-2008 10:54:01 17.7 C 13.73 g/m*3 17.7 C 0 km/h
Sensor: Nr:Datum:Temp:Abs-Feuchte:Windchill:Wind:
Aussen-T/F 3201 12-09-2008 10:59:01 17.7 C 13.73 g/m*3 17.7 C 0 km/h
3202 12-09-2008 11:04:02 17.7 C 13.73 g/m*3 17.7 C 0 km/h
3203 12-09-2008 11:09:02 17.6 C 13.65 g/m*3 17.6 C 0 km/h
3204 12-09-2008 11:14:02 17.5 C 13.57 g/m*3 17.5 C 0 km/h
3205 12-09-2008 11:19:01 17.6 C 13.65 g/m*3 17.6 C 0 km/h
3206 12-09-2008 11:24:01 17.6 C 13.65 g/m*3 17.6 C 0 km/h
3207 12-09-2008 11:29:01 17.7 C 13.73 g/m*3 17.7 C 0 km/h
3208 12-09-2008 11:34:02 17.6 C 13.65 g/m*3 17.6 C 0 km/h
3209 12-09-2008 11:39:02 17.6 C 13.8 g/m*3 17.6 C 0 km/h
3210 12-09-2008 11:44:02 17.7 C 13.88 g/m*3 17.7 C 0 km/h
3211 12-09-2008 11:49:02 17.7 C 13.88 g/m*3 17.7 C 0 km/h
3212 12-09-2008 11:54:02 17.7 C 13.88 g/m*3 17.7 C 0 km/h
3213 12-09-2008 11:59:02 17.7 C 13.88 g/m*3 17.7 C 0 km/h
3214 12-09-2008 12:04:02 17.7 C 13.88 g/m*3 17.7 C 0 km/h
3215 12-09-2008 12:09:02 17.9 C 14.05 g/m*3 17.9 C 0 km/h
3216 12-09-2008 12:14:02 17.9 C 14.05 g/m*3 17.9 C 0 km/h
3217 12-09-2008 12:19:02 17.7 C 13.88 g/m*3 17.7 C 0 km/h
3218 12-09-2008 12:24:02 17.7 C 13.88 g/m*3 17.7 C 0 km/h
3219 12-09-2008 12:29:02 17.7 C 13.88 g/m*3 17.7 C 0 km/h
3220 12-09-2008 12:34:02 17.8 C 13.96 g/m*3 17.8 C 0 km/h
3221 12-09-2008 12:39:02 17.9 C 14.05 g/m*3 17.9 C 0 km/h
3222 12-09-2008 12:44:02 17.9 C 14.05 g/m*3 17.9 C 0 km/h